<?xml version="1.0" encoding="UTF-8"?>
<gpx xmlns="http://www.topografix.com/GPX/1/1" xmlns:xsi="http://www.w3.org/2001/XMLSchema-instance" creator="orig: https://MapMagic.app [change: GPX2CNX_MultyTool v1.1.9]" xsi:schemaLocation="http://www.topografix.com/GPX/1/1 http://www.topografix.com/GPX/1/1/gpx.xsd" version="1.1">
	<metadata><name>Нерль-300</name><author><name>caravan-randonneur-moscow</name><email id="mail.ru">caravan_randonneur</email><link href="www.caravan-randonneur.ru/calendar" /></author><time>2026-08-21T20:46:31Z</time></metadata><trk>
		<name>Нерль-300</name>
		<desc />
		<trkseg>
			<trkpt lat="56.129984" lon="40.419530"><ele>102.0</ele><time>2026-08-16T18:02:18Z</time></trkpt>
			<trkpt lat="56.129934" lon="40.419416"><ele>102.0</ele><time>2026-08-16T18:02:24Z</time></trkpt>
			<trkpt lat="56.129962" lon="40.419376"><ele>101.9</ele><time>2026-08-16T18:02:28Z</time></trkpt>
			<trkpt lat="56.129933" lon="40.419309"><ele>101.9</ele><time>2026-08-16T18:02:31Z</time></trkpt>
			<trkpt lat="56.129995" lon="40.419227"><ele>102.0</ele><time>2026-08-16T18:02:36Z</time></trkpt>
			<trkpt lat="56.130503" lon="40.420370"><ele>102.3</ele><time>2026-08-16T18:02:45Z</time></trkpt>
			<trkpt lat="56.130696" lon="40.420694"><ele>102.2</ele><time>2026-08-16T18:02:48Z</time></trkpt>
			<trkpt lat="56.130884" lon="40.420649"><ele>102.5</ele><time>2026-08-16T18:02:50Z</time></trkpt>
			<trkpt lat="56.130901" lon="40.420602"><ele>102.6</ele><time>2026-08-16T18:02:51Z</time></trkpt>
			<trkpt lat="56.130970" lon="40.420574"><ele>102.9</ele><time>2026-08-16T18:02:52Z</time></trkpt>
			<trkpt lat="56.131072" lon="40.420970"><ele>102.7</ele><time>2026-08-16T18:02:55Z</time></trkpt>
			<trkpt lat="56.131405" lon="40.421725"><ele>102.2</ele><time>2026-08-16T18:03:02Z</time></trkpt>
			<trkpt lat="56.132344" lon="40.423690"><ele>103.0</ele><time>2026-08-16T18:03:32Z</time></trkpt>
			<trkpt lat="56.135192" lon="40.430020"><ele>101.2</ele><time>2026-08-16T18:04:35Z</time></trkpt>
			<trkpt lat="56.135690" lon="40.430583"><ele>102.2</ele><time>2026-08-16T18:04:46Z</time></trkpt>
			<trkpt lat="56.137301" lon="40.432149"><ele>100.7</ele><time>2026-08-16T18:05:17Z</time></trkpt>
			<trkpt lat="56.137664" lon="40.432639"><ele>100.8</ele><time>2026-08-16T18:05:23Z</time></trkpt>
			<trkpt lat="56.137899" lon="40.433055"><ele>101.6</ele><time>2026-08-16T18:05:29Z</time></trkpt>
			<trkpt lat="56.138201" lon="40.433476"><ele>102.5</ele><time>2026-08-16T18:05:35Z</time></trkpt>
			<trkpt lat="56.138621" lon="40.433816"><ele>102.9</ele><time>2026-08-16T18:05:43Z</time></trkpt>
			<trkpt lat="56.138945" lon="40.434166"><ele>102.3</ele><time>2026-08-16T18:05:50Z</time></trkpt>
			<trkpt lat="56.140706" lon="40.435815"><ele>104.0</ele><time>2026-08-16T18:06:20Z</time></trkpt>
			<trkpt lat="56.141148" lon="40.436296"><ele>104.5</ele><time>2026-08-16T18:06:28Z</time></trkpt>
			<trkpt lat="56.141390" lon="40.436625"><ele>103.8</ele><time>2026-08-16T18:06:33Z</time></trkpt>
			<trkpt lat="56.141784" lon="40.437267"><ele>102.3</ele><time>2026-08-16T18:06:41Z</time></trkpt>
			<trkpt lat="56.143192" lon="40.439771"><ele>99.1</ele><time>2026-08-16T18:07:05Z</time></trkpt>
			<trkpt lat="56.147487" lon="40.447767"><ele>99.7</ele><time>2026-08-16T18:08:35Z</time></trkpt>
			<trkpt lat="56.152215" lon="40.456344"><ele>119.1</ele><time>2026-08-16T18:11:27Z</time></trkpt>
			<trkpt lat="56.165633" lon="40.480509"><ele>150.1</ele><time>2026-08-16T18:18:25Z</time></trkpt>
			<trkpt lat="56.166463" lon="40.481933"><ele>150.2</ele><time>2026-08-16T18:18:40Z</time></trkpt>
			<trkpt lat="56.170209" lon="40.488686"><ele>149.1</ele><time>2026-08-16T18:19:58Z</time></trkpt>
			<trkpt lat="56.176803" lon="40.500377"><ele>142.2</ele><time>2026-08-16T18:22:12Z</time></trkpt>
			<trkpt lat="56.177232" lon="40.501265"><ele>140.5</ele><time>2026-08-16T18:22:19Z</time></trkpt>
			<trkpt lat="56.180651" lon="40.507416"><ele>111.6</ele><time>2026-08-16T18:23:03Z</time></trkpt>
			<trkpt lat="56.183858" lon="40.512971"><ele>127.0</ele><time>2026-08-16T18:25:03Z</time></trkpt>
			<trkpt lat="56.192197" lon="40.527788"><ele>120.1</ele><time>2026-08-16T18:28:09Z</time></trkpt>
			<trkpt lat="56.194876" lon="40.532820"><ele>112.2</ele><time>2026-08-16T18:28:55Z</time></trkpt>
			<trkpt lat="56.196658" lon="40.535564"><ele>112.7</ele><time>2026-08-16T18:29:32Z</time></trkpt>
			<trkpt lat="56.196892" lon="40.536158"><ele>112.2</ele><time>2026-08-16T18:29:40Z</time></trkpt>
			<trkpt lat="56.197917" lon="40.539784"><ele>108.2</ele><time>2026-08-16T18:30:04Z</time></trkpt>
			<trkpt lat="56.196782" lon="40.540706"><ele>99.2</ele><time>2026-08-16T18:30:16Z</time></trkpt>
			<trkpt lat="56.196196" lon="40.541233"><ele>96.4</ele><time>2026-08-16T18:30:23Z</time></trkpt>
			<trkpt lat="56.196084" lon="40.541402"><ele>96.2</ele><time>2026-08-16T18:30:24Z</time></trkpt>
			<trkpt lat="56.196047" lon="40.541520"><ele>96.2</ele><time>2026-08-16T18:30:26Z</time></trkpt>
			<trkpt lat="56.195821" lon="40.541786"><ele>96.0</ele><time>2026-08-16T18:30:31Z</time></trkpt>
			<trkpt lat="56.195878" lon="40.541995"><ele>96.0</ele><time>2026-08-16T18:30:46Z</time></trkpt>
			<trkpt lat="56.195832" lon="40.542043"><ele>96.0</ele><time>2026-08-16T18:30:49Z</time></trkpt>
			<trkpt lat="56.195779" lon="40.541968"><ele>96.1</ele><time>2026-08-16T18:30:54Z</time></trkpt>
			<trkpt lat="56.195798" lon="40.542099"><ele>96.2</ele><time>2026-08-16T18:31:00Z</time></trkpt>
			<trkpt lat="56.195762" lon="40.542158"><ele>96.2</ele><time>2026-08-16T18:31:03Z</time></trkpt>
			<trkpt lat="56.195733" lon="40.542126"><ele>96.3</ele><time>2026-08-16T18:31:06Z</time></trkpt>
			<trkpt lat="56.195263" lon="40.542822"><ele>99.1</ele><time>2026-08-16T18:32:07Z</time></trkpt>
			<trkpt lat="56.195146" lon="40.543194"><ele>100.3</ele><time>2026-08-16T18:32:23Z</time></trkpt>
			<trkpt lat="56.195150" lon="40.543190"><ele>100.3</ele><time>2026-08-16T18:32:23Z</time></trkpt>
			<trkpt lat="56.195150" lon="40.543190"><ele>100.3</ele><time>2026-08-16T18:32:26Z</time></trkpt>
			<trkpt lat="56.195200" lon="40.543570"><ele>100.1</ele><time>2026-08-16T18:32:30Z</time></trkpt>
			<trkpt lat="56.195220" lon="40.543860"><ele>99.7</ele><time>2026-08-16T18:32:34Z</time></trkpt>
			<trkpt lat="56.195250" lon="40.543970"><ele>99.5</ele><time>2026-08-16T18:32:37Z</time></trkpt>
			<trkpt lat="56.195300" lon="40.544290"><ele>99.1</ele><time>2026-08-16T18:32:41Z</time></trkpt>
			<trkpt lat="56.195320" lon="40.544420"><ele>98.8</ele><time>2026-08-16T18:32:45Z</time></trkpt>
			<trkpt lat="56.195390" lon="40.545110"><ele>97.7</ele><time>2026-08-16T18:32:48Z</time></trkpt>
			<trkpt lat="56.195560" lon="40.545820"><ele>96.2</ele><time>2026-08-16T18:32:52Z</time></trkpt>
			<trkpt lat="56.195570" lon="40.546550"><ele>93.3</ele><time>2026-08-16T18:32:56Z</time></trkpt>
			<trkpt lat="56.195630" lon="40.547140"><ele>91.6</ele><time>2026-08-16T18:33:00Z</time></trkpt>
			<trkpt lat="56.195640" lon="40.547740"><ele>90.8</ele><time>2026-08-16T18:33:03Z</time></trkpt>
			<trkpt lat="56.195680" lon="40.548090"><ele>90.9</ele><time>2026-08-16T18:33:07Z</time></trkpt>
			<trkpt lat="56.195690" lon="40.548730"><ele>91.8</ele><time>2026-08-16T18:33:11Z</time></trkpt>
			<trkpt lat="56.195840" lon="40.551450"><ele>91.3</ele><time>2026-08-16T18:33:14Z</time></trkpt>
			<trkpt lat="56.195930" lon="40.553260"><ele>91.7</ele><time>2026-08-16T18:33:18Z</time></trkpt>
			<trkpt lat="56.195930" lon="40.554500"><ele>91.6</ele><time>2026-08-16T18:33:22Z</time></trkpt>
			<trkpt lat="56.195970" lon="40.555660"><ele>91.3</ele><time>2026-08-16T18:33:26Z</time></trkpt>
			<trkpt lat="56.195970" lon="40.555660"><ele>91.3</ele><time>2026-08-16T18:33:26Z</time></trkpt>
			<trkpt lat="56.195930" lon="40.554500"><ele>91.6</ele><time>2026-08-16T18:33:29Z</time></trkpt>
			<trkpt lat="56.195930" lon="40.553260"><ele>91.8</ele><time>2026-08-16T18:33:33Z</time></trkpt>
			<trkpt lat="56.195840" lon="40.551450"><ele>91.3</ele><time>2026-08-16T18:33:37Z</time></trkpt>
			<trkpt lat="56.195690" lon="40.548730"><ele>91.8</ele><time>2026-08-16T18:33:40Z</time></trkpt>
			<trkpt lat="56.195680" lon="40.548090"><ele>90.9</ele><time>2026-08-16T18:33:44Z</time></trkpt>
			<trkpt lat="56.195640" lon="40.547740"><ele>90.8</ele><time>2026-08-16T18:33:48Z</time></trkpt>
			<trkpt lat="56.195630" lon="40.547140"><ele>91.6</ele><time>2026-08-16T18:33:51Z</time></trkpt>
			<trkpt lat="56.195570" lon="40.546550"><ele>93.2</ele><time>2026-08-16T18:33:55Z</time></trkpt>
			<trkpt lat="56.195560" lon="40.545820"><ele>96.2</ele><time>2026-08-16T18:33:59Z</time></trkpt>
			<trkpt lat="56.195390" lon="40.545110"><ele>97.7</ele><time>2026-08-16T18:34:03Z</time></trkpt>
			<trkpt lat="56.195320" lon="40.544420"><ele>98.8</ele><time>2026-08-16T18:34:06Z</time></trkpt>
			<trkpt lat="56.195300" lon="40.544290"><ele>99.0</ele><time>2026-08-16T18:34:10Z</time></trkpt>
			<trkpt lat="56.195250" lon="40.543970"><ele>99.5</ele><time>2026-08-16T18:34:14Z</time></trkpt>
			<trkpt lat="56.195220" lon="40.543860"><ele>99.7</ele><time>2026-08-16T18:34:17Z</time></trkpt>
			<trkpt lat="56.195200" lon="40.543570"><ele>100.1</ele><time>2026-08-16T18:34:21Z</time></trkpt>
			<trkpt lat="56.195150" lon="40.543190"><ele>100.3</ele><time>2026-08-16T18:34:25Z</time></trkpt>
			<trkpt lat="56.195150" lon="40.543190"><ele>100.3</ele><time>2026-08-16T18:34:29Z</time></trkpt>
			<trkpt lat="56.195263" lon="40.542822"><ele>99.2</ele><time>2026-08-16T18:34:46Z</time></trkpt>
			<trkpt lat="56.195290" lon="40.542976"><ele>99.0</ele><time>2026-08-16T18:34:52Z</time></trkpt>
			<trkpt lat="56.195520" lon="40.542608"><ele>97.6</ele><time>2026-08-16T18:35:13Z</time></trkpt>
			<trkpt lat="56.195550" lon="40.542520"><ele>97.4</ele><time>2026-08-16T18:35:17Z</time></trkpt>
			<trkpt lat="56.195537" lon="40.542395"><ele>97.2</ele><time>2026-08-16T18:35:22Z</time></trkpt>
			<trkpt lat="56.195733" lon="40.542126"><ele>96.3</ele><time>2026-08-16T18:35:40Z</time></trkpt>
			<trkpt lat="56.195762" lon="40.542158"><ele>96.2</ele><time>2026-08-16T18:35:42Z</time></trkpt>
			<trkpt lat="56.195798" lon="40.542099"><ele>96.1</ele><time>2026-08-16T18:35:45Z</time></trkpt>
			<trkpt lat="56.195779" lon="40.541968"><ele>96.1</ele><time>2026-08-16T18:35:51Z</time></trkpt>
			<trkpt lat="56.195832" lon="40.542043"><ele>96.1</ele><time>2026-08-16T18:35:56Z</time></trkpt>
			<trkpt lat="56.195878" lon="40.541995"><ele>96.0</ele><time>2026-08-16T18:36:00Z</time></trkpt>
			<trkpt lat="56.195898" lon="40.542066"><ele>96.1</ele><time>2026-08-16T18:36:04Z</time></trkpt>
			<trkpt lat="56.196130" lon="40.541701"><ele>96.4</ele><time>2026-08-16T18:36:37Z</time></trkpt>
			<trkpt lat="56.196047" lon="40.541520"><ele>96.2</ele><time>2026-08-16T18:36:39Z</time></trkpt>
			<trkpt lat="56.196084" lon="40.541402"><ele>96.2</ele><time>2026-08-16T18:36:40Z</time></trkpt>
			<trkpt lat="56.196196" lon="40.541233"><ele>96.4</ele><time>2026-08-16T18:36:43Z</time></trkpt>
			<trkpt lat="56.196782" lon="40.540706"><ele>99.2</ele><time>2026-08-16T18:37:00Z</time></trkpt>
			<trkpt lat="56.197917" lon="40.539784"><ele>108.2</ele><time>2026-08-16T18:37:47Z</time></trkpt>
			<trkpt lat="56.196892" lon="40.536158"><ele>112.2</ele><time>2026-08-16T18:38:45Z</time></trkpt>
			<trkpt lat="56.196658" lon="40.535564"><ele>112.7</ele><time>2026-08-16T18:38:51Z</time></trkpt>
			<trkpt lat="56.194876" lon="40.532820"><ele>112.2</ele><time>2026-08-16T18:39:25Z</time></trkpt>
			<trkpt lat="56.192197" lon="40.527788"><ele>120.1</ele><time>2026-08-16T18:40:43Z</time></trkpt>
			<trkpt lat="56.187293" lon="40.519093"><ele>136.9</ele><time>2026-08-16T18:43:45Z</time></trkpt>
			<trkpt lat="56.186971" lon="40.518388"><ele>137.9</ele><time>2026-08-16T18:43:54Z</time></trkpt>
			<trkpt lat="56.186292" lon="40.517129"><ele>136.4</ele><time>2026-08-16T18:44:07Z</time></trkpt>
			<trkpt lat="56.183904" lon="40.512865"><ele>127.0</ele><time>2026-08-16T18:44:42Z</time></trkpt>
			<trkpt lat="56.180708" lon="40.507314"><ele>111.8</ele><time>2026-08-16T18:45:30Z</time></trkpt>
			<trkpt lat="56.177664" lon="40.501833"><ele>138.9</ele><time>2026-08-16T18:48:07Z</time></trkpt>
			<trkpt lat="56.177050" lon="40.500676"><ele>141.3</ele><time>2026-08-16T18:48:33Z</time></trkpt>
			<trkpt lat="56.176761" lon="40.500045"><ele>142.8</ele><time>2026-08-16T18:48:44Z</time></trkpt>
			<trkpt lat="56.176437" lon="40.499274"><ele>144.5</ele><time>2026-08-16T18:48:54Z</time></trkpt>
			<trkpt lat="56.176117" lon="40.498191"><ele>146.3</ele><time>2026-08-16T18:49:05Z</time></trkpt>
			<trkpt lat="56.175793" lon="40.498598"><ele>146.3</ele><time>2026-08-16T18:49:12Z</time></trkpt>
			<trkpt lat="56.168306" lon="40.485288"><ele>152.2</ele><time>2026-08-16T18:52:21Z</time></trkpt>
			<trkpt lat="56.166809" lon="40.482549"><ele>151.4</ele><time>2026-08-16T18:52:47Z</time></trkpt>
			<trkpt lat="56.165633" lon="40.480509"><ele>150.2</ele><time>2026-08-16T18:53:14Z</time></trkpt>
			<trkpt lat="56.152215" lon="40.456344"><ele>119.1</ele><time>2026-08-16T18:57:14Z</time></trkpt>
			<trkpt lat="56.147487" lon="40.447767"><ele>99.7</ele><time>2026-08-16T18:58:27Z</time></trkpt>
			<trkpt lat="56.143192" lon="40.439771"><ele>99.1</ele><time>2026-08-16T19:00:06Z</time></trkpt>
			<trkpt lat="56.141784" lon="40.437267"><ele>102.3</ele><time>2026-08-16T19:00:43Z</time></trkpt>
			<trkpt lat="56.141390" lon="40.436625"><ele>103.8</ele><time>2026-08-16T19:00:52Z</time></trkpt>
			<trkpt lat="56.141148" lon="40.436296"><ele>104.5</ele><time>2026-08-16T19:00:56Z</time></trkpt>
			<trkpt lat="56.140706" lon="40.435815"><ele>104.0</ele><time>2026-08-16T19:01:03Z</time></trkpt>
			<trkpt lat="56.138945" lon="40.434166"><ele>102.3</ele><time>2026-08-16T19:01:32Z</time></trkpt>
			<trkpt lat="56.138621" lon="40.433816"><ele>102.9</ele><time>2026-08-16T19:01:37Z</time></trkpt>
			<trkpt lat="56.138243" lon="40.433171"><ele>103.7</ele><time>2026-08-16T19:01:44Z</time></trkpt>
			<trkpt lat="56.138095" lon="40.432780"><ele>103.7</ele><time>2026-08-16T19:01:47Z</time></trkpt>
			<trkpt lat="56.137918" lon="40.432126"><ele>103.8</ele><time>2026-08-16T19:01:52Z</time></trkpt>
			<trkpt lat="56.137751" lon="40.431157"><ele>104.2</ele><time>2026-08-16T19:02:04Z</time></trkpt>
			<trkpt lat="56.137763" lon="40.427987"><ele>106.0</ele><time>2026-08-16T19:02:43Z</time></trkpt>
			<trkpt lat="56.137722" lon="40.426808"><ele>105.7</ele><time>2026-08-16T19:02:58Z</time></trkpt>
			<trkpt lat="56.137557" lon="40.423789"><ele>107.4</ele><time>2026-08-16T19:03:36Z</time></trkpt>
			<trkpt lat="56.137403" lon="40.422234"><ele>108.8</ele><time>2026-08-16T19:03:51Z</time></trkpt>
			<trkpt lat="56.137275" lon="40.421504"><ele>110.1</ele><time>2026-08-16T19:03:58Z</time></trkpt>
			<trkpt lat="56.137009" lon="40.420430"><ele>111.4</ele><time>2026-08-16T19:04:10Z</time></trkpt>
			<trkpt lat="56.135655" lon="40.415724"><ele>113.6</ele><time>2026-08-16T19:05:02Z</time></trkpt>
			<trkpt lat="56.135334" lon="40.414448"><ele>116.6</ele><time>2026-08-16T19:05:14Z</time></trkpt>
			<trkpt lat="56.135199" lon="40.413516"><ele>115.5</ele><time>2026-08-16T19:05:22Z</time></trkpt>
			<trkpt lat="56.135045" lon="40.411344"><ele>115.9</ele><time>2026-08-16T19:05:45Z</time></trkpt>
			<trkpt lat="56.134444" lon="40.407782"><ele>119.1</ele><time>2026-08-16T19:06:23Z</time></trkpt>
			<trkpt lat="56.134220" lon="40.406923"><ele>117.0</ele><time>2026-08-16T19:06:31Z</time></trkpt>
			<trkpt lat="56.133901" lon="40.404882"><ele>121.5</ele><time>2026-08-16T19:07:11Z</time></trkpt>
			<trkpt lat="56.133233" lon="40.404444"><ele>124.6</ele><time>2026-08-16T19:07:45Z</time></trkpt>
			<trkpt lat="56.132973" lon="40.404398"><ele>126.7</ele><time>2026-08-16T19:07:58Z</time></trkpt>
			<trkpt lat="56.132515" lon="40.404484"><ele>131.0</ele><time>2026-08-16T19:08:18Z</time></trkpt>
			<trkpt lat="56.130772" lon="40.405150"><ele>140.6</ele><time>2026-08-16T19:09:03Z</time></trkpt>
			<trkpt lat="56.130340" lon="40.405258"><ele>142.4</ele><time>2026-08-16T19:09:13Z</time></trkpt>
			<trkpt lat="56.129934" lon="40.405316"><ele>143.8</ele><time>2026-08-16T19:09:23Z</time></trkpt>
			<trkpt lat="56.129027" lon="40.405636"><ele>145.0</ele><time>2026-08-16T19:09:39Z</time></trkpt>
			<trkpt lat="56.128186" lon="40.406141"><ele>145.8</ele><time>2026-08-16T19:09:50Z</time></trkpt>
			<trkpt lat="56.126895" lon="40.406721"><ele>133.9</ele><time>2026-08-16T19:10:02Z</time></trkpt>
			<trkpt lat="56.126619" lon="40.406813"><ele>132.4</ele><time>2026-08-16T19:10:05Z</time></trkpt>
			<trkpt lat="56.126391" lon="40.406785"><ele>130.3</ele><time>2026-08-16T19:10:07Z</time></trkpt>
			<trkpt lat="56.125941" lon="40.406630"><ele>124.6</ele><time>2026-08-16T19:10:11Z</time></trkpt>
			<trkpt lat="56.125731" lon="40.406611"><ele>122.4</ele><time>2026-08-16T19:10:13Z</time></trkpt>
			<trkpt lat="56.125526" lon="40.406648"><ele>120.3</ele><time>2026-08-16T19:10:14Z</time></trkpt>
			<trkpt lat="56.125150" lon="40.406852"><ele>117.3</ele><time>2026-08-16T19:10:18Z</time></trkpt>
			<trkpt lat="56.124716" lon="40.407169"><ele>112.9</ele><time>2026-08-16T19:10:22Z</time></trkpt>
			<trkpt lat="56.124483" lon="40.407392"><ele>109.5</ele><time>2026-08-16T19:10:24Z</time></trkpt>
			<trkpt lat="56.120302" lon="40.412232"><ele>97.4</ele><time>2026-08-16T19:11:19Z</time></trkpt>
			<trkpt lat="56.120011" lon="40.412635"><ele>97.0</ele><time>2026-08-16T19:11:23Z</time></trkpt>
			<trkpt lat="56.112074" lon="40.426699"><ele>96.5</ele><time>2026-08-16T19:14:14Z</time></trkpt>
			<trkpt lat="56.111571" lon="40.427486"><ele>98.2</ele><time>2026-08-16T19:14:25Z</time></trkpt>
			<trkpt lat="56.111147" lon="40.428059"><ele>98.8</ele><time>2026-08-16T19:14:36Z</time></trkpt>
			<trkpt lat="56.110011" lon="40.429298"><ele>102.3</ele><time>2026-08-16T19:15:03Z</time></trkpt>
			<trkpt lat="56.108923" lon="40.430605"><ele>103.9</ele><time>2026-08-16T19:15:22Z</time></trkpt>
			<trkpt lat="56.105668" lon="40.434619"><ele>102.0</ele><time>2026-08-16T19:16:19Z</time></trkpt>
			<trkpt lat="56.102588" lon="40.438186"><ele>105.2</ele><time>2026-08-16T19:17:28Z</time></trkpt>
			<trkpt lat="56.100873" lon="40.440388"><ele>108.1</ele><time>2026-08-16T19:18:07Z</time></trkpt>
			<trkpt lat="56.097629" lon="40.444743"><ele>106.1</ele><time>2026-08-16T19:19:08Z</time></trkpt>
			<trkpt lat="56.096157" lon="40.446870"><ele>106.8</ele><time>2026-08-16T19:19:39Z</time></trkpt>
			<trkpt lat="56.095929" lon="40.446439"><ele>106.8</ele><time>2026-08-16T19:19:47Z</time></trkpt>
			<trkpt lat="56.094187" lon="40.439065"><ele>107.8</ele><time>2026-08-16T19:21:05Z</time></trkpt>
			<trkpt lat="56.093995" lon="40.438465"><ele>106.6</ele><time>2026-08-16T19:21:10Z</time></trkpt>
			<trkpt lat="56.093694" lon="40.437956"><ele>105.9</ele><time>2026-08-16T19:21:14Z</time></trkpt>
			<trkpt lat="56.093492" lon="40.437704"><ele>105.5</ele><time>2026-08-16T19:21:17Z</time></trkpt>
			<trkpt lat="56.093188" lon="40.437438"><ele>105.2</ele><time>2026-08-16T19:21:21Z</time></trkpt>
			<trkpt lat="56.092909" lon="40.437318"><ele>105.5</ele><time>2026-08-16T19:21:24Z</time></trkpt>
			<trkpt lat="56.092554" lon="40.437283"><ele>105.9</ele><time>2026-08-16T19:21:28Z</time></trkpt>
			<trkpt lat="56.090089" lon="40.437462"><ele>104.1</ele><time>2026-08-16T19:22:01Z</time></trkpt>
			<trkpt lat="56.089686" lon="40.437385"><ele>103.9</ele><time>2026-08-16T19:22:07Z</time></trkpt>
			<trkpt lat="56.089183" lon="40.437198"><ele>103.7</ele><time>2026-08-16T19:22:14Z</time></trkpt>
			<trkpt lat="56.088566" lon="40.436878"><ele>105.2</ele><time>2026-08-16T19:22:23Z</time></trkpt>
			<trkpt lat="56.087782" lon="40.436407"><ele>105.9</ele><time>2026-08-16T19:22:35Z</time></trkpt>
			<trkpt lat="56.085364" lon="40.434790"><ele>108.8</ele><time>2026-08-16T19:23:31Z</time></trkpt>
			<trkpt lat="56.083969" lon="40.433665"><ele>107.2</ele><time>2026-08-16T19:23:55Z</time></trkpt>
			<trkpt lat="56.082452" lon="40.432221"><ele>108.7</ele><time>2026-08-16T19:24:20Z</time></trkpt>
			<trkpt lat="56.082088" lon="40.431946"><ele>109.2</ele><time>2026-08-16T19:24:25Z</time></trkpt>
			<trkpt lat="56.081765" lon="40.431762"><ele>109.8</ele><time>2026-08-16T19:24:30Z</time></trkpt>
			<trkpt lat="56.080791" lon="40.431343"><ele>109.1</ele><time>2026-08-16T19:24:43Z</time></trkpt>
			<trkpt lat="56.079566" lon="40.430897"><ele>109.2</ele><time>2026-08-16T19:25:00Z</time></trkpt>
			<trkpt lat="56.079076" lon="40.430779"><ele>107.8</ele><time>2026-08-16T19:25:05Z</time></trkpt>
			<trkpt lat="56.078396" lon="40.430714"><ele>106.8</ele><time>2026-08-16T19:25:13Z</time></trkpt>
			<trkpt lat="56.077896" lon="40.430746"><ele>107.3</ele><time>2026-08-16T19:25:18Z</time></trkpt>
			<trkpt lat="56.076341" lon="40.431220"><ele>112.2</ele><time>2026-08-16T19:25:43Z</time></trkpt>
			<trkpt lat="56.072333" lon="40.432551"><ele>115.6</ele><time>2026-08-16T19:27:09Z</time></trkpt>
			<trkpt lat="56.071508" lon="40.432645"><ele>117.3</ele><time>2026-08-16T19:27:32Z</time></trkpt>
			<trkpt lat="56.070892" lon="40.432607"><ele>118.1</ele><time>2026-08-16T19:27:49Z</time></trkpt>
			<trkpt lat="56.069294" lon="40.432364"><ele>119.7</ele><time>2026-08-16T19:28:25Z</time></trkpt>
			<trkpt lat="56.067566" lon="40.431969"><ele>119.4</ele><time>2026-08-16T19:28:49Z</time></trkpt>
			<trkpt lat="56.066772" lon="40.431898"><ele>120.2</ele><time>2026-08-16T19:28:57Z</time></trkpt>
			<trkpt lat="56.066458" lon="40.431913"><ele>120.4</ele><time>2026-08-16T19:29:02Z</time></trkpt>
			<trkpt lat="56.065427" lon="40.432125"><ele>121.3</ele><time>2026-08-16T19:29:28Z</time></trkpt>
			<trkpt lat="56.064054" lon="40.432611"><ele>122.1</ele><time>2026-08-16T19:29:56Z</time></trkpt>
			<trkpt lat="56.063318" lon="40.433086"><ele>121.7</ele><time>2026-08-16T19:30:05Z</time></trkpt>
			<trkpt lat="56.062466" lon="40.433897"><ele>121.3</ele><time>2026-08-16T19:30:23Z</time></trkpt>
			<trkpt lat="56.061861" lon="40.434582"><ele>123.4</ele><time>2026-08-16T19:30:42Z</time></trkpt>
			<trkpt lat="56.060378" lon="40.436463"><ele>128.7</ele><time>2026-08-16T19:31:31Z</time></trkpt>
			<trkpt lat="56.060066" lon="40.436931"><ele>128.3</ele><time>2026-08-16T19:31:46Z</time></trkpt>
			<trkpt lat="56.059185" lon="40.438016"><ele>134.6</ele><time>2026-08-16T19:32:23Z</time></trkpt>
			<trkpt lat="56.058672" lon="40.438586"><ele>135.6</ele><time>2026-08-16T19:32:35Z</time></trkpt>
			<trkpt lat="56.058129" lon="40.439031"><ele>135.2</ele><time>2026-08-16T19:32:45Z</time></trkpt>
			<trkpt lat="56.057496" lon="40.439437"><ele>135.6</ele><time>2026-08-16T19:32:59Z</time></trkpt>
			<trkpt lat="56.056880" lon="40.439652"><ele>134.5</ele><time>2026-08-16T19:33:15Z</time></trkpt>
			<trkpt lat="56.056124" lon="40.439774"><ele>138.0</ele><time>2026-08-16T19:33:39Z</time></trkpt>
			<trkpt lat="56.055742" lon="40.439771"><ele>141.6</ele><time>2026-08-16T19:33:54Z</time></trkpt>
			<trkpt lat="56.055341" lon="40.439702"><ele>147.9</ele><time>2026-08-16T19:34:09Z</time></trkpt>
			<trkpt lat="56.054909" lon="40.439562"><ele>152.5</ele><time>2026-08-16T19:34:21Z</time></trkpt>
			<trkpt lat="56.054247" lon="40.439255"><ele>151.7</ele><time>2026-08-16T19:34:32Z</time></trkpt>
			<trkpt lat="56.053052" lon="40.438474"><ele>139.0</ele><time>2026-08-16T19:34:44Z</time></trkpt>
			<trkpt lat="56.052580" lon="40.438262"><ele>135.7</ele><time>2026-08-16T19:34:49Z</time></trkpt>
			<trkpt lat="56.051601" lon="40.438030"><ele>136.0</ele><time>2026-08-16T19:34:57Z</time></trkpt>
			<trkpt lat="56.050888" lon="40.437920"><ele>133.2</ele><time>2026-08-16T19:35:04Z</time></trkpt>
			<trkpt lat="56.049251" lon="40.437841"><ele>128.5</ele><time>2026-08-16T19:35:29Z</time></trkpt>
			<trkpt lat="56.048902" lon="40.437766"><ele>128.2</ele><time>2026-08-16T19:35:37Z</time></trkpt>
			<trkpt lat="56.048336" lon="40.437502"><ele>128.1</ele><time>2026-08-16T19:35:50Z</time></trkpt>
			<trkpt lat="56.047924" lon="40.437161"><ele>128.5</ele><time>2026-08-16T19:35:58Z</time></trkpt>
			<trkpt lat="56.046172" lon="40.435466"><ele>127.4</ele><time>2026-08-16T19:36:22Z</time></trkpt>
			<trkpt lat="56.039927" lon="40.429637"><ele>121.3</ele><time>2026-08-16T19:37:56Z</time></trkpt>
			<trkpt lat="56.038700" lon="40.428403"><ele>120.0</ele><time>2026-08-16T19:38:13Z</time></trkpt>
			<trkpt lat="56.038380" lon="40.428000"><ele>119.1</ele><time>2026-08-16T19:38:19Z</time></trkpt>
			<trkpt lat="56.038151" lon="40.427599"><ele>118.5</ele><time>2026-08-16T19:38:24Z</time></trkpt>
			<trkpt lat="56.037937" lon="40.427077"><ele>117.9</ele><time>2026-08-16T19:38:29Z</time></trkpt>
			<trkpt lat="56.036896" lon="40.423859"><ele>113.0</ele><time>2026-08-16T19:38:51Z</time></trkpt>
			<trkpt lat="56.035818" lon="40.420386"><ele>113.4</ele><time>2026-08-16T19:39:29Z</time></trkpt>
			<trkpt lat="56.035220" lon="40.418545"><ele>112.8</ele><time>2026-08-16T19:39:47Z</time></trkpt>
			<trkpt lat="56.034879" lon="40.417634"><ele>113.4</ele><time>2026-08-16T19:39:56Z</time></trkpt>
			<trkpt lat="56.034188" lon="40.416134"><ele>112.6</ele><time>2026-08-16T19:40:09Z</time></trkpt>
			<trkpt lat="56.032258" lon="40.412842"><ele>115.8</ele><time>2026-08-16T19:40:47Z</time></trkpt>
			<trkpt lat="56.031554" lon="40.411309"><ele>113.1</ele><time>2026-08-16T19:41:00Z</time></trkpt>
			<trkpt lat="56.031111" lon="40.410127"><ele>112.4</ele><time>2026-08-16T19:41:08Z</time></trkpt>
			<trkpt lat="56.030710" lon="40.408732"><ele>112.4</ele><time>2026-08-16T19:41:18Z</time></trkpt>
			<trkpt lat="56.029469" lon="40.403364"><ele>109.3</ele><time>2026-08-16T19:41:55Z</time></trkpt>
			<trkpt lat="56.029226" lon="40.402097"><ele>108.7</ele><time>2026-08-16T19:42:04Z</time></trkpt>
			<trkpt lat="56.028868" lon="40.399913"><ele>105.7</ele><time>2026-08-16T19:42:19Z</time></trkpt>
			<trkpt lat="56.028045" lon="40.393860"><ele>103.8</ele><time>2026-08-16T19:43:21Z</time></trkpt>
			<trkpt lat="56.027905" lon="40.393113"><ele>102.8</ele><time>2026-08-16T19:43:30Z</time></trkpt>
			<trkpt lat="56.027724" lon="40.392542"><ele>102.6</ele><time>2026-08-16T19:43:37Z</time></trkpt>
			<trkpt lat="56.027545" lon="40.392137"><ele>102.9</ele><time>2026-08-16T19:43:43Z</time></trkpt>
			<trkpt lat="56.026736" lon="40.390763"><ele>106.3</ele><time>2026-08-16T19:44:04Z</time></trkpt>
			<trkpt lat="56.024315" lon="40.386989"><ele>99.6</ele><time>2026-08-16T19:44:43Z</time></trkpt>
			<trkpt lat="56.024060" lon="40.386702"><ele>99.0</ele><time>2026-08-16T19:44:47Z</time></trkpt>
			<trkpt lat="56.023843" lon="40.386554"><ele>99.3</ele><time>2026-08-16T19:44:50Z</time></trkpt>
			<trkpt lat="56.023690" lon="40.386526"><ele>99.4</ele><time>2026-08-16T19:44:52Z</time></trkpt>
			<trkpt lat="56.023421" lon="40.386536"><ele>99.3</ele><time>2026-08-16T19:44:55Z</time></trkpt>
			<trkpt lat="56.022841" lon="40.386718"><ele>99.0</ele><time>2026-08-16T19:45:05Z</time></trkpt>
			<trkpt lat="56.022748" lon="40.386684"><ele>99.1</ele><time>2026-08-16T19:45:07Z</time></trkpt>
			<trkpt lat="56.022667" lon="40.386481"><ele>99.3</ele><time>2026-08-16T19:45:09Z</time></trkpt>
			<trkpt lat="56.022554" lon="40.384963"><ele>102.4</ele><time>2026-08-16T19:45:27Z</time></trkpt>
			<trkpt lat="56.022542" lon="40.384100"><ele>104.5</ele><time>2026-08-16T19:45:39Z</time></trkpt>
			<trkpt lat="56.022597" lon="40.383595"><ele>105.8</ele><time>2026-08-16T19:45:46Z</time></trkpt>
			<trkpt lat="56.022690" lon="40.383176"><ele>106.9</ele><time>2026-08-16T19:45:52Z</time></trkpt>
			<trkpt lat="56.022889" lon="40.382629"><ele>107.5</ele><time>2026-08-16T19:45:59Z</time></trkpt>
			<trkpt lat="56.023111" lon="40.382293"><ele>106.4</ele><time>2026-08-16T19:46:04Z</time></trkpt>
			<trkpt lat="56.023461" lon="40.381990"><ele>104.8</ele><time>2026-08-16T19:46:09Z</time></trkpt>
			<trkpt lat="56.028165" lon="40.379011"><ele>104.7</ele><time>2026-08-16T19:47:20Z</time></trkpt>
			<trkpt lat="56.028760" lon="40.378427"><ele>104.5</ele><time>2026-08-16T19:47:30Z</time></trkpt>
			<trkpt lat="56.029133" lon="40.378013"><ele>105.8</ele><time>2026-08-16T19:47:37Z</time></trkpt>
			<trkpt lat="56.029444" lon="40.377511"><ele>107.1</ele><time>2026-08-16T19:47:44Z</time></trkpt>
			<trkpt lat="56.029759" lon="40.376906"><ele>108.5</ele><time>2026-08-16T19:47:53Z</time></trkpt>
			<trkpt lat="56.030081" lon="40.376134"><ele>109.6</ele><time>2026-08-16T19:48:01Z</time></trkpt>
			<trkpt lat="56.030316" lon="40.375363"><ele>109.9</ele><time>2026-08-16T19:48:08Z</time></trkpt>
			<trkpt lat="56.031912" lon="40.365277"><ele>107.4</ele><time>2026-08-16T19:49:20Z</time></trkpt>
			<trkpt lat="56.032452" lon="40.362987"><ele>103.7</ele><time>2026-08-16T19:49:39Z</time></trkpt>
			<trkpt lat="56.033167" lon="40.361057"><ele>99.7</ele><time>2026-08-16T19:49:58Z</time></trkpt>
			<trkpt lat="56.033252" lon="40.360715"><ele>99.3</ele><time>2026-08-16T19:50:01Z</time></trkpt>
			<trkpt lat="56.033332" lon="40.360130"><ele>98.4</ele><time>2026-08-16T19:50:06Z</time></trkpt>
			<trkpt lat="56.033336" lon="40.359797"><ele>98.0</ele><time>2026-08-16T19:50:09Z</time></trkpt>
			<trkpt lat="56.033283" lon="40.359241"><ele>97.9</ele><time>2026-08-16T19:50:14Z</time></trkpt>
			<trkpt lat="56.030272" lon="40.340920"><ele>97.9</ele><time>2026-08-16T19:52:46Z</time></trkpt>
			<trkpt lat="56.029797" lon="40.338969"><ele>98.2</ele><time>2026-08-16T19:53:09Z</time></trkpt>
			<trkpt lat="56.029536" lon="40.338329"><ele>98.0</ele><time>2026-08-16T19:53:19Z</time></trkpt>
			<trkpt lat="56.029272" lon="40.337924"><ele>98.3</ele><time>2026-08-16T19:53:26Z</time></trkpt>
			<trkpt lat="56.028801" lon="40.337503"><ele>98.9</ele><time>2026-08-16T19:53:37Z</time></trkpt>
			<trkpt lat="56.028519" lon="40.337386"><ele>98.8</ele><time>2026-08-16T19:53:42Z</time></trkpt>
			<trkpt lat="56.024841" lon="40.336471"><ele>99.0</ele><time>2026-08-16T19:54:43Z</time></trkpt>
			<trkpt lat="56.024467" lon="40.336294"><ele>99.0</ele><time>2026-08-16T19:54:50Z</time></trkpt>
			<trkpt lat="56.024174" lon="40.336017"><ele>99.1</ele><time>2026-08-16T19:54:56Z</time></trkpt>
			<trkpt lat="56.023819" lon="40.335498"><ele>99.6</ele><time>2026-08-16T19:55:04Z</time></trkpt>
			<trkpt lat="56.023544" lon="40.334828"><ele>99.8</ele><time>2026-08-16T19:55:13Z</time></trkpt>
			<trkpt lat="56.023476" lon="40.334520"><ele>99.9</ele><time>2026-08-16T19:55:17Z</time></trkpt>
			<trkpt lat="56.023382" lon="40.333747"><ele>100.5</ele><time>2026-08-16T19:55:25Z</time></trkpt>
			<trkpt lat="56.023015" lon="40.329099"><ele>102.4</ele><time>2026-08-16T19:56:07Z</time></trkpt>
			<trkpt lat="56.023015" lon="40.328514"><ele>102.7</ele><time>2026-08-16T19:56:12Z</time></trkpt>
			<trkpt lat="56.023240" lon="40.324395"><ele>103.0</ele><time>2026-08-16T19:56:49Z</time></trkpt>
			<trkpt lat="56.023224" lon="40.323393"><ele>102.2</ele><time>2026-08-16T19:56:58Z</time></trkpt>
			<trkpt lat="56.023141" lon="40.322945"><ele>102.2</ele><time>2026-08-16T19:57:02Z</time></trkpt>
			<trkpt lat="56.023021" lon="40.322557"><ele>102.4</ele><time>2026-08-16T19:57:07Z</time></trkpt>
			<trkpt lat="56.022634" lon="40.321810"><ele>102.8</ele><time>2026-08-16T19:57:18Z</time></trkpt>
			<trkpt lat="56.022396" lon="40.321501"><ele>103.7</ele><time>2026-08-16T19:57:26Z</time></trkpt>
			<trkpt lat="56.022169" lon="40.321303"><ele>104.5</ele><time>2026-08-16T19:57:33Z</time></trkpt>
			<trkpt lat="56.019703" lon="40.319662"><ele>118.5</ele><time>2026-08-16T19:58:57Z</time></trkpt>
			<trkpt lat="56.019163" lon="40.319223"><ele>120.8</ele><time>2026-08-16T19:59:15Z</time></trkpt>
			<trkpt lat="56.018946" lon="40.318938"><ele>122.2</ele><time>2026-08-16T19:59:24Z</time></trkpt>
			<trkpt lat="56.018738" lon="40.318569"><ele>124.0</ele><time>2026-08-16T19:59:35Z</time></trkpt>
			<trkpt lat="56.018491" lon="40.318043"><ele>125.8</ele><time>2026-08-16T19:59:50Z</time></trkpt>
			<trkpt lat="56.017794" lon="40.316331"><ele>132.7</ele><time>2026-08-16T20:00:40Z</time></trkpt>
			<trkpt lat="56.017364" lon="40.315471"><ele>135.3</ele><time>2026-08-16T20:01:03Z</time></trkpt>
			<trkpt lat="56.013069" lon="40.310360"><ele>145.9</ele><time>2026-08-16T20:03:00Z</time></trkpt>
			<trkpt lat="56.012670" lon="40.309835"><ele>147.6</ele><time>2026-08-16T20:03:13Z</time></trkpt>
			<trkpt lat="56.012229" lon="40.309123"><ele>148.5</ele><time>2026-08-16T20:03:28Z</time></trkpt>
			<trkpt lat="56.011133" lon="40.307133"><ele>152.1</ele><time>2026-08-16T20:04:08Z</time></trkpt>
			<trkpt lat="56.010884" lon="40.306843"><ele>153.5</ele><time>2026-08-16T20:04:17Z</time></trkpt>
			<trkpt lat="56.010614" lon="40.306579"><ele>154.7</ele><time>2026-08-16T20:04:25Z</time></trkpt>
			<trkpt lat="56.010124" lon="40.306271"><ele>155.8</ele><time>2026-08-16T20:04:40Z</time></trkpt>
			<trkpt lat="56.009873" lon="40.306219"><ele>156.3</ele><time>2026-08-16T20:04:47Z</time></trkpt>
			<trkpt lat="56.008814" lon="40.306364"><ele>159.8</ele><time>2026-08-16T20:05:11Z</time></trkpt>
			<trkpt lat="56.006954" lon="40.306435"><ele>160.5</ele><time>2026-08-16T20:05:42Z</time></trkpt>
			<trkpt lat="56.006424" lon="40.299499"><ele>161.3</ele><time>2026-08-16T20:06:47Z</time></trkpt>
			<trkpt lat="56.006290" lon="40.298938"><ele>161.5</ele><time>2026-08-16T20:06:53Z</time></trkpt>
			<trkpt lat="56.006183" lon="40.298711"><ele>161.6</ele><time>2026-08-16T20:06:56Z</time></trkpt>
			<trkpt lat="56.005961" lon="40.298459"><ele>161.9</ele><time>2026-08-16T20:07:00Z</time></trkpt>
			<trkpt lat="56.005625" lon="40.298307"><ele>162.0</ele><time>2026-08-16T20:07:05Z</time></trkpt>
			<trkpt lat="56.005178" lon="40.298227"><ele>162.0</ele><time>2026-08-16T20:07:10Z</time></trkpt>
			<trkpt lat="56.004901" lon="40.298073"><ele>162.0</ele><time>2026-08-16T20:07:13Z</time></trkpt>
			<trkpt lat="56.004250" lon="40.297017"><ele>161.2</ele><time>2026-08-16T20:07:23Z</time></trkpt>
			<trkpt lat="56.003568" lon="40.295790"><ele>161.7</ele><time>2026-08-16T20:07:36Z</time></trkpt>
			<trkpt lat="56.003423" lon="40.295498"><ele>161.9</ele><time>2026-08-16T20:07:40Z</time></trkpt>
			<trkpt lat="56.003225" lon="40.294934"><ele>162.6</ele><time>2026-08-16T20:07:46Z</time></trkpt>
			<trkpt lat="56.003142" lon="40.294533"><ele>163.0</ele><time>2026-08-16T20:07:49Z</time></trkpt>
			<trkpt lat="56.002714" lon="40.290937"><ele>164.0</ele><time>2026-08-16T20:08:20Z</time></trkpt>
			<trkpt lat="56.002085" lon="40.284653"><ele>160.5</ele><time>2026-08-16T20:09:16Z</time></trkpt>
			<trkpt lat="56.001762" lon="40.282063"><ele>161.4</ele><time>2026-08-16T20:09:36Z</time></trkpt>
			<trkpt lat="56.001717" lon="40.281483"><ele>160.7</ele><time>2026-08-16T20:09:39Z</time></trkpt>
			<trkpt lat="56.002051" lon="40.273245"><ele>135.6</ele><time>2026-08-16T20:10:22Z</time></trkpt>
			<trkpt lat="56.002042" lon="40.271924"><ele>131.8</ele><time>2026-08-16T20:10:29Z</time></trkpt>
			<trkpt lat="56.001396" lon="40.268042"><ele>129.8</ele><time>2026-08-16T20:11:06Z</time></trkpt>
			<trkpt lat="56.001293" lon="40.266535"><ele>133.5</ele><time>2026-08-16T20:11:30Z</time></trkpt>
			<trkpt lat="56.001255" lon="40.266396"><ele>133.7</ele><time>2026-08-16T20:11:32Z</time></trkpt>
			<trkpt lat="56.001184" lon="40.266325"><ele>134.0</ele><time>2026-08-16T20:11:34Z</time></trkpt>
			<trkpt lat="56.001005" lon="40.266338"><ele>135.1</ele><time>2026-08-16T20:11:39Z</time></trkpt>
			<trkpt lat="56.000509" lon="40.267307"><ele>136.2</ele><time>2026-08-16T20:11:56Z</time></trkpt>
			<trkpt lat="55.998913" lon="40.268948"><ele>138.3</ele><time>2026-08-16T20:12:29Z</time></trkpt>
			<trkpt lat="55.998002" lon="40.269769"><ele>141.5</ele><time>2026-08-16T20:12:50Z</time></trkpt>
			<trkpt lat="55.996185" lon="40.271177"><ele>144.4</ele><time>2026-08-16T20:13:38Z</time></trkpt>
			<trkpt lat="55.995189" lon="40.271893"><ele>147.2</ele><time>2026-08-16T20:14:08Z</time></trkpt>
			<trkpt lat="55.994621" lon="40.272231"><ele>147.3</ele><time>2026-08-16T20:14:23Z</time></trkpt>
			<trkpt lat="55.994305" lon="40.272360"><ele>147.2</ele><time>2026-08-16T20:14:30Z</time></trkpt>
			<trkpt lat="55.993759" lon="40.272442"><ele>148.0</ele><time>2026-08-16T20:14:41Z</time></trkpt>
			<trkpt lat="55.990643" lon="40.272794"><ele>155.4</ele><time>2026-08-16T20:15:35Z</time></trkpt>
			<trkpt lat="55.989985" lon="40.272746"><ele>154.4</ele><time>2026-08-16T20:15:53Z</time></trkpt>
			<trkpt lat="55.989606" lon="40.272569"><ele>154.6</ele><time>2026-08-16T20:16:06Z</time></trkpt>
			<trkpt lat="55.989254" lon="40.272183"><ele>156.8</ele><time>2026-08-16T20:16:19Z</time></trkpt>
			<trkpt lat="55.988922" lon="40.271652"><ele>162.3</ele><time>2026-08-16T20:16:33Z</time></trkpt>
			<trkpt lat="55.988590" lon="40.270878"><ele>166.0</ele><time>2026-08-16T20:16:47Z</time></trkpt>
			<trkpt lat="55.988371" lon="40.269965"><ele>164.8</ele><time>2026-08-16T20:16:58Z</time></trkpt>
			<trkpt lat="55.988262" lon="40.269013"><ele>163.9</ele><time>2026-08-16T20:17:06Z</time></trkpt>
			<trkpt lat="55.987760" lon="40.263422"><ele>164.9</ele><time>2026-08-16T20:18:02Z</time></trkpt>
			<trkpt lat="55.987360" lon="40.260581"><ele>163.7</ele><time>2026-08-16T20:18:28Z</time></trkpt>
			<trkpt lat="55.987102" lon="40.259748"><ele>163.8</ele><time>2026-08-16T20:18:37Z</time></trkpt>
			<trkpt lat="55.986928" lon="40.259327"><ele>163.8</ele><time>2026-08-16T20:18:41Z</time></trkpt>
			<trkpt lat="55.984880" lon="40.256140"><ele>169.9</ele><time>2026-08-16T20:19:23Z</time></trkpt>
			<trkpt lat="55.984663" lon="40.255625"><ele>169.7</ele><time>2026-08-16T20:19:28Z</time></trkpt>
			<trkpt lat="55.984519" lon="40.254997"><ele>169.1</ele><time>2026-08-16T20:19:33Z</time></trkpt>
			<trkpt lat="55.983583" lon="40.248465"><ele>163.6</ele><time>2026-08-16T20:20:21Z</time></trkpt>
			<trkpt lat="55.982678" lon="40.242446"><ele>163.7</ele><time>2026-08-16T20:21:18Z</time></trkpt>
			<trkpt lat="55.982619" lon="40.241829"><ele>162.7</ele><time>2026-08-16T20:21:23Z</time></trkpt>
			<trkpt lat="55.982684" lon="40.241281"><ele>162.6</ele><time>2026-08-16T20:21:28Z</time></trkpt>
			<trkpt lat="55.983971" lon="40.239495"><ele>164.5</ele><time>2026-08-16T20:21:52Z</time></trkpt>
			<trkpt lat="55.984548" lon="40.238449"><ele>165.0</ele><time>2026-08-16T20:22:04Z</time></trkpt>
			<trkpt lat="55.985008" lon="40.237316"><ele>163.5</ele><time>2026-08-16T20:22:16Z</time></trkpt>
			<trkpt lat="55.985388" lon="40.236100"><ele>165.7</ele><time>2026-08-16T20:22:28Z</time></trkpt>
			<trkpt lat="55.985669" lon="40.234937"><ele>164.5</ele><time>2026-08-16T20:22:38Z</time></trkpt>
			<trkpt lat="55.987277" lon="40.227481"><ele>158.3</ele><time>2026-08-16T20:23:42Z</time></trkpt>
			<trkpt lat="55.987658" lon="40.225569"><ele>155.8</ele><time>2026-08-16T20:23:54Z</time></trkpt>
			<trkpt lat="55.988214" lon="40.223136"><ele>147.4</ele><time>2026-08-16T20:24:08Z</time></trkpt>
			<trkpt lat="55.989114" lon="40.218944"><ele>139.4</ele><time>2026-08-16T20:24:34Z</time></trkpt>
			<trkpt lat="55.989352" lon="40.217930"><ele>139.9</ele><time>2026-08-16T20:24:41Z</time></trkpt>
			<trkpt lat="55.989699" lon="40.216782"><ele>143.0</ele><time>2026-08-16T20:24:49Z</time></trkpt>
			<trkpt lat="55.990068" lon="40.215816"><ele>143.4</ele><time>2026-08-16T20:24:59Z</time></trkpt>
			<trkpt lat="55.990520" lon="40.214855"><ele>144.8</ele><time>2026-08-16T20:25:11Z</time></trkpt>
			<trkpt lat="55.993438" lon="40.210377"><ele>137.4</ele><time>2026-08-16T20:25:58Z</time></trkpt>
			<trkpt lat="55.995401" lon="40.207251"><ele>131.8</ele><time>2026-08-16T20:26:25Z</time></trkpt>
			<trkpt lat="55.995694" lon="40.206734"><ele>130.2</ele><time>2026-08-16T20:26:29Z</time></trkpt>
			<trkpt lat="55.996129" lon="40.205714"><ele>129.2</ele><time>2026-08-16T20:26:37Z</time></trkpt>
			<trkpt lat="56.007731" lon="40.175752"><ele>108.5</ele><time>2026-08-16T20:31:09Z</time></trkpt>
			<trkpt lat="56.012452" lon="40.163663"><ele>110.5</ele><time>2026-08-16T20:33:09Z</time></trkpt>
			<trkpt lat="56.012554" lon="40.163240"><ele>111.2</ele><time>2026-08-16T20:33:12Z</time></trkpt>
			<trkpt lat="56.012537" lon="40.162664"><ele>111.1</ele><time>2026-08-16T20:33:17Z</time></trkpt>
			<trkpt lat="56.012448" lon="40.162128"><ele>111.2</ele><time>2026-08-16T20:33:21Z</time></trkpt>
			<trkpt lat="56.010626" lon="40.154501"><ele>103.0</ele><time>2026-08-16T20:34:17Z</time></trkpt>
			<trkpt lat="56.010572" lon="40.154080"><ele>103.0</ele><time>2026-08-16T20:34:20Z</time></trkpt>
			<trkpt lat="56.010578" lon="40.153176"><ele>103.2</ele><time>2026-08-16T20:34:28Z</time></trkpt>
			<trkpt lat="56.011698" lon="40.145126"><ele>117.1</ele><time>2026-08-16T20:35:47Z</time></trkpt>
			<trkpt lat="56.011738" lon="40.144410"><ele>115.3</ele><time>2026-08-16T20:35:51Z</time></trkpt>
			<trkpt lat="56.011729" lon="40.143573"><ele>110.1</ele><time>2026-08-16T20:35:56Z</time></trkpt>
			<trkpt lat="56.011654" lon="40.142702"><ele>106.5</ele><time>2026-08-16T20:36:02Z</time></trkpt>
			<trkpt lat="56.011482" lon="40.141526"><ele>106.6</ele><time>2026-08-16T20:36:13Z</time></trkpt>
			<trkpt lat="56.011007" lon="40.138694"><ele>109.7</ele><time>2026-08-16T20:36:46Z</time></trkpt>
			<trkpt lat="56.010889" lon="40.137405"><ele>108.4</ele><time>2026-08-16T20:36:57Z</time></trkpt>
			<trkpt lat="56.010831" lon="40.135961"><ele>106.4</ele><time>2026-08-16T20:37:09Z</time></trkpt>
			<trkpt lat="56.010826" lon="40.134571"><ele>106.0</ele><time>2026-08-16T20:37:21Z</time></trkpt>
			<trkpt lat="56.010947" lon="40.130215"><ele>102.1</ele><time>2026-08-16T20:37:52Z</time></trkpt>
			<trkpt lat="56.010920" lon="40.129652"><ele>101.9</ele><time>2026-08-16T20:37:56Z</time></trkpt>
			<trkpt lat="56.010844" lon="40.129160"><ele>102.1</ele><time>2026-08-16T20:38:00Z</time></trkpt>
			<trkpt lat="56.010676" lon="40.128501"><ele>103.2</ele><time>2026-08-16T20:38:07Z</time></trkpt>
			<trkpt lat="56.009721" lon="40.126001"><ele>104.4</ele><time>2026-08-16T20:38:35Z</time></trkpt>
			<trkpt lat="56.009633" lon="40.125680"><ele>105.8</ele><time>2026-08-16T20:38:38Z</time></trkpt>
			<trkpt lat="56.009373" lon="40.124303"><ele>112.6</ele><time>2026-08-16T20:38:51Z</time></trkpt>
			<trkpt lat="56.009315" lon="40.123685"><ele>112.9</ele><time>2026-08-16T20:38:56Z</time></trkpt>
			<trkpt lat="56.009294" lon="40.123130"><ele>112.7</ele><time>2026-08-16T20:39:00Z</time></trkpt>
			<trkpt lat="56.009358" lon="40.122204"><ele>112.5</ele><time>2026-08-16T20:39:08Z</time></trkpt>
			<trkpt lat="56.010006" lon="40.118716"><ele>111.1</ele><time>2026-08-16T20:39:42Z</time></trkpt>
			<trkpt lat="56.010125" lon="40.117894"><ele>111.9</ele><time>2026-08-16T20:39:49Z</time></trkpt>
			<trkpt lat="56.010162" lon="40.116794"><ele>110.8</ele><time>2026-08-16T20:39:57Z</time></trkpt>
			<trkpt lat="56.010152" lon="40.115752"><ele>108.2</ele><time>2026-08-16T20:40:04Z</time></trkpt>
			<trkpt lat="56.010062" lon="40.114781"><ele>106.2</ele><time>2026-08-16T20:40:10Z</time></trkpt>
			<trkpt lat="56.008383" lon="40.108008"><ele>101.2</ele><time>2026-08-16T20:41:02Z</time></trkpt>
			<trkpt lat="56.008162" lon="40.105500"><ele>112.0</ele><time>2026-08-16T20:41:37Z</time></trkpt>
			<trkpt lat="56.008163" lon="40.103134"><ele>113.0</ele><time>2026-08-16T20:42:03Z</time></trkpt>
			<trkpt lat="56.008325" lon="40.100894"><ele>111.1</ele><time>2026-08-16T20:42:22Z</time></trkpt>
			<trkpt lat="56.008343" lon="40.099663"><ele>112.5</ele><time>2026-08-16T20:42:31Z</time></trkpt>
			<trkpt lat="56.008227" lon="40.096263"><ele>106.3</ele><time>2026-08-16T20:42:53Z</time></trkpt>
			<trkpt lat="56.008044" lon="40.094289"><ele>106.8</ele><time>2026-08-16T20:43:10Z</time></trkpt>
			<trkpt lat="56.006794" lon="40.088641"><ele>113.7</ele><time>2026-08-16T20:44:20Z</time></trkpt>
			<trkpt lat="56.006623" lon="40.087268"><ele>113.8</ele><time>2026-08-16T20:44:34Z</time></trkpt>
			<trkpt lat="56.006121" lon="40.079780"><ele>107.0</ele><time>2026-08-16T20:45:29Z</time></trkpt>
			<trkpt lat="56.005767" lon="40.077457"><ele>110.3</ele><time>2026-08-16T20:45:50Z</time></trkpt>
			<trkpt lat="56.005331" lon="40.075583"><ele>112.2</ele><time>2026-08-16T20:46:10Z</time></trkpt>
			<trkpt lat="56.004717" lon="40.073854"><ele>113.8</ele><time>2026-08-16T20:46:28Z</time></trkpt>
			<trkpt lat="56.002871" lon="40.070097"><ele>110.3</ele><time>2026-08-16T20:47:10Z</time></trkpt>
			<trkpt lat="56.001399" lon="40.067272"><ele>109.2</ele><time>2026-08-16T20:47:50Z</time></trkpt>
			<trkpt lat="55.999889" lon="40.064660"><ele>115.2</ele><time>2026-08-16T20:48:30Z</time></trkpt>
			<trkpt lat="55.999676" lon="40.064087"><ele>111.9</ele><time>2026-08-16T20:48:34Z</time></trkpt>
			<trkpt lat="55.999628" lon="40.063475"><ele>110.0</ele><time>2026-08-16T20:48:38Z</time></trkpt>
			<trkpt lat="55.999650" lon="40.063040"><ele>109.5</ele><time>2026-08-16T20:48:41Z</time></trkpt>
			<trkpt lat="55.999778" lon="40.062516"><ele>109.3</ele><time>2026-08-16T20:48:45Z</time></trkpt>
			<trkpt lat="56.000002" lon="40.062142"><ele>109.0</ele><time>2026-08-16T20:48:48Z</time></trkpt>
			<trkpt lat="56.001542" lon="40.060857"><ele>106.8</ele><time>2026-08-16T20:49:11Z</time></trkpt>
			<trkpt lat="56.001655" lon="40.060578"><ele>107.0</ele><time>2026-08-16T20:49:13Z</time></trkpt>
			<trkpt lat="56.001697" lon="40.060266"><ele>107.0</ele><time>2026-08-16T20:49:16Z</time></trkpt>
			<trkpt lat="56.001682" lon="40.059863"><ele>106.8</ele><time>2026-08-16T20:49:18Z</time></trkpt>
			<trkpt lat="55.997944" lon="40.037587"><ele>106.0</ele><time>2026-08-16T20:52:30Z</time></trkpt>
			<trkpt lat="55.996203" lon="40.026364"><ele>106.3</ele><time>2026-08-16T20:54:12Z</time></trkpt>
			<trkpt lat="55.995714" lon="40.023586"><ele>106.6</ele><time>2026-08-16T20:54:36Z</time></trkpt>
			<trkpt lat="55.995528" lon="40.022321"><ele>106.8</ele><time>2026-08-16T20:54:45Z</time></trkpt>
			<trkpt lat="55.995331" lon="40.021389"><ele>105.5</ele><time>2026-08-16T20:54:51Z</time></trkpt>
			<trkpt lat="55.994742" lon="40.019214"><ele>104.3</ele><time>2026-08-16T20:55:08Z</time></trkpt>
			<trkpt lat="55.994701" lon="40.018744"><ele>104.8</ele><time>2026-08-16T20:55:12Z</time></trkpt>
			<trkpt lat="55.994725" lon="40.018607"><ele>105.0</ele><time>2026-08-16T20:55:13Z</time></trkpt>
			<trkpt lat="55.994836" lon="40.018393"><ele>105.1</ele><time>2026-08-16T20:55:16Z</time></trkpt>
			<trkpt lat="55.996033" lon="40.017429"><ele>99.6</ele><time>2026-08-16T20:55:33Z</time></trkpt>
			<trkpt lat="55.996611" lon="40.017003"><ele>95.1</ele><time>2026-08-16T20:55:40Z</time></trkpt>
			<trkpt lat="55.997530" lon="40.016224"><ele>98.3</ele><time>2026-08-16T20:55:52Z</time></trkpt>
			<trkpt lat="55.997730" lon="40.016018"><ele>98.1</ele><time>2026-08-16T20:55:55Z</time></trkpt>
			<trkpt lat="55.998093" lon="40.015517"><ele>98.8</ele><time>2026-08-16T20:56:01Z</time></trkpt>
			<trkpt lat="56.001165" lon="40.010453"><ele>99.6</ele><time>2026-08-16T20:57:02Z</time></trkpt>
			<trkpt lat="56.001466" lon="40.010032"><ele>99.0</ele><time>2026-08-16T20:57:08Z</time></trkpt>
			<trkpt lat="56.001912" lon="40.009560"><ele>98.7</ele><time>2026-08-16T20:57:16Z</time></trkpt>
			<trkpt lat="56.002306" lon="40.008991"><ele>99.3</ele><time>2026-08-16T20:57:23Z</time></trkpt>
			<trkpt lat="56.003440" lon="40.007002"><ele>100.5</ele><time>2026-08-16T20:57:46Z</time></trkpt>
			<trkpt lat="56.003813" lon="40.006457"><ele>100.4</ele><time>2026-08-16T20:57:53Z</time></trkpt>
			<trkpt lat="56.004100" lon="40.006167"><ele>100.8</ele><time>2026-08-16T20:57:58Z</time></trkpt>
			<trkpt lat="56.004668" lon="40.005767"><ele>101.4</ele><time>2026-08-16T20:58:07Z</time></trkpt>
			<trkpt lat="56.005274" lon="40.005150"><ele>100.6</ele><time>2026-08-16T20:58:17Z</time></trkpt>
			<trkpt lat="56.005815" lon="40.004474"><ele>100.9</ele><time>2026-08-16T20:58:27Z</time></trkpt>
			<trkpt lat="56.005980" lon="40.004158"><ele>100.6</ele><time>2026-08-16T20:58:31Z</time></trkpt>
			<trkpt lat="56.006131" lon="40.003760"><ele>100.0</ele><time>2026-08-16T20:58:35Z</time></trkpt>
			<trkpt lat="56.006302" lon="40.003109"><ele>99.6</ele><time>2026-08-16T20:58:41Z</time></trkpt>
			<trkpt lat="56.006528" lon="40.001285"><ele>100.9</ele><time>2026-08-16T20:58:56Z</time></trkpt>
			<trkpt lat="56.006601" lon="40.000848"><ele>100.8</ele><time>2026-08-16T20:59:00Z</time></trkpt>
			<trkpt lat="56.006753" lon="40.000403"><ele>100.0</ele><time>2026-08-16T20:59:04Z</time></trkpt>
			<trkpt lat="56.007136" lon="39.999785"><ele>99.6</ele><time>2026-08-16T20:59:12Z</time></trkpt>
			<trkpt lat="56.007618" lon="39.999217"><ele>100.8</ele><time>2026-08-16T20:59:20Z</time></trkpt>
			<trkpt lat="56.008156" lon="39.998654"><ele>100.6</ele><time>2026-08-16T20:59:29Z</time></trkpt>
			<trkpt lat="56.008542" lon="39.998313"><ele>100.7</ele><time>2026-08-16T20:59:36Z</time></trkpt>
			<trkpt lat="56.014706" lon="39.993313"><ele>101.6</ele><time>2026-08-16T21:01:27Z</time></trkpt>
			<trkpt lat="56.015356" lon="39.992892"><ele>101.6</ele><time>2026-08-16T21:01:37Z</time></trkpt>
			<trkpt lat="56.016044" lon="39.992629"><ele>101.9</ele><time>2026-08-16T21:01:49Z</time></trkpt>
			<trkpt lat="56.016666" lon="39.992453"><ele>103.0</ele><time>2026-08-16T21:01:59Z</time></trkpt>
			<trkpt lat="56.017267" lon="39.992475"><ele>103.7</ele><time>2026-08-16T21:02:11Z</time></trkpt>
			<trkpt lat="56.017847" lon="39.992626"><ele>104.3</ele><time>2026-08-16T21:02:23Z</time></trkpt>
			<trkpt lat="56.019485" lon="39.993185"><ele>107.6</ele><time>2026-08-16T21:03:04Z</time></trkpt>
			<trkpt lat="56.019917" lon="39.993253"><ele>108.7</ele><time>2026-08-16T21:03:16Z</time></trkpt>
			<trkpt lat="56.020483" lon="39.993246"><ele>110.7</ele><time>2026-08-16T21:03:33Z</time></trkpt>
			<trkpt lat="56.022157" lon="39.992785"><ele>115.5</ele><time>2026-08-16T21:04:20Z</time></trkpt>
			<trkpt lat="56.024660" lon="39.991992"><ele>119.7</ele><time>2026-08-16T21:05:06Z</time></trkpt>
			<trkpt lat="56.024600" lon="39.991428"><ele>119.3</ele><time>2026-08-16T21:05:34Z</time></trkpt>
			<trkpt lat="56.024932" lon="39.991147"><ele>119.8</ele><time>2026-08-16T21:05:59Z</time></trkpt>
			<trkpt lat="56.025068" lon="39.991616"><ele>119.9</ele><time>2026-08-16T21:06:26Z</time></trkpt>
			<trkpt lat="56.025110" lon="39.991573"><ele>119.9</ele><time>2026-08-16T21:06:29Z</time></trkpt>
			<trkpt lat="56.025078" lon="39.991147"><ele>119.9</ele><time>2026-08-16T21:06:57Z</time></trkpt>
			<trkpt lat="56.024943" lon="39.990665"><ele>119.8</ele><time>2026-08-16T21:07:31Z</time></trkpt>
			<trkpt lat="56.024460" lon="39.988880"><ele>119.4</ele><time>2026-08-16T21:08:20Z</time></trkpt>
			<trkpt lat="56.024460" lon="39.988880"><ele>119.4</ele><time>2026-08-16T21:08:20Z</time></trkpt>
			<trkpt lat="56.024910" lon="39.988510"><ele>120.8</ele><time>2026-08-16T21:09:23Z</time></trkpt>
			<trkpt lat="56.025480" lon="39.988100"><ele>121.4</ele><time>2026-08-16T21:10:26Z</time></trkpt>
			<trkpt lat="56.025480" lon="39.988100"><ele>121.4</ele><time>2026-08-16T21:11:30Z</time></trkpt>
			<trkpt lat="56.026854" lon="39.987031"><ele>122.1</ele><time>2026-08-16T21:11:56Z</time></trkpt>
			<trkpt lat="56.027484" lon="39.986467"><ele>123.0</ele><time>2026-08-16T21:12:09Z</time></trkpt>
			<trkpt lat="56.028252" lon="39.985720"><ele>124.9</ele><time>2026-08-16T21:12:27Z</time></trkpt>
			<trkpt lat="56.034602" lon="39.979987"><ele>130.0</ele><time>2026-08-16T21:14:42Z</time></trkpt>
			<trkpt lat="56.037537" lon="39.977294"><ele>132.0</ele><time>2026-08-16T21:15:36Z</time></trkpt>
			<trkpt lat="56.038508" lon="39.976498"><ele>133.9</ele><time>2026-08-16T21:15:55Z</time></trkpt>
			<trkpt lat="56.038922" lon="39.976325"><ele>134.7</ele><time>2026-08-16T21:16:02Z</time></trkpt>
			<trkpt lat="56.046663" lon="39.976456"><ele>136.4</ele><time>2026-08-16T21:18:04Z</time></trkpt>
			<trkpt lat="56.050745" lon="39.976618"><ele>139.1</ele><time>2026-08-16T21:19:06Z</time></trkpt>
			<trkpt lat="56.058478" lon="39.977573"><ele>127.0</ele><time>2026-08-16T21:20:51Z</time></trkpt>
			<trkpt lat="56.062401" lon="39.978183"><ele>115.4</ele><time>2026-08-16T21:21:33Z</time></trkpt>
			<trkpt lat="56.062831" lon="39.978316"><ele>112.5</ele><time>2026-08-16T21:21:38Z</time></trkpt>
			<trkpt lat="56.063572" lon="39.978660"><ele>109.4</ele><time>2026-08-16T21:21:46Z</time></trkpt>
			<trkpt lat="56.066544" lon="39.980276"><ele>110.9</ele><time>2026-08-16T21:22:29Z</time></trkpt>
			<trkpt lat="56.068248" lon="39.981259"><ele>111.1</ele><time>2026-08-16T21:23:01Z</time></trkpt>
			<trkpt lat="56.071119" lon="39.982749"><ele>121.7</ele><time>2026-08-16T21:24:09Z</time></trkpt>
			<trkpt lat="56.071585" lon="39.982953"><ele>122.1</ele><time>2026-08-16T21:24:19Z</time></trkpt>
			<trkpt lat="56.071916" lon="39.983034"><ele>122.3</ele><time>2026-08-16T21:24:25Z</time></trkpt>
			<trkpt lat="56.072650" lon="39.982983"><ele>123.0</ele><time>2026-08-16T21:24:35Z</time></trkpt>
			<trkpt lat="56.075857" lon="39.982127"><ele>113.7</ele><time>2026-08-16T21:25:14Z</time></trkpt>
			<trkpt lat="56.079313" lon="39.981282"><ele>130.1</ele><time>2026-08-16T21:26:57Z</time></trkpt>
			<trkpt lat="56.086305" lon="39.979308"><ele>116.1</ele><time>2026-08-16T21:28:20Z</time></trkpt>
			<trkpt lat="56.087314" lon="39.979047"><ele>116.0</ele><time>2026-08-16T21:28:34Z</time></trkpt>
			<trkpt lat="56.088571" lon="39.978876"><ele>116.3</ele><time>2026-08-16T21:29:00Z</time></trkpt>
			<trkpt lat="56.091162" lon="39.979241"><ele>135.4</ele><time>2026-08-16T21:30:35Z</time></trkpt>
			<trkpt lat="56.092728" lon="39.979209"><ele>138.9</ele><time>2026-08-16T21:31:15Z</time></trkpt>
			<trkpt lat="56.093268" lon="39.979289"><ele>138.9</ele><time>2026-08-16T21:31:22Z</time></trkpt>
			<trkpt lat="56.096190" lon="39.980568"><ele>129.7</ele><time>2026-08-16T21:31:55Z</time></trkpt>
			<trkpt lat="56.114604" lon="39.988310"><ele>152.0</ele><time>2026-08-16T21:38:02Z</time></trkpt>
			<trkpt lat="56.114907" lon="39.988565"><ele>152.2</ele><time>2026-08-16T21:38:07Z</time></trkpt>
			<trkpt lat="56.116431" lon="39.990723"><ele>149.0</ele><time>2026-08-16T21:38:32Z</time></trkpt>
			<trkpt lat="56.122609" lon="40.000412"><ele>131.1</ele><time>2026-08-16T21:40:00Z</time></trkpt>
			<trkpt lat="56.125633" lon="39.994998"><ele>129.2</ele><time>2026-08-16T21:40:59Z</time></trkpt>
			<trkpt lat="56.125940" lon="39.994499"><ele>129.6</ele><time>2026-08-16T21:41:05Z</time></trkpt>
			<trkpt lat="56.126438" lon="39.993761"><ele>130.1</ele><time>2026-08-16T21:41:14Z</time></trkpt>
			<trkpt lat="56.126941" lon="39.993102"><ele>129.6</ele><time>2026-08-16T21:41:23Z</time></trkpt>
			<trkpt lat="56.127715" lon="39.992333"><ele>129.6</ele><time>2026-08-16T21:41:35Z</time></trkpt>
			<trkpt lat="56.128235" lon="39.991985"><ele>129.1</ele><time>2026-08-16T21:41:44Z</time></trkpt>
			<trkpt lat="56.128768" lon="39.991698"><ele>129.0</ele><time>2026-08-16T21:41:53Z</time></trkpt>
			<trkpt lat="56.129884" lon="39.991219"><ele>128.6</ele><time>2026-08-16T21:42:10Z</time></trkpt>
			<trkpt lat="56.130936" lon="39.990917"><ele>129.0</ele><time>2026-08-16T21:42:26Z</time></trkpt>
			<trkpt lat="56.131625" lon="39.990808"><ele>129.0</ele><time>2026-08-16T21:42:35Z</time></trkpt>
			<trkpt lat="56.132203" lon="39.990845"><ele>127.7</ele><time>2026-08-16T21:42:42Z</time></trkpt>
			<trkpt lat="56.134606" lon="39.991549"><ele>122.5</ele><time>2026-08-16T21:43:09Z</time></trkpt>
			<trkpt lat="56.134942" lon="39.991607"><ele>121.0</ele><time>2026-08-16T21:43:12Z</time></trkpt>
			<trkpt lat="56.135275" lon="39.991562"><ele>119.5</ele><time>2026-08-16T21:43:15Z</time></trkpt>
			<trkpt lat="56.135595" lon="39.991467"><ele>117.9</ele><time>2026-08-16T21:43:18Z</time></trkpt>
			<trkpt lat="56.135938" lon="39.991309"><ele>115.8</ele><time>2026-08-16T21:43:21Z</time></trkpt>
			<trkpt lat="56.136628" lon="39.990827"><ele>112.1</ele><time>2026-08-16T21:43:29Z</time></trkpt>
			<trkpt lat="56.138254" lon="39.989418"><ele>122.5</ele><time>2026-08-16T21:44:10Z</time></trkpt>
			<trkpt lat="56.139515" lon="39.988265"><ele>124.6</ele><time>2026-08-16T21:44:44Z</time></trkpt>
			<trkpt lat="56.140663" lon="39.987307"><ele>122.2</ele><time>2026-08-16T21:45:03Z</time></trkpt>
			<trkpt lat="56.148186" lon="39.980687"><ele>117.6</ele><time>2026-08-16T21:46:50Z</time></trkpt>
			<trkpt lat="56.149017" lon="39.979703"><ele>116.1</ele><time>2026-08-16T21:47:03Z</time></trkpt>
			<trkpt lat="56.149907" lon="39.978300"><ele>116.1</ele><time>2026-08-16T21:47:20Z</time></trkpt>
			<trkpt lat="56.150709" lon="39.976810"><ele>119.4</ele><time>2026-08-16T21:47:46Z</time></trkpt>
			<trkpt lat="56.151255" lon="39.975499"><ele>122.2</ele><time>2026-08-16T21:48:09Z</time></trkpt>
			<trkpt lat="56.151725" lon="39.974113"><ele>123.9</ele><time>2026-08-16T21:48:29Z</time></trkpt>
			<trkpt lat="56.152043" lon="39.972753"><ele>124.2</ele><time>2026-08-16T21:48:46Z</time></trkpt>
			<trkpt lat="56.152804" lon="39.968976"><ele>125.6</ele><time>2026-08-16T21:49:25Z</time></trkpt>
			<trkpt lat="56.152959" lon="39.967790"><ele>125.5</ele><time>2026-08-16T21:49:37Z</time></trkpt>
			<trkpt lat="56.153042" lon="39.966938"><ele>125.2</ele><time>2026-08-16T21:49:45Z</time></trkpt>
			<trkpt lat="56.153070" lon="39.965485"><ele>124.9</ele><time>2026-08-16T21:49:59Z</time></trkpt>
			<trkpt lat="56.152927" lon="39.954206"><ele>130.5</ele><time>2026-08-16T21:51:54Z</time></trkpt>
			<trkpt lat="56.152965" lon="39.952779"><ele>131.0</ele><time>2026-08-16T21:52:07Z</time></trkpt>
			<trkpt lat="56.153138" lon="39.950721"><ele>130.4</ele><time>2026-08-16T21:52:25Z</time></trkpt>
			<trkpt lat="56.153254" lon="39.949946"><ele>131.3</ele><time>2026-08-16T21:52:32Z</time></trkpt>
			<trkpt lat="56.153617" lon="39.948222"><ele>133.4</ele><time>2026-08-16T21:52:53Z</time></trkpt>
			<trkpt lat="56.155892" lon="39.938159"><ele>157.3</ele><time>2026-08-16T21:55:28Z</time></trkpt>
			<trkpt lat="56.156028" lon="39.936977"><ele>159.1</ele><time>2026-08-16T21:55:45Z</time></trkpt>
			<trkpt lat="56.156095" lon="39.932080"><ele>161.3</ele><time>2026-08-16T21:56:42Z</time></trkpt>
			<trkpt lat="56.157441" lon="39.923407"><ele>174.8</ele><time>2026-08-16T21:58:38Z</time></trkpt>
			<trkpt lat="56.157634" lon="39.922559"><ele>174.1</ele><time>2026-08-16T21:58:47Z</time></trkpt>
			<trkpt lat="56.158252" lon="39.920687"><ele>172.2</ele><time>2026-08-16T21:59:06Z</time></trkpt>
			<trkpt lat="56.160126" lon="39.915700"><ele>168.1</ele><time>2026-08-16T21:59:56Z</time></trkpt>
			<trkpt lat="56.162568" lon="39.908186"><ele>171.7</ele><time>2026-08-16T22:01:20Z</time></trkpt>
			<trkpt lat="56.164450" lon="39.902558"><ele>173.6</ele><time>2026-08-16T22:02:18Z</time></trkpt>
			<trkpt lat="56.164792" lon="39.901840"><ele>172.2</ele><time>2026-08-16T22:02:25Z</time></trkpt>
			<trkpt lat="56.165427" lon="39.900678"><ele>170.7</ele><time>2026-08-16T22:02:38Z</time></trkpt>
			<trkpt lat="56.165663" lon="39.900272"><ele>170.4</ele><time>2026-08-16T22:02:42Z</time></trkpt>
			<trkpt lat="56.166114" lon="39.899639"><ele>170.5</ele><time>2026-08-16T22:02:50Z</time></trkpt>
			<trkpt lat="56.159735" lon="39.878050"><ele>167.0</ele><time>2026-08-16T22:06:04Z</time></trkpt>
			<trkpt lat="56.159447" lon="39.877249"><ele>166.9</ele><time>2026-08-16T22:06:13Z</time></trkpt>
			<trkpt lat="56.159068" lon="39.876539"><ele>166.8</ele><time>2026-08-16T22:06:22Z</time></trkpt>
			<trkpt lat="56.158830" lon="39.876275"><ele>168.1</ele><time>2026-08-16T22:06:26Z</time></trkpt>
			<trkpt lat="56.158463" lon="39.875965"><ele>169.1</ele><time>2026-08-16T22:06:32Z</time></trkpt>
			<trkpt lat="56.158075" lon="39.875890"><ele>169.9</ele><time>2026-08-16T22:06:37Z</time></trkpt>
			<trkpt lat="56.157150" lon="39.875842"><ele>169.0</ele><time>2026-08-16T22:06:48Z</time></trkpt>
			<trkpt lat="56.156957" lon="39.875873"><ele>168.0</ele><time>2026-08-16T22:06:51Z</time></trkpt>
			<trkpt lat="56.156729" lon="39.875967"><ele>167.2</ele><time>2026-08-16T22:06:54Z</time></trkpt>
			<trkpt lat="56.156957" lon="39.875873"><ele>168.0</ele><time>2026-08-16T22:06:57Z</time></trkpt>
			<trkpt lat="56.157150" lon="39.875842"><ele>169.0</ele><time>2026-08-16T22:07:01Z</time></trkpt>
			<trkpt lat="56.158075" lon="39.875890"><ele>169.9</ele><time>2026-08-16T22:07:18Z</time></trkpt>
			<trkpt lat="56.158463" lon="39.875965"><ele>169.1</ele><time>2026-08-16T22:07:25Z</time></trkpt>
			<trkpt lat="56.158830" lon="39.876275"><ele>168.1</ele><time>2026-08-16T22:07:31Z</time></trkpt>
			<trkpt lat="56.159068" lon="39.876539"><ele>166.8</ele><time>2026-08-16T22:07:35Z</time></trkpt>
			<trkpt lat="56.159447" lon="39.877249"><ele>166.9</ele><time>2026-08-16T22:07:43Z</time></trkpt>
			<trkpt lat="56.159735" lon="39.878050"><ele>167.0</ele><time>2026-08-16T22:07:50Z</time></trkpt>
			<trkpt lat="56.166114" lon="39.899639"><ele>170.5</ele><time>2026-08-16T22:11:21Z</time></trkpt>
			<trkpt lat="56.167636" lon="39.897708"><ele>171.8</ele><time>2026-08-16T22:11:50Z</time></trkpt>
			<trkpt lat="56.174877" lon="39.889064"><ele>174.0</ele><time>2026-08-16T22:14:06Z</time></trkpt>
			<trkpt lat="56.175722" lon="39.887701"><ele>173.3</ele><time>2026-08-16T22:14:24Z</time></trkpt>
			<trkpt lat="56.183808" lon="39.872451"><ele>177.8</ele><time>2026-08-16T22:17:37Z</time></trkpt>
			<trkpt lat="56.183987" lon="39.871850"><ele>177.1</ele><time>2026-08-16T22:17:42Z</time></trkpt>
			<trkpt lat="56.184082" lon="39.871311"><ele>176.9</ele><time>2026-08-16T22:17:47Z</time></trkpt>
			<trkpt lat="56.184167" lon="39.870737"><ele>177.0</ele><time>2026-08-16T22:17:52Z</time></trkpt>
			<trkpt lat="56.185124" lon="39.860479"><ele>181.6</ele><time>2026-08-16T22:19:37Z</time></trkpt>
			<trkpt lat="56.186137" lon="39.847951"><ele>191.2</ele><time>2026-08-16T22:21:53Z</time></trkpt>
			<trkpt lat="56.187445" lon="39.832549"><ele>193.8</ele><time>2026-08-16T22:24:12Z</time></trkpt>
			<trkpt lat="56.188091" lon="39.823820"><ele>183.7</ele><time>2026-08-16T22:25:10Z</time></trkpt>
			<trkpt lat="56.188409" lon="39.818352"><ele>160.7</ele><time>2026-08-16T22:25:38Z</time></trkpt>
			<trkpt lat="56.188425" lon="39.817543"><ele>157.8</ele><time>2026-08-16T22:25:42Z</time></trkpt>
			<trkpt lat="56.188392" lon="39.815695"><ele>151.3</ele><time>2026-08-16T22:25:51Z</time></trkpt>
			<trkpt lat="56.188204" lon="39.813599"><ele>140.7</ele><time>2026-08-16T22:26:02Z</time></trkpt>
			<trkpt lat="56.186902" lon="39.804567"><ele>156.8</ele><time>2026-08-16T22:28:32Z</time></trkpt>
			<trkpt lat="56.186282" lon="39.800038"><ele>172.9</ele><time>2026-08-16T22:30:04Z</time></trkpt>
			<trkpt lat="56.185666" lon="39.794944"><ele>182.4</ele><time>2026-08-16T22:31:35Z</time></trkpt>
			<trkpt lat="56.185480" lon="39.792805"><ele>186.8</ele><time>2026-08-16T22:32:08Z</time></trkpt>
			<trkpt lat="56.185496" lon="39.785844"><ele>191.5</ele><time>2026-08-16T22:33:18Z</time></trkpt>
			<trkpt lat="56.185634" lon="39.774359"><ele>181.5</ele><time>2026-08-16T22:34:33Z</time></trkpt>
			<trkpt lat="56.185689" lon="39.773282"><ele>180.8</ele><time>2026-08-16T22:34:39Z</time></trkpt>
			<trkpt lat="56.186053" lon="39.769811"><ele>179.4</ele><time>2026-08-16T22:35:03Z</time></trkpt>
			<trkpt lat="56.186140" lon="39.768460"><ele>181.8</ele><time>2026-08-16T22:35:16Z</time></trkpt>
			<trkpt lat="56.186168" lon="39.767481"><ele>181.6</ele><time>2026-08-16T22:35:27Z</time></trkpt>
			<trkpt lat="56.186315" lon="39.766472"><ele>181.1</ele><time>2026-08-16T22:35:37Z</time></trkpt>
			<trkpt lat="56.186737" lon="39.765067"><ele>179.5</ele><time>2026-08-16T22:35:48Z</time></trkpt>
			<trkpt lat="56.187210" lon="39.762555"><ele>184.4</ele><time>2026-08-16T22:36:11Z</time></trkpt>
			<trkpt lat="56.187342" lon="39.762149"><ele>184.9</ele><time>2026-08-16T22:36:16Z</time></trkpt>
			<trkpt lat="56.187537" lon="39.761709"><ele>185.1</ele><time>2026-08-16T22:36:23Z</time></trkpt>
			<trkpt lat="56.188313" lon="39.760150"><ele>185.0</ele><time>2026-08-16T22:36:49Z</time></trkpt>
			<trkpt lat="56.188814" lon="39.758994"><ele>187.2</ele><time>2026-08-16T22:37:07Z</time></trkpt>
			<trkpt lat="56.189223" lon="39.757969"><ele>187.1</ele><time>2026-08-16T22:37:22Z</time></trkpt>
			<trkpt lat="56.189632" lon="39.756812"><ele>187.2</ele><time>2026-08-16T22:37:37Z</time></trkpt>
			<trkpt lat="56.189902" lon="39.755830"><ele>187.9</ele><time>2026-08-16T22:37:49Z</time></trkpt>
			<trkpt lat="56.190151" lon="39.754393"><ele>189.3</ele><time>2026-08-16T22:38:08Z</time></trkpt>
			<trkpt lat="56.195528" lon="39.720255"><ele>198.4</ele><time>2026-08-16T22:43:37Z</time></trkpt>
			<trkpt lat="56.197134" lon="39.709654"><ele>206.9</ele><time>2026-08-16T22:45:39Z</time></trkpt>
			<trkpt lat="56.197702" lon="39.706232"><ele>209.2</ele><time>2026-08-16T22:46:17Z</time></trkpt>
			<trkpt lat="56.197902" lon="39.704255"><ele>207.9</ele><time>2026-08-16T22:46:36Z</time></trkpt>
			<trkpt lat="56.199769" lon="39.674597"><ele>196.4</ele><time>2026-08-16T22:50:08Z</time></trkpt>
			<trkpt lat="56.199924" lon="39.673714"><ele>195.8</ele><time>2026-08-16T22:50:15Z</time></trkpt>
			<trkpt lat="56.200141" lon="39.673198"><ele>196.4</ele><time>2026-08-16T22:50:21Z</time></trkpt>
			<trkpt lat="56.200329" lon="39.672914"><ele>196.8</ele><time>2026-08-16T22:50:26Z</time></trkpt>
			<trkpt lat="56.201781" lon="39.671306"><ele>200.6</ele><time>2026-08-16T22:51:11Z</time></trkpt>
			<trkpt lat="56.201916" lon="39.671075"><ele>201.1</ele><time>2026-08-16T22:51:16Z</time></trkpt>
			<trkpt lat="56.202174" lon="39.670309"><ele>202.5</ele><time>2026-08-16T22:51:27Z</time></trkpt>
			<trkpt lat="56.202296" lon="39.669541"><ele>203.4</ele><time>2026-08-16T22:51:36Z</time></trkpt>
			<trkpt lat="56.204018" lon="39.655776"><ele>202.9</ele><time>2026-08-16T22:53:34Z</time></trkpt>
			<trkpt lat="56.205576" lon="39.646637"><ele>198.3</ele><time>2026-08-16T22:54:44Z</time></trkpt>
			<trkpt lat="56.205627" lon="39.646116"><ele>197.8</ele><time>2026-08-16T22:54:47Z</time></trkpt>
			<trkpt lat="56.205603" lon="39.645145"><ele>197.8</ele><time>2026-08-16T22:54:53Z</time></trkpt>
			<trkpt lat="56.204869" lon="39.639868"><ele>190.2</ele><time>2026-08-16T22:55:23Z</time></trkpt>
			<trkpt lat="56.204849" lon="39.639094"><ele>187.0</ele><time>2026-08-16T22:55:27Z</time></trkpt>
			<trkpt lat="56.206683" lon="39.616794"><ele>187.9</ele><time>2026-08-16T22:59:35Z</time></trkpt>
			<trkpt lat="56.206802" lon="39.616164"><ele>188.9</ele><time>2026-08-16T22:59:46Z</time></trkpt>
			<trkpt lat="56.207051" lon="39.615554"><ele>190.1</ele><time>2026-08-16T22:59:56Z</time></trkpt>
			<trkpt lat="56.208056" lon="39.613833"><ele>190.3</ele><time>2026-08-16T23:00:24Z</time></trkpt>
			<trkpt lat="56.208689" lon="39.613205"><ele>189.7</ele><time>2026-08-16T23:00:34Z</time></trkpt>
			<trkpt lat="56.208897" lon="39.612895"><ele>189.3</ele><time>2026-08-16T23:00:37Z</time></trkpt>
			<trkpt lat="56.209090" lon="39.612528"><ele>188.9</ele><time>2026-08-16T23:00:40Z</time></trkpt>
			<trkpt lat="56.210218" lon="39.609966"><ele>177.4</ele><time>2026-08-16T23:00:58Z</time></trkpt>
			<trkpt lat="56.210445" lon="39.609336"><ele>176.6</ele><time>2026-08-16T23:01:02Z</time></trkpt>
			<trkpt lat="56.210652" lon="39.608529"><ele>177.3</ele><time>2026-08-16T23:01:07Z</time></trkpt>
			<trkpt lat="56.210727" lon="39.607967"><ele>178.4</ele><time>2026-08-16T23:01:10Z</time></trkpt>
			<trkpt lat="56.212848" lon="39.587579"><ele>185.6</ele><time>2026-08-16T23:04:57Z</time></trkpt>
			<trkpt lat="56.212934" lon="39.586320"><ele>186.4</ele><time>2026-08-16T23:05:14Z</time></trkpt>
			<trkpt lat="56.212924" lon="39.584852"><ele>186.5</ele><time>2026-08-16T23:05:30Z</time></trkpt>
			<trkpt lat="56.212610" lon="39.574632"><ele>192.2</ele><time>2026-08-16T23:07:12Z</time></trkpt>
			<trkpt lat="56.212616" lon="39.573557"><ele>194.4</ele><time>2026-08-16T23:07:23Z</time></trkpt>
			<trkpt lat="56.212729" lon="39.572580"><ele>194.1</ele><time>2026-08-16T23:07:34Z</time></trkpt>
			<trkpt lat="56.212959" lon="39.571713"><ele>194.2</ele><time>2026-08-16T23:07:46Z</time></trkpt>
			<trkpt lat="56.218733" lon="39.554654"><ele>193.6</ele><time>2026-08-16T23:10:54Z</time></trkpt>
			<trkpt lat="56.218897" lon="39.554082"><ele>192.9</ele><time>2026-08-16T23:10:58Z</time></trkpt>
			<trkpt lat="56.219017" lon="39.553342"><ele>191.8</ele><time>2026-08-16T23:11:03Z</time></trkpt>
			<trkpt lat="56.219483" lon="39.545690"><ele>179.5</ele><time>2026-08-16T23:11:48Z</time></trkpt>
			<trkpt lat="56.219557" lon="39.544844"><ele>176.3</ele><time>2026-08-16T23:11:52Z</time></trkpt>
			<trkpt lat="56.219717" lon="39.543751"><ele>172.7</ele><time>2026-08-16T23:11:58Z</time></trkpt>
			<trkpt lat="56.219979" lon="39.542697"><ele>169.3</ele><time>2026-08-16T23:12:04Z</time></trkpt>
			<trkpt lat="56.223843" lon="39.531467"><ele>169.1</ele><time>2026-08-16T23:14:24Z</time></trkpt>
			<trkpt lat="56.224770" lon="39.529237"><ele>169.3</ele><time>2026-08-16T23:14:47Z</time></trkpt>
			<trkpt lat="56.228553" lon="39.521684"><ele>147.8</ele><time>2026-08-16T23:15:43Z</time></trkpt>
			<trkpt lat="56.228959" lon="39.521028"><ele>147.1</ele><time>2026-08-16T23:15:49Z</time></trkpt>
			<trkpt lat="56.229374" lon="39.520446"><ele>144.2</ele><time>2026-08-16T23:15:54Z</time></trkpt>
			<trkpt lat="56.230000" lon="39.519720"><ele>140.2</ele><time>2026-08-16T23:16:02Z</time></trkpt>
			<trkpt lat="56.231842" lon="39.517882"><ele>139.7</ele><time>2026-08-16T23:16:28Z</time></trkpt>
			<trkpt lat="56.232649" lon="39.517232"><ele>137.1</ele><time>2026-08-16T23:16:40Z</time></trkpt>
			<trkpt lat="56.232868" lon="39.517020"><ele>136.5</ele><time>2026-08-16T23:16:43Z</time></trkpt>
			<trkpt lat="56.233770" lon="39.515925"><ele>139.3</ele><time>2026-08-16T23:17:04Z</time></trkpt>
			<trkpt lat="56.234046" lon="39.515458"><ele>143.0</ele><time>2026-08-16T23:17:14Z</time></trkpt>
			<trkpt lat="56.235994" lon="39.511096"><ele>150.3</ele><time>2026-08-16T23:18:41Z</time></trkpt>
			<trkpt lat="56.236378" lon="39.510165"><ele>148.6</ele><time>2026-08-16T23:18:56Z</time></trkpt>
			<trkpt lat="56.238909" lon="39.503373"><ele>165.4</ele><time>2026-08-16T23:20:46Z</time></trkpt>
			<trkpt lat="56.239914" lon="39.500759"><ele>176.2</ele><time>2026-08-16T23:21:36Z</time></trkpt>
			<trkpt lat="56.240612" lon="39.499299"><ele>175.7</ele><time>2026-08-16T23:21:57Z</time></trkpt>
			<trkpt lat="56.243007" lon="39.495109"><ele>173.9</ele><time>2026-08-16T23:22:49Z</time></trkpt>
			<trkpt lat="56.243456" lon="39.494238"><ele>174.2</ele><time>2026-08-16T23:23:01Z</time></trkpt>
			<trkpt lat="56.243783" lon="39.493517"><ele>175.7</ele><time>2026-08-16T23:23:11Z</time></trkpt>
			<trkpt lat="56.244074" lon="39.492755"><ele>176.1</ele><time>2026-08-16T23:23:21Z</time></trkpt>
			<trkpt lat="56.246153" lon="39.485232"><ele>176.3</ele><time>2026-08-16T23:24:46Z</time></trkpt>
			<trkpt lat="56.246394" lon="39.484457"><ele>176.4</ele><time>2026-08-16T23:24:55Z</time></trkpt>
			<trkpt lat="56.245992" lon="39.484736"><ele>175.9</ele><time>2026-08-16T23:25:02Z</time></trkpt>
			<trkpt lat="56.244651" lon="39.485334"><ele>175.9</ele><time>2026-08-16T23:25:20Z</time></trkpt>
			<trkpt lat="56.232149" lon="39.490498"><ele>164.0</ele><time>2026-08-16T23:27:54Z</time></trkpt>
			<trkpt lat="56.231480" lon="39.490700"><ele>161.9</ele><time>2026-08-16T23:28:02Z</time></trkpt>
			<trkpt lat="56.230320" lon="39.490879"><ele>159.6</ele><time>2026-08-16T23:28:14Z</time></trkpt>
			<trkpt lat="56.229819" lon="39.490793"><ele>159.4</ele><time>2026-08-16T23:28:20Z</time></trkpt>
			<trkpt lat="56.224621" lon="39.489241"><ele>143.8</ele><time>2026-08-16T23:29:18Z</time></trkpt>
			<trkpt lat="56.222822" lon="39.488605"><ele>142.2</ele><time>2026-08-16T23:29:44Z</time></trkpt>
			<trkpt lat="56.221105" lon="39.487418"><ele>143.0</ele><time>2026-08-16T23:30:13Z</time></trkpt>
			<trkpt lat="56.218963" lon="39.485854"><ele>142.0</ele><time>2026-08-16T23:30:46Z</time></trkpt>
			<trkpt lat="56.215017" lon="39.482609"><ele>140.2</ele><time>2026-08-16T23:31:47Z</time></trkpt>
			<trkpt lat="56.212809" lon="39.480620"><ele>139.7</ele><time>2026-08-16T23:32:19Z</time></trkpt>
			<trkpt lat="56.211022" lon="39.478830"><ele>138.5</ele><time>2026-08-16T23:32:42Z</time></trkpt>
			<trkpt lat="56.210362" lon="39.478409"><ele>136.7</ele><time>2026-08-16T23:32:49Z</time></trkpt>
			<trkpt lat="56.209803" lon="39.477736"><ele>131.4</ele><time>2026-08-16T23:32:56Z</time></trkpt>
			<trkpt lat="56.209334" lon="39.477042"><ele>129.9</ele><time>2026-08-16T23:33:02Z</time></trkpt>
			<trkpt lat="56.209036" lon="39.476540"><ele>129.7</ele><time>2026-08-16T23:33:07Z</time></trkpt>
			<trkpt lat="56.208620" lon="39.475404"><ele>129.2</ele><time>2026-08-16T23:33:18Z</time></trkpt>
			<trkpt lat="56.207015" lon="39.470555"><ele>133.3</ele><time>2026-08-16T23:34:18Z</time></trkpt>
			<trkpt lat="56.205915" lon="39.468498"><ele>142.9</ele><time>2026-08-16T23:35:15Z</time></trkpt>
			<trkpt lat="56.205208" lon="39.466946"><ele>146.5</ele><time>2026-08-16T23:35:44Z</time></trkpt>
			<trkpt lat="56.204235" lon="39.465153"><ele>144.0</ele><time>2026-08-16T23:36:03Z</time></trkpt>
			<trkpt lat="56.200298" lon="39.468161"><ele>136.4</ele><time>2026-08-16T23:38:20Z</time></trkpt>
			<trkpt lat="56.195723" lon="39.471374"><ele>137.6</ele><time>2026-08-16T23:41:26Z</time></trkpt>
			<trkpt lat="56.193641" lon="39.472947"><ele>143.0</ele><time>2026-08-16T23:42:39Z</time></trkpt>
			<trkpt lat="56.193080" lon="39.473517"><ele>147.2</ele><time>2026-08-16T23:42:57Z</time></trkpt>
			<trkpt lat="56.191736" lon="39.474276"><ele>152.2</ele><time>2026-08-16T23:43:32Z</time></trkpt>
			<trkpt lat="56.191049" lon="39.474460"><ele>150.6</ele><time>2026-08-16T23:43:46Z</time></trkpt>
			<trkpt lat="56.190403" lon="39.474339"><ele>150.4</ele><time>2026-08-16T23:44:00Z</time></trkpt>
			<trkpt lat="56.189299" lon="39.474547"><ele>153.4</ele><time>2026-08-16T23:44:28Z</time></trkpt>
			<trkpt lat="56.188836" lon="39.474339"><ele>158.6</ele><time>2026-08-16T23:44:40Z</time></trkpt>
			<trkpt lat="56.187729" lon="39.474706"><ele>162.5</ele><time>2026-08-16T23:45:01Z</time></trkpt>
			<trkpt lat="56.187031" lon="39.475030"><ele>158.2</ele><time>2026-08-16T23:45:11Z</time></trkpt>
			<trkpt lat="56.187729" lon="39.474706"><ele>162.5</ele><time>2026-08-16T23:45:22Z</time></trkpt>
			<trkpt lat="56.188836" lon="39.474339"><ele>158.7</ele><time>2026-08-16T23:45:36Z</time></trkpt>
			<trkpt lat="56.189299" lon="39.474547"><ele>153.6</ele><time>2026-08-16T23:45:41Z</time></trkpt>
			<trkpt lat="56.190403" lon="39.474339"><ele>150.4</ele><time>2026-08-16T23:45:53Z</time></trkpt>
			<trkpt lat="56.191049" lon="39.474460"><ele>150.6</ele><time>2026-08-16T23:46:00Z</time></trkpt>
			<trkpt lat="56.191736" lon="39.474276"><ele>152.2</ele><time>2026-08-16T23:46:08Z</time></trkpt>
			<trkpt lat="56.193080" lon="39.473517"><ele>147.2</ele><time>2026-08-16T23:46:23Z</time></trkpt>
			<trkpt lat="56.193641" lon="39.472947"><ele>143.1</ele><time>2026-08-16T23:46:30Z</time></trkpt>
			<trkpt lat="56.195723" lon="39.471374"><ele>137.6</ele><time>2026-08-16T23:47:07Z</time></trkpt>
			<trkpt lat="56.200298" lon="39.468161"><ele>136.4</ele><time>2026-08-16T23:50:05Z</time></trkpt>
			<trkpt lat="56.204235" lon="39.465153"><ele>144.0</ele><time>2026-08-16T23:53:13Z</time></trkpt>
			<trkpt lat="56.205208" lon="39.466946"><ele>146.5</ele><time>2026-08-16T23:53:37Z</time></trkpt>
			<trkpt lat="56.205915" lon="39.468498"><ele>142.9</ele><time>2026-08-16T23:53:48Z</time></trkpt>
			<trkpt lat="56.207015" lon="39.470555"><ele>133.3</ele><time>2026-08-16T23:54:03Z</time></trkpt>
			<trkpt lat="56.208620" lon="39.475404"><ele>129.2</ele><time>2026-08-16T23:54:42Z</time></trkpt>
			<trkpt lat="56.209036" lon="39.476540"><ele>129.7</ele><time>2026-08-16T23:54:53Z</time></trkpt>
			<trkpt lat="56.209334" lon="39.477042"><ele>129.9</ele><time>2026-08-16T23:55:02Z</time></trkpt>
			<trkpt lat="56.209803" lon="39.477736"><ele>131.4</ele><time>2026-08-16T23:55:17Z</time></trkpt>
			<trkpt lat="56.210362" lon="39.478409"><ele>136.7</ele><time>2026-08-16T23:55:37Z</time></trkpt>
			<trkpt lat="56.211022" lon="39.478830"><ele>138.5</ele><time>2026-08-16T23:55:58Z</time></trkpt>
			<trkpt lat="56.212809" lon="39.480620"><ele>139.7</ele><time>2026-08-16T23:56:42Z</time></trkpt>
			<trkpt lat="56.215017" lon="39.482609"><ele>140.2</ele><time>2026-08-16T23:57:25Z</time></trkpt>
			<trkpt lat="56.218963" lon="39.485854"><ele>142.0</ele><time>2026-08-16T23:58:33Z</time></trkpt>
			<trkpt lat="56.221105" lon="39.487418"><ele>143.1</ele><time>2026-08-16T23:59:10Z</time></trkpt>
			<trkpt lat="56.222822" lon="39.488605"><ele>142.2</ele><time>2026-08-16T23:59:35Z</time></trkpt>
			<trkpt lat="56.224621" lon="39.489241"><ele>143.8</ele><time>2026-08-17T00:00:04Z</time></trkpt>
			<trkpt lat="56.229819" lon="39.490793"><ele>159.5</ele><time>2026-08-17T00:02:04Z</time></trkpt>
			<trkpt lat="56.230320" lon="39.490879"><ele>159.6</ele><time>2026-08-17T00:02:15Z</time></trkpt>
			<trkpt lat="56.231480" lon="39.490700"><ele>161.8</ele><time>2026-08-17T00:02:40Z</time></trkpt>
			<trkpt lat="56.232149" lon="39.490498"><ele>164.0</ele><time>2026-08-17T00:02:57Z</time></trkpt>
			<trkpt lat="56.244651" lon="39.485334"><ele>175.9</ele><time>2026-08-17T00:07:16Z</time></trkpt>
			<trkpt lat="56.245992" lon="39.484736"><ele>175.9</ele><time>2026-08-17T00:07:41Z</time></trkpt>
			<trkpt lat="56.246394" lon="39.484457"><ele>176.4</ele><time>2026-08-17T00:07:48Z</time></trkpt>
			<trkpt lat="56.250329" lon="39.478569"><ele>176.0</ele><time>2026-08-17T00:08:59Z</time></trkpt>
			<trkpt lat="56.251133" lon="39.477404"><ele>175.4</ele><time>2026-08-17T00:09:18Z</time></trkpt>
			<trkpt lat="56.251458" lon="39.476991"><ele>174.0</ele><time>2026-08-17T00:09:23Z</time></trkpt>
			<trkpt lat="56.251753" lon="39.476731"><ele>173.2</ele><time>2026-08-17T00:09:27Z</time></trkpt>
			<trkpt lat="56.252723" lon="39.476040"><ele>172.2</ele><time>2026-08-17T00:09:39Z</time></trkpt>
			<trkpt lat="56.254100" lon="39.475202"><ele>172.1</ele><time>2026-08-17T00:09:59Z</time></trkpt>
			<trkpt lat="56.258558" lon="39.472652"><ele>182.9</ele><time>2026-08-17T00:11:31Z</time></trkpt>
			<trkpt lat="56.259144" lon="39.472203"><ele>183.2</ele><time>2026-08-17T00:11:39Z</time></trkpt>
			<trkpt lat="56.259663" lon="39.471653"><ele>182.5</ele><time>2026-08-17T00:11:46Z</time></trkpt>
			<trkpt lat="56.264527" lon="39.465621"><ele>162.9</ele><time>2026-08-17T00:12:51Z</time></trkpt>
			<trkpt lat="56.264804" lon="39.465136"><ele>160.9</ele><time>2026-08-17T00:12:55Z</time></trkpt>
			<trkpt lat="56.265271" lon="39.464084"><ele>159.0</ele><time>2026-08-17T00:13:03Z</time></trkpt>
			<trkpt lat="56.265576" lon="39.462977"><ele>159.7</ele><time>2026-08-17T00:13:12Z</time></trkpt>
			<trkpt lat="56.265791" lon="39.461665"><ele>163.6</ele><time>2026-08-17T00:13:30Z</time></trkpt>
			<trkpt lat="56.267861" lon="39.450806"><ele>154.8</ele><time>2026-08-17T00:15:08Z</time></trkpt>
			<trkpt lat="56.267946" lon="39.450240"><ele>156.2</ele><time>2026-08-17T00:15:13Z</time></trkpt>
			<trkpt lat="56.267994" lon="39.449374"><ele>158.0</ele><time>2026-08-17T00:15:23Z</time></trkpt>
			<trkpt lat="56.268130" lon="39.448284"><ele>158.8</ele><time>2026-08-17T00:15:37Z</time></trkpt>
			<trkpt lat="56.268280" lon="39.447692"><ele>158.9</ele><time>2026-08-17T00:15:45Z</time></trkpt>
			<trkpt lat="56.268732" lon="39.446632"><ele>159.9</ele><time>2026-08-17T00:16:00Z</time></trkpt>
			<trkpt lat="56.269323" lon="39.445718"><ele>161.2</ele><time>2026-08-17T00:16:16Z</time></trkpt>
			<trkpt lat="56.271496" lon="39.442588"><ele>158.7</ele><time>2026-08-17T00:16:58Z</time></trkpt>
			<trkpt lat="56.274449" lon="39.437709"><ele>137.7</ele><time>2026-08-17T00:17:37Z</time></trkpt>
			<trkpt lat="56.275719" lon="39.435520"><ele>136.3</ele><time>2026-08-17T00:17:57Z</time></trkpt>
			<trkpt lat="56.276052" lon="39.434777"><ele>138.3</ele><time>2026-08-17T00:18:06Z</time></trkpt>
			<trkpt lat="56.276367" lon="39.433901"><ele>141.0</ele><time>2026-08-17T00:18:19Z</time></trkpt>
			<trkpt lat="56.276796" lon="39.432470"><ele>144.4</ele><time>2026-08-17T00:18:39Z</time></trkpt>
			<trkpt lat="56.277538" lon="39.429278"><ele>143.5</ele><time>2026-08-17T00:19:10Z</time></trkpt>
			<trkpt lat="56.280330" lon="39.421487"><ele>135.9</ele><time>2026-08-17T00:20:13Z</time></trkpt>
			<trkpt lat="56.280494" lon="39.420619"><ele>135.4</ele><time>2026-08-17T00:20:19Z</time></trkpt>
			<trkpt lat="56.280754" lon="39.418743"><ele>134.0</ele><time>2026-08-17T00:20:34Z</time></trkpt>
			<trkpt lat="56.280934" lon="39.416679"><ele>133.9</ele><time>2026-08-17T00:20:50Z</time></trkpt>
			<trkpt lat="56.281091" lon="39.414163"><ele>135.4</ele><time>2026-08-17T00:21:17Z</time></trkpt>
			<trkpt lat="56.281682" lon="39.413266"><ele>138.1</ele><time>2026-08-17T00:21:35Z</time></trkpt>
			<trkpt lat="56.282509" lon="39.412281"><ele>140.7</ele><time>2026-08-17T00:21:58Z</time></trkpt>
			<trkpt lat="56.282975" lon="39.411572"><ele>141.2</ele><time>2026-08-17T00:22:12Z</time></trkpt>
			<trkpt lat="56.284221" lon="39.407975"><ele>147.8</ele><time>2026-08-17T00:23:12Z</time></trkpt>
			<trkpt lat="56.287250" lon="39.398745"><ele>157.4</ele><time>2026-08-17T00:25:15Z</time></trkpt>
			<trkpt lat="56.287562" lon="39.398094"><ele>157.6</ele><time>2026-08-17T00:25:22Z</time></trkpt>
			<trkpt lat="56.288326" lon="39.397435"><ele>154.8</ele><time>2026-08-17T00:25:30Z</time></trkpt>
			<trkpt lat="56.290237" lon="39.395993"><ele>145.6</ele><time>2026-08-17T00:25:51Z</time></trkpt>
			<trkpt lat="56.291113" lon="39.395151"><ele>148.3</ele><time>2026-08-17T00:26:12Z</time></trkpt>
			<trkpt lat="56.291259" lon="39.393909"><ele>151.8</ele><time>2026-08-17T00:26:30Z</time></trkpt>
			<trkpt lat="56.291342" lon="39.391172"><ele>155.1</ele><time>2026-08-17T00:27:06Z</time></trkpt>
			<trkpt lat="56.291435" lon="39.390674"><ele>156.0</ele><time>2026-08-17T00:27:13Z</time></trkpt>
			<trkpt lat="56.291656" lon="39.390289"><ele>156.9</ele><time>2026-08-17T00:27:21Z</time></trkpt>
			<trkpt lat="56.292124" lon="39.389920"><ele>158.8</ele><time>2026-08-17T00:27:33Z</time></trkpt>
			<trkpt lat="56.291768" lon="39.389031"><ele>158.6</ele><time>2026-08-17T00:27:46Z</time></trkpt>
			<trkpt lat="56.291328" lon="39.388049"><ele>158.5</ele><time>2026-08-17T00:27:58Z</time></trkpt>
			<trkpt lat="56.291139" lon="39.387782"><ele>158.6</ele><time>2026-08-17T00:28:02Z</time></trkpt>
			<trkpt lat="56.290156" lon="39.385129"><ele>158.7</ele><time>2026-08-17T00:28:30Z</time></trkpt>
			<trkpt lat="56.289870" lon="39.384186"><ele>158.6</ele><time>2026-08-17T00:28:38Z</time></trkpt>
			<trkpt lat="56.289740" lon="39.383534"><ele>159.3</ele><time>2026-08-17T00:28:43Z</time></trkpt>
			<trkpt lat="56.289453" lon="39.382425"><ele>159.0</ele><time>2026-08-17T00:28:53Z</time></trkpt>
			<trkpt lat="56.289346" lon="39.381846"><ele>158.7</ele><time>2026-08-17T00:29:00Z</time></trkpt>
			<trkpt lat="56.289266" lon="39.380598"><ele>159.4</ele><time>2026-08-17T00:29:14Z</time></trkpt>
			<trkpt lat="56.288794" lon="39.378269"><ele>160.8</ele><time>2026-08-17T00:29:37Z</time></trkpt>
			<trkpt lat="56.288493" lon="39.376559"><ele>162.7</ele><time>2026-08-17T00:29:52Z</time></trkpt>
			<trkpt lat="56.287969" lon="39.373233"><ele>162.5</ele><time>2026-08-17T00:30:29Z</time></trkpt>
			<trkpt lat="56.293099" lon="39.370232"><ele>190.3</ele><time>2026-08-17T00:33:33Z</time></trkpt>
			<trkpt lat="56.293026" lon="39.369713"><ele>190.6</ele><time>2026-08-17T00:33:39Z</time></trkpt>
			<trkpt lat="56.291904" lon="39.364690"><ele>190.1</ele><time>2026-08-17T00:34:24Z</time></trkpt>
			<trkpt lat="56.291753" lon="39.359856"><ele>189.9</ele><time>2026-08-17T00:35:06Z</time></trkpt>
			<trkpt lat="56.291672" lon="39.358274"><ele>188.1</ele><time>2026-08-17T00:35:18Z</time></trkpt>
			<trkpt lat="56.292546" lon="39.350007"><ele>193.9</ele><time>2026-08-17T00:36:43Z</time></trkpt>
			<trkpt lat="56.293291" lon="39.341692"><ele>195.2</ele><time>2026-08-17T00:38:08Z</time></trkpt>
			<trkpt lat="56.293305" lon="39.341161"><ele>195.6</ele><time>2026-08-17T00:38:13Z</time></trkpt>
			<trkpt lat="56.293216" lon="39.339416"><ele>196.2</ele><time>2026-08-17T00:38:29Z</time></trkpt>
			<trkpt lat="56.290509" lon="39.325419"><ele>209.5</ele><time>2026-08-17T00:40:54Z</time></trkpt>
			<trkpt lat="56.277979" lon="39.262707"><ele>218.3</ele><time>2026-08-17T00:50:42Z</time></trkpt>
			<trkpt lat="56.272601" lon="39.236020"><ele>214.2</ele><time>2026-08-17T00:54:15Z</time></trkpt>
			<trkpt lat="56.266929" lon="39.207589"><ele>177.5</ele><time>2026-08-17T00:57:22Z</time></trkpt>
			<trkpt lat="56.266116" lon="39.203620"><ele>169.2</ele><time>2026-08-17T00:57:46Z</time></trkpt>
			<trkpt lat="56.265084" lon="39.199012"><ele>157.8</ele><time>2026-08-17T00:58:13Z</time></trkpt>
			<trkpt lat="56.264721" lon="39.197254"><ele>158.4</ele><time>2026-08-17T00:58:29Z</time></trkpt>
			<trkpt lat="56.264365" lon="39.195088"><ele>160.6</ele><time>2026-08-17T00:58:55Z</time></trkpt>
			<trkpt lat="56.264132" lon="39.193178"><ele>163.4</ele><time>2026-08-17T00:59:16Z</time></trkpt>
			<trkpt lat="56.262177" lon="39.173717"><ele>173.6</ele><time>2026-08-17T01:02:40Z</time></trkpt>
			<trkpt lat="56.255741" lon="39.133015"><ele>208.2</ele><time>2026-08-17T01:10:37Z</time></trkpt>
			<trkpt lat="56.255399" lon="39.130623"><ele>204.3</ele><time>2026-08-17T01:11:01Z</time></trkpt>
			<trkpt lat="56.254278" lon="39.110081"><ele>210.2</ele><time>2026-08-17T01:13:53Z</time></trkpt>
			<trkpt lat="56.253871" lon="39.100689"><ele>209.1</ele><time>2026-08-17T01:15:08Z</time></trkpt>
			<trkpt lat="56.253807" lon="39.100259"><ele>207.8</ele><time>2026-08-17T01:15:10Z</time></trkpt>
			<trkpt lat="56.253694" lon="39.100012"><ele>207.0</ele><time>2026-08-17T01:15:12Z</time></trkpt>
			<trkpt lat="56.253488" lon="39.099956"><ele>206.4</ele><time>2026-08-17T01:15:14Z</time></trkpt>
			<trkpt lat="56.250746" lon="39.102262"><ele>198.5</ele><time>2026-08-17T01:15:46Z</time></trkpt>
			<trkpt lat="56.247129" lon="39.104195"><ele>189.1</ele><time>2026-08-17T01:16:28Z</time></trkpt>
			<trkpt lat="56.245967" lon="39.104776"><ele>189.4</ele><time>2026-08-17T01:16:49Z</time></trkpt>
			<trkpt lat="56.245812" lon="39.104761"><ele>189.7</ele><time>2026-08-17T01:16:52Z</time></trkpt>
			<trkpt lat="56.245708" lon="39.104561"><ele>189.8</ele><time>2026-08-17T01:16:54Z</time></trkpt>
			<trkpt lat="56.244332" lon="39.098345"><ele>185.1</ele><time>2026-08-17T01:17:43Z</time></trkpt>
			<trkpt lat="56.239886" lon="39.078795"><ele>192.9</ele><time>2026-08-17T01:20:58Z</time></trkpt>
			<trkpt lat="56.233490" lon="39.050345"><ele>177.6</ele><time>2026-08-17T01:24:34Z</time></trkpt>
			<trkpt lat="56.230131" lon="39.035942"><ele>182.4</ele><time>2026-08-17T01:27:15Z</time></trkpt>
			<trkpt lat="56.222760" lon="39.002040"><ele>191.6</ele><time>2026-08-17T01:32:54Z</time></trkpt>
			<trkpt lat="56.222420" lon="38.999558"><ele>190.6</ele><time>2026-08-17T01:33:15Z</time></trkpt>
			<trkpt lat="56.222166" lon="38.993048"><ele>188.2</ele><time>2026-08-17T01:34:00Z</time></trkpt>
			<trkpt lat="56.221582" lon="38.984943"><ele>183.1</ele><time>2026-08-17T01:35:00Z</time></trkpt>
			<trkpt lat="56.221562" lon="38.984735"><ele>183.2</ele><time>2026-08-17T01:35:02Z</time></trkpt>
			<trkpt lat="56.221428" lon="38.984151"><ele>183.2</ele><time>2026-08-17T01:35:08Z</time></trkpt>
			<trkpt lat="56.221160" lon="38.983455"><ele>182.8</ele><time>2026-08-17T01:35:17Z</time></trkpt>
			<trkpt lat="56.220821" lon="38.982799"><ele>182.4</ele><time>2026-08-17T01:35:27Z</time></trkpt>
			<trkpt lat="56.219174" lon="38.979830"><ele>183.7</ele><time>2026-08-17T01:36:01Z</time></trkpt>
			<trkpt lat="56.218437" lon="38.978607"><ele>182.9</ele><time>2026-08-17T01:36:14Z</time></trkpt>
			<trkpt lat="56.214910" lon="38.973325"><ele>178.7</ele><time>2026-08-17T01:37:15Z</time></trkpt>
			<trkpt lat="56.214157" lon="38.971984"><ele>179.9</ele><time>2026-08-17T01:37:29Z</time></trkpt>
			<trkpt lat="56.211259" lon="38.966294"><ele>183.2</ele><time>2026-08-17T01:38:24Z</time></trkpt>
			<trkpt lat="56.207375" lon="38.958384"><ele>175.3</ele><time>2026-08-17T01:39:37Z</time></trkpt>
			<trkpt lat="56.196005" lon="38.936394"><ele>165.1</ele><time>2026-08-17T01:43:22Z</time></trkpt>
			<trkpt lat="56.192502" lon="38.929330"><ele>164.2</ele><time>2026-08-17T01:44:27Z</time></trkpt>
			<trkpt lat="56.190173" lon="38.924417"><ele>163.1</ele><time>2026-08-17T01:45:13Z</time></trkpt>
			<trkpt lat="56.185930" lon="38.919357"><ele>163.1</ele><time>2026-08-17T01:46:26Z</time></trkpt>
			<trkpt lat="56.181580" lon="38.910402"><ele>160.9</ele><time>2026-08-17T01:48:07Z</time></trkpt>
			<trkpt lat="56.178811" lon="38.904819"><ele>161.5</ele><time>2026-08-17T01:49:00Z</time></trkpt>
			<trkpt lat="56.174296" lon="38.900116"><ele>160.1</ele><time>2026-08-17T01:50:14Z</time></trkpt>
			<trkpt lat="56.171360" lon="38.897243"><ele>159.5</ele><time>2026-08-17T01:51:09Z</time></trkpt>
			<trkpt lat="56.170730" lon="38.896560"><ele>157.5</ele><time>2026-08-17T01:51:19Z</time></trkpt>
			<trkpt lat="56.170318" lon="38.896010"><ele>155.3</ele><time>2026-08-17T01:51:26Z</time></trkpt>
			<trkpt lat="56.170003" lon="38.895437"><ele>154.6</ele><time>2026-08-17T01:51:31Z</time></trkpt>
			<trkpt lat="56.168181" lon="38.890855"><ele>151.4</ele><time>2026-08-17T01:52:14Z</time></trkpt>
			<trkpt lat="56.167007" lon="38.888103"><ele>151.8</ele><time>2026-08-17T01:52:42Z</time></trkpt>
			<trkpt lat="56.166272" lon="38.886463"><ele>153.8</ele><time>2026-08-17T01:53:05Z</time></trkpt>
			<trkpt lat="56.166120" lon="38.886691"><ele>154.0</ele><time>2026-08-17T01:53:09Z</time></trkpt>
			<trkpt lat="56.166272" lon="38.886463"><ele>153.7</ele><time>2026-08-17T01:53:13Z</time></trkpt>
			<trkpt lat="56.162953" lon="38.879253"><ele>153.2</ele><time>2026-08-17T01:54:25Z</time></trkpt>
			<trkpt lat="56.163985" lon="38.877792"><ele>150.4</ele><time>2026-08-17T01:54:44Z</time></trkpt>
			<trkpt lat="56.160412" lon="38.869631"><ele>147.0</ele><time>2026-08-17T01:56:07Z</time></trkpt>
			<trkpt lat="56.159139" lon="38.866863"><ele>140.3</ele><time>2026-08-17T01:56:29Z</time></trkpt>
			<trkpt lat="56.158152" lon="38.865401"><ele>137.9</ele><time>2026-08-17T01:56:44Z</time></trkpt>
			<trkpt lat="56.157182" lon="38.864107"><ele>137.6</ele><time>2026-08-17T01:56:57Z</time></trkpt>
			<trkpt lat="56.156487" lon="38.863102"><ele>137.2</ele><time>2026-08-17T01:57:09Z</time></trkpt>
			<trkpt lat="56.156250" lon="38.862680"><ele>136.6</ele><time>2026-08-17T01:57:15Z</time></trkpt>
			<trkpt lat="56.156012" lon="38.862123"><ele>136.1</ele><time>2026-08-17T01:57:23Z</time></trkpt>
			<trkpt lat="56.155135" lon="38.859635"><ele>141.6</ele><time>2026-08-17T01:58:11Z</time></trkpt>
			<trkpt lat="56.154338" lon="38.856970"><ele>148.3</ele><time>2026-08-17T01:59:04Z</time></trkpt>
			<trkpt lat="56.154263" lon="38.857039"><ele>148.3</ele><time>2026-08-17T01:59:06Z</time></trkpt>
			<trkpt lat="56.154278" lon="38.857091"><ele>148.4</ele><time>2026-08-17T01:59:08Z</time></trkpt>
			<trkpt lat="56.154337" lon="38.857115"><ele>148.3</ele><time>2026-08-17T01:59:13Z</time></trkpt>
			<trkpt lat="56.154368" lon="38.857219"><ele>148.3</ele><time>2026-08-17T01:59:17Z</time></trkpt>
			<trkpt lat="56.154337" lon="38.857115"><ele>148.3</ele><time>2026-08-17T01:59:22Z</time></trkpt>
			<trkpt lat="56.154278" lon="38.857091"><ele>148.3</ele><time>2026-08-17T01:59:26Z</time></trkpt>
			<trkpt lat="56.154263" lon="38.857039"><ele>148.3</ele><time>2026-08-17T01:59:28Z</time></trkpt>
			<trkpt lat="56.154338" lon="38.856970"><ele>148.4</ele><time>2026-08-17T01:59:30Z</time></trkpt>
			<trkpt lat="56.152728" lon="38.851466"><ele>150.2</ele><time>2026-08-17T02:00:24Z</time></trkpt>
			<trkpt lat="56.152506" lon="38.850796"><ele>151.0</ele><time>2026-08-17T02:00:31Z</time></trkpt>
			<trkpt lat="56.151357" lon="38.848362"><ele>151.9</ele><time>2026-08-17T02:01:00Z</time></trkpt>
			<trkpt lat="56.151261" lon="38.848259"><ele>152.0</ele><time>2026-08-17T02:01:02Z</time></trkpt>
			<trkpt lat="56.151121" lon="38.848185"><ele>151.9</ele><time>2026-08-17T02:01:04Z</time></trkpt>
			<trkpt lat="56.149337" lon="38.848510"><ele>151.0</ele><time>2026-08-17T02:01:31Z</time></trkpt>
			<trkpt lat="56.148609" lon="38.849361"><ele>151.0</ele><time>2026-08-17T02:01:43Z</time></trkpt>
			<trkpt lat="56.147951" lon="38.850274"><ele>150.5</ele><time>2026-08-17T02:01:53Z</time></trkpt>
			<trkpt lat="56.147700" lon="38.850535"><ele>149.9</ele><time>2026-08-17T02:01:57Z</time></trkpt>
			<trkpt lat="56.147330" lon="38.850826"><ele>149.0</ele><time>2026-08-17T02:02:01Z</time></trkpt>
			<trkpt lat="56.146749" lon="38.851117"><ele>148.4</ele><time>2026-08-17T02:02:08Z</time></trkpt>
			<trkpt lat="56.146319" lon="38.851133"><ele>147.6</ele><time>2026-08-17T02:02:12Z</time></trkpt>
			<trkpt lat="56.145984" lon="38.850953"><ele>147.2</ele><time>2026-08-17T02:02:16Z</time></trkpt>
			<trkpt lat="56.145723" lon="38.850743"><ele>146.8</ele><time>2026-08-17T02:02:20Z</time></trkpt>
			<trkpt lat="56.145373" lon="38.850371"><ele>146.8</ele><time>2026-08-17T02:02:25Z</time></trkpt>
			<trkpt lat="56.145109" lon="38.850015"><ele>147.8</ele><time>2026-08-17T02:02:31Z</time></trkpt>
			<trkpt lat="56.144740" lon="38.849286"><ele>149.7</ele><time>2026-08-17T02:02:44Z</time></trkpt>
			<trkpt lat="56.144567" lon="38.848731"><ele>150.8</ele><time>2026-08-17T02:02:52Z</time></trkpt>
			<trkpt lat="56.144441" lon="38.848070"><ele>151.5</ele><time>2026-08-17T02:03:00Z</time></trkpt>
			<trkpt lat="56.144367" lon="38.847072"><ele>151.4</ele><time>2026-08-17T02:03:12Z</time></trkpt>
			<trkpt lat="56.144446" lon="38.844110"><ele>152.0</ele><time>2026-08-17T02:03:40Z</time></trkpt>
			<trkpt lat="56.144527" lon="38.842732"><ele>152.4</ele><time>2026-08-17T02:03:50Z</time></trkpt>
			<trkpt lat="56.144804" lon="38.839508"><ele>152.0</ele><time>2026-08-17T02:04:16Z</time></trkpt>
			<trkpt lat="56.145052" lon="38.836047"><ele>157.0</ele><time>2026-08-17T02:05:00Z</time></trkpt>
			<trkpt lat="56.145064" lon="38.834158"><ele>157.7</ele><time>2026-08-17T02:05:16Z</time></trkpt>
			<trkpt lat="56.144970" lon="38.833032"><ele>156.3</ele><time>2026-08-17T02:05:26Z</time></trkpt>
			<trkpt lat="56.144787" lon="38.831829"><ele>154.0</ele><time>2026-08-17T02:05:37Z</time></trkpt>
			<trkpt lat="56.144444" lon="38.830208"><ele>152.7</ele><time>2026-08-17T02:05:50Z</time></trkpt>
			<trkpt lat="56.144162" lon="38.829086"><ele>152.1</ele><time>2026-08-17T02:05:58Z</time></trkpt>
			<trkpt lat="56.140930" lon="38.816554"><ele>158.3</ele><time>2026-08-17T02:07:49Z</time></trkpt>
			<trkpt lat="56.138719" lon="38.808139"><ele>162.6</ele><time>2026-08-17T02:09:22Z</time></trkpt>
			<trkpt lat="56.136811" lon="38.798628"><ele>160.8</ele><time>2026-08-17T02:10:53Z</time></trkpt>
			<trkpt lat="56.135607" lon="38.792395"><ele>161.5</ele><time>2026-08-17T02:12:04Z</time></trkpt>
			<trkpt lat="56.135022" lon="38.789749"><ele>169.3</ele><time>2026-08-17T02:12:50Z</time></trkpt>
			<trkpt lat="56.134880" lon="38.789366"><ele>170.2</ele><time>2026-08-17T02:12:56Z</time></trkpt>
			<trkpt lat="56.134614" lon="38.788819"><ele>170.9</ele><time>2026-08-17T02:13:05Z</time></trkpt>
			<trkpt lat="56.134300" lon="38.788324"><ele>171.0</ele><time>2026-08-17T02:13:12Z</time></trkpt>
			<trkpt lat="56.134064" lon="38.788028"><ele>171.2</ele><time>2026-08-17T02:13:17Z</time></trkpt>
			<trkpt lat="56.133160" lon="38.787247"><ele>170.5</ele><time>2026-08-17T02:13:29Z</time></trkpt>
			<trkpt lat="56.131078" lon="38.785633"><ele>168.1</ele><time>2026-08-17T02:14:03Z</time></trkpt>
			<trkpt lat="56.130839" lon="38.785336"><ele>168.5</ele><time>2026-08-17T02:14:08Z</time></trkpt>
			<trkpt lat="56.130521" lon="38.784766"><ele>168.7</ele><time>2026-08-17T02:14:15Z</time></trkpt>
			<trkpt lat="56.130266" lon="38.784174"><ele>169.0</ele><time>2026-08-17T02:14:22Z</time></trkpt>
			<trkpt lat="56.118198" lon="38.753316"><ele>155.9</ele><time>2026-08-17T02:19:01Z</time></trkpt>
			<trkpt lat="56.117838" lon="38.752535"><ele>156.8</ele><time>2026-08-17T02:19:10Z</time></trkpt>
			<trkpt lat="56.116737" lon="38.750700"><ele>159.8</ele><time>2026-08-17T02:19:31Z</time></trkpt>
			<trkpt lat="56.114693" lon="38.747433"><ele>162.0</ele><time>2026-08-17T02:20:11Z</time></trkpt>
			<trkpt lat="56.114351" lon="38.746741"><ele>160.2</ele><time>2026-08-17T02:20:18Z</time></trkpt>
			<trkpt lat="56.114035" lon="38.745914"><ele>160.2</ele><time>2026-08-17T02:20:25Z</time></trkpt>
			<trkpt lat="56.113735" lon="38.744902"><ele>160.4</ele><time>2026-08-17T02:20:33Z</time></trkpt>
			<trkpt lat="56.113548" lon="38.744061"><ele>159.5</ele><time>2026-08-17T02:20:40Z</time></trkpt>
			<trkpt lat="56.113394" lon="38.743091"><ele>159.7</ele><time>2026-08-17T02:20:48Z</time></trkpt>
			<trkpt lat="56.112292" lon="38.734564"><ele>162.3</ele><time>2026-08-17T02:22:05Z</time></trkpt>
			<trkpt lat="56.110551" lon="38.721815"><ele>156.9</ele><time>2026-08-17T02:23:44Z</time></trkpt>
			<trkpt lat="56.110462" lon="38.720387"><ele>157.0</ele><time>2026-08-17T02:23:56Z</time></trkpt>
			<trkpt lat="56.110425" lon="38.717939"><ele>155.9</ele><time>2026-08-17T02:24:16Z</time></trkpt>
			<trkpt lat="56.110398" lon="38.709039"><ele>152.6</ele><time>2026-08-17T02:25:27Z</time></trkpt>
			<trkpt lat="56.110345" lon="38.703772"><ele>158.5</ele><time>2026-08-17T02:26:20Z</time></trkpt>
			<trkpt lat="56.110176" lon="38.699620"><ele>161.7</ele><time>2026-08-17T02:27:06Z</time></trkpt>
			<trkpt lat="56.110013" lon="38.698679"><ele>161.4</ele><time>2026-08-17T02:27:15Z</time></trkpt>
			<trkpt lat="56.109442" lon="38.696699"><ele>162.0</ele><time>2026-08-17T02:27:34Z</time></trkpt>
			<trkpt lat="56.109117" lon="38.695716"><ele>154.8</ele><time>2026-08-17T02:27:42Z</time></trkpt>
			<trkpt lat="56.108749" lon="38.694725"><ele>152.2</ele><time>2026-08-17T02:27:51Z</time></trkpt>
			<trkpt lat="56.108577" lon="38.694344"><ele>152.0</ele><time>2026-08-17T02:27:54Z</time></trkpt>
			<trkpt lat="56.107264" lon="38.692265"><ele>152.3</ele><time>2026-08-17T02:28:19Z</time></trkpt>
			<trkpt lat="56.106207" lon="38.690846"><ele>151.5</ele><time>2026-08-17T02:28:38Z</time></trkpt>
			<trkpt lat="56.105644" lon="38.690149"><ele>151.7</ele><time>2026-08-17T02:28:47Z</time></trkpt>
			<trkpt lat="56.105029" lon="38.689505"><ele>151.1</ele><time>2026-08-17T02:28:58Z</time></trkpt>
			<trkpt lat="56.103901" lon="38.688182"><ele>152.6</ele><time>2026-08-17T02:29:21Z</time></trkpt>
			<trkpt lat="56.100784" lon="38.684168"><ele>154.8</ele><time>2026-08-17T02:30:14Z</time></trkpt>
			<trkpt lat="56.100488" lon="38.683826"><ele>154.5</ele><time>2026-08-17T02:30:19Z</time></trkpt>
			<trkpt lat="56.097407" lon="38.681087"><ele>151.9</ele><time>2026-08-17T02:31:03Z</time></trkpt>
			<trkpt lat="56.096903" lon="38.680525"><ele>152.8</ele><time>2026-08-17T02:31:13Z</time></trkpt>
			<trkpt lat="56.096155" lon="38.679375"><ele>153.3</ele><time>2026-08-17T02:31:29Z</time></trkpt>
			<trkpt lat="56.094345" lon="38.675825"><ele>155.4</ele><time>2026-08-17T02:32:15Z</time></trkpt>
			<trkpt lat="56.093769" lon="38.674623"><ele>155.5</ele><time>2026-08-17T02:32:29Z</time></trkpt>
			<trkpt lat="56.097067" lon="38.670603"><ele>155.8</ele><time>2026-08-17T02:33:22Z</time></trkpt>
			<trkpt lat="56.097886" lon="38.669554"><ele>154.0</ele><time>2026-08-17T02:33:34Z</time></trkpt>
			<trkpt lat="56.098097" lon="38.669225"><ele>151.9</ele><time>2026-08-17T02:33:37Z</time></trkpt>
			<trkpt lat="56.098342" lon="38.668643"><ele>147.8</ele><time>2026-08-17T02:33:41Z</time></trkpt>
			<trkpt lat="56.098529" lon="38.667985"><ele>144.0</ele><time>2026-08-17T02:33:45Z</time></trkpt>
			<trkpt lat="56.098596" lon="38.667632"><ele>142.5</ele><time>2026-08-17T02:33:47Z</time></trkpt>
			<trkpt lat="56.099128" lon="38.663845"><ele>136.0</ele><time>2026-08-17T02:34:10Z</time></trkpt>
			<trkpt lat="56.099442" lon="38.662229"><ele>134.4</ele><time>2026-08-17T02:34:21Z</time></trkpt>
			<trkpt lat="56.099747" lon="38.661001"><ele>133.5</ele><time>2026-08-17T02:34:30Z</time></trkpt>
			<trkpt lat="56.102956" lon="38.649400"><ele>131.1</ele><time>2026-08-17T02:35:59Z</time></trkpt>
			<trkpt lat="56.103243" lon="38.648080"><ele>129.1</ele><time>2026-08-17T02:36:09Z</time></trkpt>
			<trkpt lat="56.103352" lon="38.647127"><ele>129.5</ele><time>2026-08-17T02:36:17Z</time></trkpt>
			<trkpt lat="56.103423" lon="38.645626"><ele>130.5</ele><time>2026-08-17T02:36:33Z</time></trkpt>
			<trkpt lat="56.103606" lon="38.640333"><ele>130.6</ele><time>2026-08-17T02:37:28Z</time></trkpt>
			<trkpt lat="56.103687" lon="38.639597"><ele>130.5</ele><time>2026-08-17T02:37:35Z</time></trkpt>
			<trkpt lat="56.103892" lon="38.638401"><ele>130.0</ele><time>2026-08-17T02:37:45Z</time></trkpt>
			<trkpt lat="56.104338" lon="38.636568"><ele>129.7</ele><time>2026-08-17T02:38:00Z</time></trkpt>
			<trkpt lat="56.109264" lon="38.619991"><ele>147.1</ele><time>2026-08-17T02:41:43Z</time></trkpt>
			<trkpt lat="56.109523" lon="38.619394"><ele>147.4</ele><time>2026-08-17T02:41:49Z</time></trkpt>
			<trkpt lat="56.110040" lon="38.618587"><ele>148.4</ele><time>2026-08-17T02:42:01Z</time></trkpt>
			<trkpt lat="56.112127" lon="38.616054"><ele>150.4</ele><time>2026-08-17T02:42:50Z</time></trkpt>
			<trkpt lat="56.112196" lon="38.615091"><ele>152.1</ele><time>2026-08-17T02:43:00Z</time></trkpt>
			<trkpt lat="56.111992" lon="38.613476"><ele>150.9</ele><time>2026-08-17T02:43:15Z</time></trkpt>
			<trkpt lat="56.111546" lon="38.610447"><ele>151.8</ele><time>2026-08-17T02:43:41Z</time></trkpt>
			<trkpt lat="56.109817" lon="38.597879"><ele>161.5</ele><time>2026-08-17T02:45:35Z</time></trkpt>
			<trkpt lat="56.109486" lon="38.596365"><ele>155.9</ele><time>2026-08-17T02:45:46Z</time></trkpt>
			<trkpt lat="56.109096" lon="38.595005"><ele>152.9</ele><time>2026-08-17T02:45:55Z</time></trkpt>
			<trkpt lat="56.108504" lon="38.593318"><ele>151.1</ele><time>2026-08-17T02:46:11Z</time></trkpt>
			<trkpt lat="56.108051" lon="38.592309"><ele>154.0</ele><time>2026-08-17T02:46:24Z</time></trkpt>
			<trkpt lat="56.107312" lon="38.590982"><ele>154.8</ele><time>2026-08-17T02:46:37Z</time></trkpt>
			<trkpt lat="56.106155" lon="38.589278"><ele>157.4</ele><time>2026-08-17T02:46:54Z</time></trkpt>
			<trkpt lat="56.104095" lon="38.587010"><ele>156.0</ele><time>2026-08-17T02:47:29Z</time></trkpt>
			<trkpt lat="56.103308" lon="38.586292"><ele>155.8</ele><time>2026-08-17T02:47:44Z</time></trkpt>
			<trkpt lat="56.101967" lon="38.585160"><ele>155.4</ele><time>2026-08-17T02:48:19Z</time></trkpt>
			<trkpt lat="56.101404" lon="38.584883"><ele>155.7</ele><time>2026-08-17T02:48:32Z</time></trkpt>
			<trkpt lat="56.100844" lon="38.584511"><ele>157.5</ele><time>2026-08-17T02:48:43Z</time></trkpt>
			<trkpt lat="56.092710" lon="38.580613"><ele>156.2</ele><time>2026-08-17T02:50:45Z</time></trkpt>
			<trkpt lat="56.089198" lon="38.579151"><ele>154.3</ele><time>2026-08-17T02:51:30Z</time></trkpt>
			<trkpt lat="56.087531" lon="38.578511"><ele>153.1</ele><time>2026-08-17T02:51:58Z</time></trkpt>
			<trkpt lat="56.083487" lon="38.576839"><ele>149.8</ele><time>2026-08-17T02:52:53Z</time></trkpt>
			<trkpt lat="56.082258" lon="38.576203"><ele>152.8</ele><time>2026-08-17T02:53:20Z</time></trkpt>
			<trkpt lat="56.081166" lon="38.575461"><ele>154.0</ele><time>2026-08-17T02:53:43Z</time></trkpt>
			<trkpt lat="56.080250" lon="38.574744"><ele>155.1</ele><time>2026-08-17T02:54:01Z</time></trkpt>
			<trkpt lat="56.079248" lon="38.573839"><ele>157.4</ele><time>2026-08-17T02:54:19Z</time></trkpt>
			<trkpt lat="56.078221" lon="38.572772"><ele>156.8</ele><time>2026-08-17T02:54:35Z</time></trkpt>
			<trkpt lat="56.074454" lon="38.568451"><ele>153.0</ele><time>2026-08-17T02:55:36Z</time></trkpt>
			<trkpt lat="56.072060" lon="38.565525"><ele>153.3</ele><time>2026-08-17T02:56:14Z</time></trkpt>
			<trkpt lat="56.070600" lon="38.563514"><ele>149.4</ele><time>2026-08-17T02:56:36Z</time></trkpt>
			<trkpt lat="56.069172" lon="38.561391"><ele>140.7</ele><time>2026-08-17T02:56:55Z</time></trkpt>
			<trkpt lat="56.068249" lon="38.560109"><ele>138.9</ele><time>2026-08-17T02:57:08Z</time></trkpt>
			<trkpt lat="56.067490" lon="38.559286"><ele>137.2</ele><time>2026-08-17T02:57:19Z</time></trkpt>
			<trkpt lat="56.065639" lon="38.557335"><ele>133.6</ele><time>2026-08-17T02:57:43Z</time></trkpt>
			<trkpt lat="56.064665" lon="38.556619"><ele>132.9</ele><time>2026-08-17T02:57:55Z</time></trkpt>
			<trkpt lat="56.063232" lon="38.555713"><ele>130.6</ele><time>2026-08-17T02:58:15Z</time></trkpt>
			<trkpt lat="56.062649" lon="38.555259"><ele>128.7</ele><time>2026-08-17T02:58:23Z</time></trkpt>
			<trkpt lat="56.056966" lon="38.549792"><ele>136.2</ele><time>2026-08-17T03:00:18Z</time></trkpt>
			<trkpt lat="56.056527" lon="38.549524"><ele>136.6</ele><time>2026-08-17T03:00:27Z</time></trkpt>
			<trkpt lat="56.055721" lon="38.549192"><ele>137.0</ele><time>2026-08-17T03:00:41Z</time></trkpt>
			<trkpt lat="56.055280" lon="38.549040"><ele>137.0</ele><time>2026-08-17T03:00:47Z</time></trkpt>
			<trkpt lat="56.055122" lon="38.549023"><ele>137.1</ele><time>2026-08-17T03:00:50Z</time></trkpt>
			<trkpt lat="56.054830" lon="38.549098"><ele>136.9</ele><time>2026-08-17T03:00:53Z</time></trkpt>
			<trkpt lat="56.053624" lon="38.549872"><ele>134.1</ele><time>2026-08-17T03:01:11Z</time></trkpt>
			<trkpt lat="56.052032" lon="38.550758"><ele>136.1</ele><time>2026-08-17T03:01:40Z</time></trkpt>
			<trkpt lat="56.051913" lon="38.550784"><ele>136.2</ele><time>2026-08-17T03:01:42Z</time></trkpt>
			<trkpt lat="56.050201" lon="38.541277"><ele>140.0</ele><time>2026-08-17T03:03:15Z</time></trkpt>
			<trkpt lat="56.049985" lon="38.539860"><ele>141.8</ele><time>2026-08-17T03:03:29Z</time></trkpt>
			<trkpt lat="56.049869" lon="38.538754"><ele>140.1</ele><time>2026-08-17T03:03:39Z</time></trkpt>
			<trkpt lat="56.049584" lon="38.534523"><ele>138.5</ele><time>2026-08-17T03:04:16Z</time></trkpt>
			<trkpt lat="56.048590" lon="38.522170"><ele>145.6</ele><time>2026-08-17T03:06:17Z</time></trkpt>
			<trkpt lat="56.048396" lon="38.520385"><ele>144.9</ele><time>2026-08-17T03:06:36Z</time></trkpt>
			<trkpt lat="56.047725" lon="38.511369"><ele>146.2</ele><time>2026-08-17T03:07:54Z</time></trkpt>
			<trkpt lat="56.046639" lon="38.498022"><ele>144.3</ele><time>2026-08-17T03:09:38Z</time></trkpt>
			<trkpt lat="56.046483" lon="38.496887"><ele>144.1</ele><time>2026-08-17T03:09:47Z</time></trkpt>
			<trkpt lat="56.044927" lon="38.489914"><ele>143.9</ele><time>2026-08-17T03:10:51Z</time></trkpt>
			<trkpt lat="56.043427" lon="38.482938"><ele>144.0</ele><time>2026-08-17T03:11:48Z</time></trkpt>
			<trkpt lat="56.043189" lon="38.481716"><ele>143.4</ele><time>2026-08-17T03:12:02Z</time></trkpt>
			<trkpt lat="56.043055" lon="38.480854"><ele>144.3</ele><time>2026-08-17T03:12:13Z</time></trkpt>
			<trkpt lat="56.042950" lon="38.479851"><ele>144.8</ele><time>2026-08-17T03:12:24Z</time></trkpt>
			<trkpt lat="56.042828" lon="38.477815"><ele>143.2</ele><time>2026-08-17T03:12:40Z</time></trkpt>
			<trkpt lat="56.042747" lon="38.475783"><ele>142.1</ele><time>2026-08-17T03:12:53Z</time></trkpt>
			<trkpt lat="56.042786" lon="38.474104"><ele>141.2</ele><time>2026-08-17T03:13:04Z</time></trkpt>
			<trkpt lat="56.042847" lon="38.472679"><ele>138.8</ele><time>2026-08-17T03:13:13Z</time></trkpt>
			<trkpt lat="56.042984" lon="38.471249"><ele>136.7</ele><time>2026-08-17T03:13:22Z</time></trkpt>
			<trkpt lat="56.043311" lon="38.468292"><ele>140.8</ele><time>2026-08-17T03:13:51Z</time></trkpt>
			<trkpt lat="56.043380" lon="38.467872"><ele>140.5</ele><time>2026-08-17T03:13:55Z</time></trkpt>
			<trkpt lat="56.043473" lon="38.467585"><ele>140.3</ele><time>2026-08-17T03:13:58Z</time></trkpt>
			<trkpt lat="56.044094" lon="38.466902"><ele>141.6</ele><time>2026-08-17T03:14:11Z</time></trkpt>
			<trkpt lat="56.045550" lon="38.465420"><ele>140.7</ele><time>2026-08-17T03:14:39Z</time></trkpt>
			<trkpt lat="56.046119" lon="38.464732"><ele>140.0</ele><time>2026-08-17T03:14:48Z</time></trkpt>
			<trkpt lat="56.046517" lon="38.464157"><ele>140.0</ele><time>2026-08-17T03:14:55Z</time></trkpt>
			<trkpt lat="56.047052" lon="38.463246"><ele>139.5</ele><time>2026-08-17T03:15:06Z</time></trkpt>
			<trkpt lat="56.048245" lon="38.460943"><ele>140.8</ele><time>2026-08-17T03:15:35Z</time></trkpt>
			<trkpt lat="56.053277" lon="38.451019"><ele>145.8</ele><time>2026-08-17T03:17:38Z</time></trkpt>
			<trkpt lat="56.054056" lon="38.449101"><ele>147.8</ele><time>2026-08-17T03:18:00Z</time></trkpt>
			<trkpt lat="56.054468" lon="38.447898"><ele>149.2</ele><time>2026-08-17T03:18:11Z</time></trkpt>
			<trkpt lat="56.054970" lon="38.446128"><ele>150.0</ele><time>2026-08-17T03:18:30Z</time></trkpt>
			<trkpt lat="56.055151" lon="38.445324"><ele>148.0</ele><time>2026-08-17T03:18:38Z</time></trkpt>
			<trkpt lat="56.055232" lon="38.444795"><ele>147.0</ele><time>2026-08-17T03:18:43Z</time></trkpt>
			<trkpt lat="56.055254" lon="38.443952"><ele>146.0</ele><time>2026-08-17T03:18:49Z</time></trkpt>
			<trkpt lat="56.055162" lon="38.443140"><ele>144.6</ele><time>2026-08-17T03:18:55Z</time></trkpt>
			<trkpt lat="56.054949" lon="38.442305"><ele>143.0</ele><time>2026-08-17T03:19:01Z</time></trkpt>
			<trkpt lat="56.054535" lon="38.441307"><ele>143.0</ele><time>2026-08-17T03:19:09Z</time></trkpt>
			<trkpt lat="56.053517" lon="38.439109"><ele>143.9</ele><time>2026-08-17T03:19:34Z</time></trkpt>
			<trkpt lat="56.053257" lon="38.438452"><ele>144.9</ele><time>2026-08-17T03:19:42Z</time></trkpt>
			<trkpt lat="56.053019" lon="38.437705"><ele>145.9</ele><time>2026-08-17T03:19:51Z</time></trkpt>
			<trkpt lat="56.052843" lon="38.437026"><ele>145.5</ele><time>2026-08-17T03:19:59Z</time></trkpt>
			<trkpt lat="56.052609" lon="38.435797"><ele>144.3</ele><time>2026-08-17T03:20:11Z</time></trkpt>
			<trkpt lat="56.051926" lon="38.429841"><ele>147.8</ele><time>2026-08-17T03:21:10Z</time></trkpt>
			<trkpt lat="56.051739" lon="38.428921"><ele>148.8</ele><time>2026-08-17T03:21:20Z</time></trkpt>
			<trkpt lat="56.050780" lon="38.425122"><ele>150.9</ele><time>2026-08-17T03:22:04Z</time></trkpt>
			<trkpt lat="56.049341" lon="38.420409"><ele>150.3</ele><time>2026-08-17T03:22:49Z</time></trkpt>
			<trkpt lat="56.048888" lon="38.419062"><ele>149.2</ele><time>2026-08-17T03:23:00Z</time></trkpt>
			<trkpt lat="56.046564" lon="38.412875"><ele>147.4</ele><time>2026-08-17T03:23:58Z</time></trkpt>
			<trkpt lat="56.046260" lon="38.411888"><ele>147.9</ele><time>2026-08-17T03:24:08Z</time></trkpt>
			<trkpt lat="56.044648" lon="38.404310"><ele>155.9</ele><time>2026-08-17T03:25:28Z</time></trkpt>
			<trkpt lat="56.044580" lon="38.403803"><ele>158.7</ele><time>2026-08-17T03:25:36Z</time></trkpt>
			<trkpt lat="56.044522" lon="38.401181"><ele>164.3</ele><time>2026-08-17T03:26:12Z</time></trkpt>
			<trkpt lat="56.044444" lon="38.399257"><ele>167.1</ele><time>2026-08-17T03:26:37Z</time></trkpt>
			<trkpt lat="56.044283" lon="38.396515"><ele>169.4</ele><time>2026-08-17T03:27:10Z</time></trkpt>
			<trkpt lat="56.044192" lon="38.391683"><ele>171.1</ele><time>2026-08-17T03:27:57Z</time></trkpt>
			<trkpt lat="56.044126" lon="38.390932"><ele>169.4</ele><time>2026-08-17T03:28:03Z</time></trkpt>
			<trkpt lat="56.043973" lon="38.390214"><ele>169.8</ele><time>2026-08-17T03:28:09Z</time></trkpt>
			<trkpt lat="56.043844" lon="38.389893"><ele>170.1</ele><time>2026-08-17T03:28:13Z</time></trkpt>
			<trkpt lat="56.043651" lon="38.389640"><ele>170.4</ele><time>2026-08-17T03:28:16Z</time></trkpt>
			<trkpt lat="56.042992" lon="38.389013"><ele>171.2</ele><time>2026-08-17T03:28:28Z</time></trkpt>
			<trkpt lat="56.042769" lon="38.388725"><ele>171.1</ele><time>2026-08-17T03:28:33Z</time></trkpt>
			<trkpt lat="56.042557" lon="38.388364"><ele>170.4</ele><time>2026-08-17T03:28:38Z</time></trkpt>
			<trkpt lat="56.042380" lon="38.387709"><ele>170.3</ele><time>2026-08-17T03:28:44Z</time></trkpt>
			<trkpt lat="56.042039" lon="38.385402"><ele>169.9</ele><time>2026-08-17T03:29:02Z</time></trkpt>
			<trkpt lat="56.041750" lon="38.384140"><ele>168.4</ele><time>2026-08-17T03:29:12Z</time></trkpt>
			<trkpt lat="56.040274" lon="38.381019"><ele>169.8</ele><time>2026-08-17T03:29:44Z</time></trkpt>
			<trkpt lat="56.038755" lon="38.378367"><ele>167.6</ele><time>2026-08-17T03:30:11Z</time></trkpt>
			<trkpt lat="56.038084" lon="38.377329"><ele>166.4</ele><time>2026-08-17T03:30:22Z</time></trkpt>
			<trkpt lat="56.035531" lon="38.374051"><ele>164.1</ele><time>2026-08-17T03:31:01Z</time></trkpt>
			<trkpt lat="56.034782" lon="38.373261"><ele>161.4</ele><time>2026-08-17T03:31:11Z</time></trkpt>
			<trkpt lat="56.034286" lon="38.372934"><ele>162.2</ele><time>2026-08-17T03:31:18Z</time></trkpt>
			<trkpt lat="56.031354" lon="38.372307"><ele>155.3</ele><time>2026-08-17T03:32:00Z</time></trkpt>
			<trkpt lat="56.030991" lon="38.372120"><ele>154.2</ele><time>2026-08-17T03:32:05Z</time></trkpt>
			<trkpt lat="56.028847" lon="38.370570"><ele>153.6</ele><time>2026-08-17T03:32:38Z</time></trkpt>
			<trkpt lat="56.025747" lon="38.368147"><ele>156.1</ele><time>2026-08-17T03:33:33Z</time></trkpt>
			<trkpt lat="56.025436" lon="38.367866"><ele>154.8</ele><time>2026-08-17T03:33:37Z</time></trkpt>
			<trkpt lat="56.023778" lon="38.365688"><ele>152.7</ele><time>2026-08-17T03:34:05Z</time></trkpt>
			<trkpt lat="56.022078" lon="38.363576"><ele>153.0</ele><time>2026-08-17T03:34:36Z</time></trkpt>
			<trkpt lat="56.020320" lon="38.361462"><ele>152.6</ele><time>2026-08-17T03:35:09Z</time></trkpt>
			<trkpt lat="56.019970" lon="38.361091"><ele>153.0</ele><time>2026-08-17T03:35:15Z</time></trkpt>
			<trkpt lat="56.018649" lon="38.359928"><ele>152.9</ele><time>2026-08-17T03:35:35Z</time></trkpt>
			<trkpt lat="56.018150" lon="38.359532"><ele>152.8</ele><time>2026-08-17T03:35:41Z</time></trkpt>
			<trkpt lat="56.018040" lon="38.359468"><ele>152.7</ele><time>2026-08-17T03:35:42Z</time></trkpt>
			<trkpt lat="56.017937" lon="38.359462"><ele>152.5</ele><time>2026-08-17T03:35:43Z</time></trkpt>
			<trkpt lat="56.017772" lon="38.359522"><ele>152.3</ele><time>2026-08-17T03:35:45Z</time></trkpt>
			<trkpt lat="56.017603" lon="38.359708"><ele>152.1</ele><time>2026-08-17T03:35:48Z</time></trkpt>
			<trkpt lat="56.017110" lon="38.360506"><ele>152.0</ele><time>2026-08-17T03:35:57Z</time></trkpt>
			<trkpt lat="56.016387" lon="38.361971"><ele>151.7</ele><time>2026-08-17T03:36:14Z</time></trkpt>
			<trkpt lat="56.012819" lon="38.369824"><ele>151.0</ele><time>2026-08-17T03:37:38Z</time></trkpt>
			<trkpt lat="56.012589" lon="38.370101"><ele>151.3</ele><time>2026-08-17T03:37:43Z</time></trkpt>
			<trkpt lat="56.012267" lon="38.370187"><ele>152.6</ele><time>2026-08-17T03:37:49Z</time></trkpt>
			<trkpt lat="56.012030" lon="38.370100"><ele>153.0</ele><time>2026-08-17T03:37:53Z</time></trkpt>
			<trkpt lat="56.011814" lon="38.369831"><ele>152.9</ele><time>2026-08-17T03:37:58Z</time></trkpt>
			<trkpt lat="56.010879" lon="38.367950"><ele>151.0</ele><time>2026-08-17T03:38:15Z</time></trkpt>
			<trkpt lat="56.010730" lon="38.367708"><ele>150.2</ele><time>2026-08-17T03:38:17Z</time></trkpt>
			<trkpt lat="56.010545" lon="38.367444"><ele>149.3</ele><time>2026-08-17T03:38:19Z</time></trkpt>
			<trkpt lat="56.010283" lon="38.367213"><ele>148.6</ele><time>2026-08-17T03:38:23Z</time></trkpt>
			<trkpt lat="56.010078" lon="38.367116"><ele>148.2</ele><time>2026-08-17T03:38:25Z</time></trkpt>
			<trkpt lat="56.009960" lon="38.367145"><ele>147.9</ele><time>2026-08-17T03:38:27Z</time></trkpt>
			<trkpt lat="56.009806" lon="38.367265"><ele>147.6</ele><time>2026-08-17T03:38:29Z</time></trkpt>
			<trkpt lat="56.009690" lon="38.367568"><ele>147.5</ele><time>2026-08-17T03:38:32Z</time></trkpt>
			<trkpt lat="56.009413" lon="38.368637"><ele>149.1</ele><time>2026-08-17T03:38:44Z</time></trkpt>
			<trkpt lat="56.008964" lon="38.369610"><ele>150.6</ele><time>2026-08-17T03:38:57Z</time></trkpt>
			<trkpt lat="56.008003" lon="38.371312"><ele>152.0</ele><time>2026-08-17T03:39:17Z</time></trkpt>
			<trkpt lat="56.007170" lon="38.372624"><ele>149.2</ele><time>2026-08-17T03:39:31Z</time></trkpt>
			<trkpt lat="56.006845" lon="38.372765"><ele>148.2</ele><time>2026-08-17T03:39:35Z</time></trkpt>
			<trkpt lat="56.005455" lon="38.372593"><ele>148.0</ele><time>2026-08-17T03:39:54Z</time></trkpt>
			<trkpt lat="56.005101" lon="38.372430"><ele>147.5</ele><time>2026-08-17T03:39:59Z</time></trkpt>
			<trkpt lat="56.004509" lon="38.371764"><ele>148.3</ele><time>2026-08-17T03:40:09Z</time></trkpt>
			<trkpt lat="56.004009" lon="38.371140"><ele>147.9</ele><time>2026-08-17T03:40:19Z</time></trkpt>
			<trkpt lat="56.003524" lon="38.370428"><ele>148.2</ele><time>2026-08-17T03:40:30Z</time></trkpt>
			<trkpt lat="56.003302" lon="38.369830"><ele>148.7</ele><time>2026-08-17T03:40:37Z</time></trkpt>
			<trkpt lat="56.002496" lon="38.367187"><ele>150.6</ele><time>2026-08-17T03:41:07Z</time></trkpt>
			<trkpt lat="56.002315" lon="38.366757"><ele>150.1</ele><time>2026-08-17T03:41:12Z</time></trkpt>
			<trkpt lat="56.001893" lon="38.365969"><ele>150.4</ele><time>2026-08-17T03:41:21Z</time></trkpt>
			<trkpt lat="55.999344" lon="38.362404"><ele>148.9</ele><time>2026-08-17T03:42:08Z</time></trkpt>
			<trkpt lat="55.998897" lon="38.361687"><ele>149.7</ele><time>2026-08-17T03:42:19Z</time></trkpt>
			<trkpt lat="55.994760" lon="38.353787"><ele>151.7</ele><time>2026-08-17T03:43:55Z</time></trkpt>
			<trkpt lat="55.994563" lon="38.353507"><ele>152.7</ele><time>2026-08-17T03:43:59Z</time></trkpt>
			<trkpt lat="55.994360" lon="38.353350"><ele>153.9</ele><time>2026-08-17T03:44:03Z</time></trkpt>
			<trkpt lat="55.994012" lon="38.353192"><ele>155.6</ele><time>2026-08-17T03:44:08Z</time></trkpt>
			<trkpt lat="55.992529" lon="38.352912"><ele>155.0</ele><time>2026-08-17T03:44:27Z</time></trkpt>
			<trkpt lat="55.992043" lon="38.352781"><ele>153.7</ele><time>2026-08-17T03:44:34Z</time></trkpt>
			<trkpt lat="55.991297" lon="38.352461"><ele>152.0</ele><time>2026-08-17T03:44:46Z</time></trkpt>
			<trkpt lat="55.991163" lon="38.352356"><ele>151.9</ele><time>2026-08-17T03:44:48Z</time></trkpt>
			<trkpt lat="55.990877" lon="38.351981"><ele>152.0</ele><time>2026-08-17T03:44:54Z</time></trkpt>
			<trkpt lat="55.990148" lon="38.350668"><ele>151.7</ele><time>2026-08-17T03:45:11Z</time></trkpt>
			<trkpt lat="55.989624" lon="38.350157"><ele>151.5</ele><time>2026-08-17T03:45:22Z</time></trkpt>
			<trkpt lat="55.989407" lon="38.350031"><ele>151.3</ele><time>2026-08-17T03:45:27Z</time></trkpt>
			<trkpt lat="55.988625" lon="38.349866"><ele>152.7</ele><time>2026-08-17T03:45:43Z</time></trkpt>
			<trkpt lat="55.986596" lon="38.349627"><ele>155.3</ele><time>2026-08-17T03:46:12Z</time></trkpt>
			<trkpt lat="55.985999" lon="38.349653"><ele>155.8</ele><time>2026-08-17T03:46:21Z</time></trkpt>
			<trkpt lat="55.984834" lon="38.349865"><ele>157.3</ele><time>2026-08-17T03:46:37Z</time></trkpt>
			<trkpt lat="55.984633" lon="38.349834"><ele>156.7</ele><time>2026-08-17T03:46:40Z</time></trkpt>
			<trkpt lat="55.984518" lon="38.349750"><ele>156.4</ele><time>2026-08-17T03:46:42Z</time></trkpt>
			<trkpt lat="55.984401" lon="38.349578"><ele>156.1</ele><time>2026-08-17T03:46:44Z</time></trkpt>
			<trkpt lat="55.984340" lon="38.349140"><ele>156.8</ele><time>2026-08-17T03:46:48Z</time></trkpt>
			<trkpt lat="55.984784" lon="38.340949"><ele>165.6</ele><time>2026-08-17T03:48:12Z</time></trkpt>
			<trkpt lat="55.984796" lon="38.340402"><ele>163.3</ele><time>2026-08-17T03:48:15Z</time></trkpt>
			<trkpt lat="55.984741" lon="38.339508"><ele>159.3</ele><time>2026-08-17T03:48:21Z</time></trkpt>
			<trkpt lat="55.985111" lon="38.338634"><ele>158.4</ele><time>2026-08-17T03:48:28Z</time></trkpt>
			<trkpt lat="55.984444" lon="38.336942"><ele>164.6</ele><time>2026-08-17T03:48:51Z</time></trkpt>
			<trkpt lat="55.983422" lon="38.333947"><ele>163.8</ele><time>2026-08-17T03:49:20Z</time></trkpt>
			<trkpt lat="55.982290" lon="38.329617"><ele>163.1</ele><time>2026-08-17T03:50:00Z</time></trkpt>
			<trkpt lat="55.981606" lon="38.326525"><ele>164.8</ele><time>2026-08-17T03:50:32Z</time></trkpt>
			<trkpt lat="55.981312" lon="38.324587"><ele>163.3</ele><time>2026-08-17T03:50:46Z</time></trkpt>
			<trkpt lat="55.981160" lon="38.323011"><ele>161.0</ele><time>2026-08-17T03:50:56Z</time></trkpt>
			<trkpt lat="55.981110" lon="38.321854"><ele>158.7</ele><time>2026-08-17T03:51:04Z</time></trkpt>
			<trkpt lat="55.981150" lon="38.317226"><ele>163.0</ele><time>2026-08-17T03:51:46Z</time></trkpt>
			<trkpt lat="55.981081" lon="38.315699"><ele>164.0</ele><time>2026-08-17T03:52:03Z</time></trkpt>
			<trkpt lat="55.981003" lon="38.314994"><ele>164.2</ele><time>2026-08-17T03:52:10Z</time></trkpt>
			<trkpt lat="55.980758" lon="38.313622"><ele>161.5</ele><time>2026-08-17T03:52:21Z</time></trkpt>
			<trkpt lat="55.980450" lon="38.312346"><ele>161.0</ele><time>2026-08-17T03:52:30Z</time></trkpt>
			<trkpt lat="55.980078" lon="38.311176"><ele>157.5</ele><time>2026-08-17T03:52:39Z</time></trkpt>
			<trkpt lat="55.979915" lon="38.310763"><ele>156.7</ele><time>2026-08-17T03:52:43Z</time></trkpt>
			<trkpt lat="55.979018" lon="38.308753"><ele>161.9</ele><time>2026-08-17T03:53:09Z</time></trkpt>
			<trkpt lat="55.978475" lon="38.307670"><ele>161.6</ele><time>2026-08-17T03:53:23Z</time></trkpt>
			<trkpt lat="55.977927" lon="38.306734"><ele>162.4</ele><time>2026-08-17T03:53:34Z</time></trkpt>
			<trkpt lat="55.972957" lon="38.299085"><ele>163.0</ele><time>2026-08-17T03:55:14Z</time></trkpt>
			<trkpt lat="55.971802" lon="38.297132"><ele>161.3</ele><time>2026-08-17T03:55:35Z</time></trkpt>
			<trkpt lat="55.969205" lon="38.291671"><ele>157.0</ele><time>2026-08-17T03:56:25Z</time></trkpt>
			<trkpt lat="55.967792" lon="38.288627"><ele>156.0</ele><time>2026-08-17T03:57:00Z</time></trkpt>
			<trkpt lat="55.965428" lon="38.283357"><ele>154.3</ele><time>2026-08-17T03:57:55Z</time></trkpt>
			<trkpt lat="55.964249" lon="38.280072"><ele>152.1</ele><time>2026-08-17T03:58:27Z</time></trkpt>
			<trkpt lat="55.963648" lon="38.277635"><ele>150.5</ele><time>2026-08-17T03:58:45Z</time></trkpt>
			<trkpt lat="55.963258" lon="38.275765"><ele>148.7</ele><time>2026-08-17T03:58:59Z</time></trkpt>
			<trkpt lat="55.962963" lon="38.274135"><ele>146.6</ele><time>2026-08-17T03:59:11Z</time></trkpt>
			<trkpt lat="55.962164" lon="38.269145"><ele>148.6</ele><time>2026-08-17T03:59:48Z</time></trkpt>
			<trkpt lat="55.961861" lon="38.267464"><ele>150.3</ele><time>2026-08-17T04:00:01Z</time></trkpt>
			<trkpt lat="55.958552" lon="38.251418"><ele>151.7</ele><time>2026-08-17T04:02:22Z</time></trkpt>
			<trkpt lat="55.958211" lon="38.249892"><ele>150.4</ele><time>2026-08-17T04:02:35Z</time></trkpt>
			<trkpt lat="55.957805" lon="38.248423"><ele>146.4</ele><time>2026-08-17T04:02:48Z</time></trkpt>
			<trkpt lat="55.957301" lon="38.246926"><ele>146.3</ele><time>2026-08-17T04:03:01Z</time></trkpt>
			<trkpt lat="55.957041" lon="38.246246"><ele>147.8</ele><time>2026-08-17T04:03:09Z</time></trkpt>
			<trkpt lat="55.956810" lon="38.245754"><ele>148.0</ele><time>2026-08-17T04:03:16Z</time></trkpt>
			<trkpt lat="55.956041" lon="38.244316"><ele>152.3</ele><time>2026-08-17T04:03:45Z</time></trkpt>
			<trkpt lat="55.955388" lon="38.243206"><ele>157.7</ele><time>2026-08-17T04:04:11Z</time></trkpt>
			<trkpt lat="55.954294" lon="38.241498"><ele>156.1</ele><time>2026-08-17T04:04:43Z</time></trkpt>
			<trkpt lat="55.940768" lon="38.219117"><ele>146.8</ele><time>2026-08-17T04:09:05Z</time></trkpt>
			<trkpt lat="55.939599" lon="38.217390"><ele>144.8</ele><time>2026-08-17T04:09:23Z</time></trkpt>
			<trkpt lat="55.939034" lon="38.216696"><ele>147.8</ele><time>2026-08-17T04:09:33Z</time></trkpt>
			<trkpt lat="55.933754" lon="38.211703"><ele>145.1</ele><time>2026-08-17T04:11:00Z</time></trkpt>
			<trkpt lat="55.932438" lon="38.210410"><ele>150.3</ele><time>2026-08-17T04:11:36Z</time></trkpt>
			<trkpt lat="55.931426" lon="38.209257"><ele>155.2</ele><time>2026-08-17T04:12:03Z</time></trkpt>
			<trkpt lat="55.931073" lon="38.208758"><ele>155.6</ele><time>2026-08-17T04:12:12Z</time></trkpt>
			<trkpt lat="55.930759" lon="38.208199"><ele>154.8</ele><time>2026-08-17T04:12:20Z</time></trkpt>
			<trkpt lat="55.930102" lon="38.206890"><ele>153.9</ele><time>2026-08-17T04:12:37Z</time></trkpt>
			<trkpt lat="55.929667" lon="38.205872"><ele>155.2</ele><time>2026-08-17T04:12:52Z</time></trkpt>
			<trkpt lat="55.929115" lon="38.204339"><ele>156.9</ele><time>2026-08-17T04:13:17Z</time></trkpt>
			<trkpt lat="55.928709" lon="38.203019"><ele>160.9</ele><time>2026-08-17T04:13:41Z</time></trkpt>
			<trkpt lat="55.928412" lon="38.201693"><ele>161.9</ele><time>2026-08-17T04:14:05Z</time></trkpt>
			<trkpt lat="55.928067" lon="38.199572"><ele>170.0</ele><time>2026-08-17T04:14:44Z</time></trkpt>
			<trkpt lat="55.927999" lon="38.198864"><ele>171.5</ele><time>2026-08-17T04:14:54Z</time></trkpt>
			<trkpt lat="55.927945" lon="38.197644"><ele>171.9</ele><time>2026-08-17T04:15:07Z</time></trkpt>
			<trkpt lat="55.927961" lon="38.188893"><ele>164.3</ele><time>2026-08-17T04:16:05Z</time></trkpt>
			<trkpt lat="55.928298" lon="38.156704"><ele>157.1</ele><time>2026-08-17T04:20:15Z</time></trkpt>
			<trkpt lat="55.928240" lon="38.153160"><ele>159.5</ele><time>2026-08-17T04:20:45Z</time></trkpt>
			<trkpt lat="55.928095" lon="38.150479"><ele>150.7</ele><time>2026-08-17T04:21:09Z</time></trkpt>
			<trkpt lat="55.927945" lon="38.148783"><ele>154.6</ele><time>2026-08-17T04:21:23Z</time></trkpt>
			<trkpt lat="55.927627" lon="38.145939"><ele>154.6</ele><time>2026-08-17T04:21:50Z</time></trkpt>
			<trkpt lat="55.927233" lon="38.143275"><ele>154.7</ele><time>2026-08-17T04:22:18Z</time></trkpt>
			<trkpt lat="55.926512" lon="38.139501"><ele>151.8</ele><time>2026-08-17T04:22:48Z</time></trkpt>
			<trkpt lat="55.926098" lon="38.137626"><ele>146.4</ele><time>2026-08-17T04:23:00Z</time></trkpt>
			<trkpt lat="55.925939" lon="38.137002"><ele>145.5</ele><time>2026-08-17T04:23:04Z</time></trkpt>
			<trkpt lat="55.925739" lon="38.136418"><ele>144.8</ele><time>2026-08-17T04:23:08Z</time></trkpt>
			<trkpt lat="55.925567" lon="38.136052"><ele>144.5</ele><time>2026-08-17T04:23:12Z</time></trkpt>
			<trkpt lat="55.925212" lon="38.135453"><ele>144.5</ele><time>2026-08-17T04:23:19Z</time></trkpt>
			<trkpt lat="55.922476" lon="38.131420"><ele>148.8</ele><time>2026-08-17T04:24:25Z</time></trkpt>
			<trkpt lat="55.921374" lon="38.130030"><ele>153.5</ele><time>2026-08-17T04:24:58Z</time></trkpt>
			<trkpt lat="55.920352" lon="38.128807"><ele>158.2</ele><time>2026-08-17T04:25:29Z</time></trkpt>
			<trkpt lat="55.920166" lon="38.128494"><ele>158.8</ele><time>2026-08-17T04:25:35Z</time></trkpt>
			<trkpt lat="55.919926" lon="38.127926"><ele>160.0</ele><time>2026-08-17T04:25:43Z</time></trkpt>
			<trkpt lat="55.919763" lon="38.127287"><ele>161.7</ele><time>2026-08-17T04:25:51Z</time></trkpt>
			<trkpt lat="55.919575" lon="38.125801"><ele>163.7</ele><time>2026-08-17T04:26:05Z</time></trkpt>
			<trkpt lat="55.919390" lon="38.124855"><ele>165.6</ele><time>2026-08-17T04:26:14Z</time></trkpt>
			<trkpt lat="55.915130" lon="38.115224"><ele>155.6</ele><time>2026-08-17T04:27:38Z</time></trkpt>
			<trkpt lat="55.914125" lon="38.113029"><ele>151.2</ele><time>2026-08-17T04:27:54Z</time></trkpt>
			<trkpt lat="55.912069" lon="38.108887"><ele>132.5</ele><time>2026-08-17T04:28:25Z</time></trkpt>
			<trkpt lat="55.910118" lon="38.105074"><ele>133.8</ele><time>2026-08-17T04:29:11Z</time></trkpt>
			<trkpt lat="55.908107" lon="38.101832"><ele>139.8</ele><time>2026-08-17T04:30:10Z</time></trkpt>
			<trkpt lat="55.907882" lon="38.101407"><ele>140.0</ele><time>2026-08-17T04:30:17Z</time></trkpt>
			<trkpt lat="55.907280" lon="38.099464"><ele>140.3</ele><time>2026-08-17T04:30:37Z</time></trkpt>
			<trkpt lat="55.906055" lon="38.095008"><ele>140.6</ele><time>2026-08-17T04:31:20Z</time></trkpt>
			<trkpt lat="55.905875" lon="38.094233"><ele>140.1</ele><time>2026-08-17T04:31:26Z</time></trkpt>
			<trkpt lat="55.905567" lon="38.092587"><ele>140.2</ele><time>2026-08-17T04:31:39Z</time></trkpt>
			<trkpt lat="55.902592" lon="38.075870"><ele>142.6</ele><time>2026-08-17T04:34:06Z</time></trkpt>
			<trkpt lat="55.902436" lon="38.075133"><ele>143.8</ele><time>2026-08-17T04:34:14Z</time></trkpt>
			<trkpt lat="55.901835" lon="38.072913"><ele>145.6</ele><time>2026-08-17T04:34:42Z</time></trkpt>
			<trkpt lat="55.901628" lon="38.071986"><ele>145.9</ele><time>2026-08-17T04:34:53Z</time></trkpt>
			<trkpt lat="55.900906" lon="38.065661"><ele>151.6</ele><time>2026-08-17T04:36:07Z</time></trkpt>
			<trkpt lat="55.900897" lon="38.065130"><ele>151.1</ele><time>2026-08-17T04:36:11Z</time></trkpt>
			<trkpt lat="55.899295" lon="38.051355"><ele>153.6</ele><time>2026-08-17T04:38:05Z</time></trkpt>
			<trkpt lat="55.898961" lon="38.047976"><ele>148.6</ele><time>2026-08-17T04:38:36Z</time></trkpt>
			<trkpt lat="55.898814" lon="38.047044"><ele>147.7</ele><time>2026-08-17T04:38:45Z</time></trkpt>
			<trkpt lat="55.898063" lon="38.040205"><ele>152.2</ele><time>2026-08-17T04:39:53Z</time></trkpt>
			<trkpt lat="55.897917" lon="38.039113"><ele>152.9</ele><time>2026-08-17T04:40:06Z</time></trkpt>
			<trkpt lat="55.894721" lon="38.018720"><ele>152.1</ele><time>2026-08-17T04:43:08Z</time></trkpt>
			<trkpt lat="55.894619" lon="38.018423"><ele>151.7</ele><time>2026-08-17T04:43:11Z</time></trkpt>
			<trkpt lat="55.894466" lon="38.018199"><ele>151.5</ele><time>2026-08-17T04:43:13Z</time></trkpt>
			<trkpt lat="55.889359" lon="38.012743"><ele>150.3</ele><time>2026-08-17T04:44:36Z</time></trkpt>
			<trkpt lat="55.889252" lon="38.013047"><ele>149.7</ele><time>2026-08-17T04:44:41Z</time></trkpt>
			<trkpt lat="55.889153" lon="38.013063"><ele>149.7</ele><time>2026-08-17T04:44:43Z</time></trkpt>
			<trkpt lat="55.889090" lon="38.013132"><ele>149.7</ele><time>2026-08-17T04:44:45Z</time></trkpt>
			<trkpt lat="55.889013" lon="38.013120"><ele>149.9</ele><time>2026-08-17T04:44:46Z</time></trkpt>
			<trkpt lat="55.888729" lon="38.012799"><ele>150.7</ele><time>2026-08-17T04:45:25Z</time></trkpt>
			<trkpt lat="55.889013" lon="38.013120"><ele>149.9</ele><time>2026-08-17T04:46:03Z</time></trkpt>
			<trkpt lat="55.889090" lon="38.013132"><ele>149.8</ele><time>2026-08-17T04:46:05Z</time></trkpt>
			<trkpt lat="55.889153" lon="38.013063"><ele>149.7</ele><time>2026-08-17T04:46:06Z</time></trkpt>
			<trkpt lat="55.889252" lon="38.013047"><ele>149.8</ele><time>2026-08-17T04:46:08Z</time></trkpt>
			<trkpt lat="55.889359" lon="38.012743"><ele>150.3</ele><time>2026-08-17T04:46:11Z</time></trkpt>
			<trkpt lat="55.884532" lon="38.007530"><ele>153.2</ele><time>2026-08-17T04:47:34Z</time></trkpt>
			<trkpt lat="55.881508" lon="38.004339"><ele>161.1</ele><time>2026-08-17T04:48:42Z</time></trkpt>
			<trkpt lat="55.881270" lon="38.003821"><ele>159.3</ele><time>2026-08-17T04:48:47Z</time></trkpt>
			<trkpt lat="55.881247" lon="38.003473"><ele>158.4</ele><time>2026-08-17T04:48:49Z</time></trkpt>
			<trkpt lat="55.881309" lon="38.003234"><ele>158.5</ele><time>2026-08-17T04:48:51Z</time></trkpt>
			<trkpt lat="55.884486" lon="37.997031"><ele>161.7</ele><time>2026-08-17T04:50:16Z</time></trkpt>
			<trkpt lat="55.885398" lon="37.995483"><ele>163.4</ele><time>2026-08-17T04:50:36Z</time></trkpt>
			<trkpt lat="55.886304" lon="37.994087"><ele>161.6</ele><time>2026-08-17T04:50:50Z</time></trkpt>
			<trkpt lat="55.888116" lon="37.991756"><ele>154.3</ele><time>2026-08-17T04:51:16Z</time></trkpt>
			<trkpt lat="55.891598" lon="37.987681"><ele>151.8</ele><time>2026-08-17T04:52:09Z</time></trkpt>
			<trkpt lat="55.892500" lon="37.986273"><ele>148.6</ele><time>2026-08-17T04:52:26Z</time></trkpt>
			<trkpt lat="55.895125" lon="37.981999"><ele>148.8</ele><time>2026-08-17T04:53:22Z</time></trkpt>
			<trkpt lat="55.895548" lon="37.981330"><ele>149.3</ele><time>2026-08-17T04:53:31Z</time></trkpt>
			<trkpt lat="55.895823" lon="37.980977"><ele>149.4</ele><time>2026-08-17T04:53:37Z</time></trkpt>
			<trkpt lat="55.896069" lon="37.980800"><ele>149.8</ele><time>2026-08-17T04:53:41Z</time></trkpt>
			<trkpt lat="55.896304" lon="37.980726"><ele>150.6</ele><time>2026-08-17T04:53:46Z</time></trkpt>
			<trkpt lat="55.897318" lon="37.980625"><ele>151.0</ele><time>2026-08-17T04:54:00Z</time></trkpt>
			<trkpt lat="55.897438" lon="37.980517"><ele>150.7</ele><time>2026-08-17T04:54:02Z</time></trkpt>
			<trkpt lat="55.897525" lon="37.980265"><ele>150.2</ele><time>2026-08-17T04:54:04Z</time></trkpt>
			<trkpt lat="55.897638" lon="37.979774"><ele>149.0</ele><time>2026-08-17T04:54:08Z</time></trkpt>
			<trkpt lat="55.898094" lon="37.978338"><ele>146.1</ele><time>2026-08-17T04:54:18Z</time></trkpt>
			<trkpt lat="55.898136" lon="37.978083"><ele>146.1</ele><time>2026-08-17T04:54:20Z</time></trkpt>
			<trkpt lat="55.898131" lon="37.977293"><ele>146.3</ele><time>2026-08-17T04:54:25Z</time></trkpt>
			<trkpt lat="55.897726" lon="37.974476"><ele>147.9</ele><time>2026-08-17T04:54:51Z</time></trkpt>
			<trkpt lat="55.897497" lon="37.974565"><ele>148.0</ele><time>2026-08-17T04:55:17Z</time></trkpt>
			<trkpt lat="55.897726" lon="37.974476"><ele>147.9</ele><time>2026-08-17T04:55:43Z</time></trkpt>
			<trkpt lat="55.897474" lon="37.972397"><ele>148.0</ele><time>2026-08-17T04:56:01Z</time></trkpt>
			<trkpt lat="55.897192" lon="37.970459"><ele>148.4</ele><time>2026-08-17T04:56:20Z</time></trkpt>
			<trkpt lat="55.897123" lon="37.970216"><ele>148.7</ele><time>2026-08-17T04:56:23Z</time></trkpt>
			<trkpt lat="55.896966" lon="37.969970"><ele>149.0</ele><time>2026-08-17T04:56:27Z</time></trkpt>
			<trkpt lat="55.896209" lon="37.969576"><ele>150.6</ele><time>2026-08-17T04:56:44Z</time></trkpt>
			<trkpt lat="55.896021" lon="37.969413"><ele>151.3</ele><time>2026-08-17T04:56:48Z</time></trkpt>
			<trkpt lat="55.895981" lon="37.969269"><ele>151.4</ele><time>2026-08-17T04:56:50Z</time></trkpt>
			<trkpt lat="55.896238" lon="37.965409"><ele>152.0</ele><time>2026-08-17T04:57:27Z</time></trkpt>
			<trkpt lat="55.896382" lon="37.963551"><ele>153.2</ele><time>2026-08-17T04:57:46Z</time></trkpt>
			<trkpt lat="55.896512" lon="37.962375"><ele>153.2</ele><time>2026-08-17T04:58:00Z</time></trkpt>
			<trkpt lat="55.896857" lon="37.960765"><ele>152.4</ele><time>2026-08-17T04:58:18Z</time></trkpt>
			<trkpt lat="55.897063" lon="37.959558"><ele>153.0</ele><time>2026-08-17T04:58:28Z</time></trkpt>
			<trkpt lat="55.897250" lon="37.957404"><ele>157.6</ele><time>2026-08-17T04:58:43Z</time></trkpt>
			<trkpt lat="55.897666" lon="37.954273"><ele>164.5</ele><time>2026-08-17T04:59:24Z</time></trkpt>
			<trkpt lat="55.898167" lon="37.950025"><ele>168.5</ele><time>2026-08-17T05:00:16Z</time></trkpt>
			<trkpt lat="55.898314" lon="37.949458"><ele>166.8</ele><time>2026-08-17T05:00:20Z</time></trkpt>
			<trkpt lat="55.898406" lon="37.949341"><ele>166.3</ele><time>2026-08-17T05:00:22Z</time></trkpt>
			<trkpt lat="55.898561" lon="37.949269"><ele>165.7</ele><time>2026-08-17T05:00:23Z</time></trkpt>
			<trkpt lat="55.898809" lon="37.949266"><ele>165.1</ele><time>2026-08-17T05:00:27Z</time></trkpt>
			<trkpt lat="55.904136" lon="37.951289"><ele>155.4</ele><time>2026-08-17T05:01:42Z</time></trkpt>
			<trkpt lat="55.904226" lon="37.951277"><ele>155.6</ele><time>2026-08-17T05:01:44Z</time></trkpt>
			<trkpt lat="55.904333" lon="37.950975"><ele>156.2</ele><time>2026-08-17T05:01:49Z</time></trkpt>
			<trkpt lat="55.906236" lon="37.934997"><ele>157.5</ele><time>2026-08-17T05:04:09Z</time></trkpt>
			<trkpt lat="55.906336" lon="37.934564"><ele>157.0</ele><time>2026-08-17T05:04:13Z</time></trkpt>
			<trkpt lat="55.906413" lon="37.934439"><ele>156.8</ele><time>2026-08-17T05:04:15Z</time></trkpt>
			<trkpt lat="55.906516" lon="37.934361"><ele>156.6</ele><time>2026-08-17T05:04:17Z</time></trkpt>
			<trkpt lat="55.906619" lon="37.934338"><ele>156.5</ele><time>2026-08-17T05:04:18Z</time></trkpt>
			<trkpt lat="55.909591" lon="37.934730"><ele>158.2</ele><time>2026-08-17T05:05:03Z</time></trkpt>
			<trkpt lat="55.909867" lon="37.934810"><ele>159.0</ele><time>2026-08-17T05:05:08Z</time></trkpt>
			<trkpt lat="55.910103" lon="37.934928"><ele>159.4</ele><time>2026-08-17T05:05:11Z</time></trkpt>
			<trkpt lat="55.911103" lon="37.935673"><ele>157.2</ele><time>2026-08-17T05:05:27Z</time></trkpt>
			<trkpt lat="55.911189" lon="37.935678"><ele>157.0</ele><time>2026-08-17T05:05:28Z</time></trkpt>
			<trkpt lat="55.911300" lon="37.935556"><ele>156.8</ele><time>2026-08-17T05:05:30Z</time></trkpt>
			<trkpt lat="55.911386" lon="37.935226"><ele>156.4</ele><time>2026-08-17T05:05:33Z</time></trkpt>
			<trkpt lat="55.912653" lon="37.926707"><ele>159.0</ele><time>2026-08-17T05:06:49Z</time></trkpt>
			<trkpt lat="55.914265" lon="37.916224"><ele>159.5</ele><time>2026-08-17T05:08:23Z</time></trkpt>
			<trkpt lat="55.913557" lon="37.916342"><ele>161.4</ele><time>2026-08-17T05:08:34Z</time></trkpt>
			<trkpt lat="55.913407" lon="37.916297"><ele>161.8</ele><time>2026-08-17T05:08:36Z</time></trkpt>
			<trkpt lat="55.913332" lon="37.916379"><ele>162.0</ele><time>2026-08-17T05:08:38Z</time></trkpt>
			<trkpt lat="55.912821" lon="37.916453"><ele>163.1</ele><time>2026-08-17T05:08:48Z</time></trkpt>
			<trkpt lat="55.912517" lon="37.916267"><ele>163.4</ele><time>2026-08-17T05:08:55Z</time></trkpt>
			<trkpt lat="55.912316" lon="37.915865"><ele>163.1</ele><time>2026-08-17T05:09:01Z</time></trkpt>
			<trkpt lat="55.912098" lon="37.915566"><ele>162.7</ele><time>2026-08-17T05:09:06Z</time></trkpt>
			<trkpt lat="55.911956" lon="37.915295"><ele>162.2</ele><time>2026-08-17T05:09:11Z</time></trkpt>
			<trkpt lat="55.911150" lon="37.900489"><ele>160.7</ele><time>2026-08-17T05:11:48Z</time></trkpt>
			<trkpt lat="55.911285" lon="37.897044"><ele>159.6</ele><time>2026-08-17T05:12:13Z</time></trkpt>
			<trkpt lat="55.911434" lon="37.895920"><ele>162.4</ele><time>2026-08-17T05:12:25Z</time></trkpt>
			<trkpt lat="55.912108" lon="37.891699"><ele>158.2</ele><time>2026-08-17T05:13:02Z</time></trkpt>
			<trkpt lat="55.912161" lon="37.890290"><ele>157.9</ele><time>2026-08-17T05:13:22Z</time></trkpt>
			<trkpt lat="55.912131" lon="37.888257"><ele>159.6</ele><time>2026-08-17T05:13:53Z</time></trkpt>
			<trkpt lat="55.912163" lon="37.881654"><ele>168.9</ele><time>2026-08-17T05:15:26Z</time></trkpt>
			<trkpt lat="55.912130" lon="37.877100"><ele>165.3</ele><time>2026-08-17T05:16:12Z</time></trkpt>
			<trkpt lat="55.912061" lon="37.874141"><ele>163.5</ele><time>2026-08-17T05:16:46Z</time></trkpt>
			<trkpt lat="55.912001" lon="37.873631"><ele>162.1</ele><time>2026-08-17T05:16:52Z</time></trkpt>
			<trkpt lat="55.912024" lon="37.873061"><ele>161.6</ele><time>2026-08-17T05:16:59Z</time></trkpt>
			<trkpt lat="55.912056" lon="37.872935"><ele>161.8</ele><time>2026-08-17T05:17:01Z</time></trkpt>
			<trkpt lat="55.912177" lon="37.872837"><ele>161.5</ele><time>2026-08-17T05:17:04Z</time></trkpt>
			<trkpt lat="55.912386" lon="37.872782"><ele>161.0</ele><time>2026-08-17T05:17:08Z</time></trkpt>
			<trkpt lat="55.912510" lon="37.872509"><ele>161.0</ele><time>2026-08-17T05:17:12Z</time></trkpt>
			<trkpt lat="55.912638" lon="37.869633"><ele>164.0</ele><time>2026-08-17T05:17:36Z</time></trkpt>
			<trkpt lat="55.912686" lon="37.869553"><ele>164.3</ele><time>2026-08-17T05:17:37Z</time></trkpt>
			<trkpt lat="55.912797" lon="37.867558"><ele>159.6</ele><time>2026-08-17T05:17:49Z</time></trkpt>
			<trkpt lat="55.912895" lon="37.867111"><ele>159.9</ele><time>2026-08-17T05:17:52Z</time></trkpt>
			<trkpt lat="55.913430" lon="37.856511"><ele>161.3</ele><time>2026-08-17T05:19:26Z</time></trkpt>
			<trkpt lat="55.912661" lon="37.856471"><ele>162.6</ele><time>2026-08-17T05:19:41Z</time></trkpt>
			<trkpt lat="55.912789" lon="37.854005"><ele>163.6</ele><time>2026-08-17T05:20:57Z</time></trkpt>
			<trkpt lat="55.912661" lon="37.856471"><ele>162.5</ele><time>2026-08-17T05:22:15Z</time></trkpt>
			<trkpt lat="55.911360" lon="37.856341"><ele>162.9</ele><time>2026-08-17T05:22:34Z</time></trkpt>
			<trkpt lat="55.910969" lon="37.856273"><ele>161.9</ele><time>2026-08-17T05:22:39Z</time></trkpt>
			<trkpt lat="55.910870" lon="37.856150"><ele>161.8</ele><time>2026-08-17T05:22:40Z</time></trkpt>
			<trkpt lat="55.910851" lon="37.855889"><ele>162.0</ele><time>2026-08-17T05:22:42Z</time></trkpt>
			<trkpt lat="55.910974" lon="37.853828"><ele>161.0</ele><time>2026-08-17T05:22:55Z</time></trkpt>
			<trkpt lat="55.910965" lon="37.853629"><ele>161.1</ele><time>2026-08-17T05:22:56Z</time></trkpt>
			<trkpt lat="55.910897" lon="37.853437"><ele>161.0</ele><time>2026-08-17T05:22:57Z</time></trkpt>
			<trkpt lat="55.910775" lon="37.853365"><ele>160.7</ele><time>2026-08-17T05:22:59Z</time></trkpt>
			<trkpt lat="55.908831" lon="37.852935"><ele>158.1</ele><time>2026-08-17T05:23:23Z</time></trkpt>
			<trkpt lat="55.908365" lon="37.852796"><ele>157.7</ele><time>2026-08-17T05:23:29Z</time></trkpt>
			<trkpt lat="55.908215" lon="37.852659"><ele>157.7</ele><time>2026-08-17T05:23:31Z</time></trkpt>
			<trkpt lat="55.908024" lon="37.852298"><ele>157.8</ele><time>2026-08-17T05:23:35Z</time></trkpt>
			<trkpt lat="55.907532" lon="37.851159"><ele>157.1</ele><time>2026-08-17T05:23:48Z</time></trkpt>
			<trkpt lat="55.907361" lon="37.850993"><ele>157.0</ele><time>2026-08-17T05:23:52Z</time></trkpt>
			<trkpt lat="55.906638" lon="37.850788"><ele>157.0</ele><time>2026-08-17T05:24:03Z</time></trkpt>
			<trkpt lat="55.903893" lon="37.850142"><ele>154.7</ele><time>2026-08-17T05:24:42Z</time></trkpt>
			<trkpt lat="55.903775" lon="37.850187"><ele>154.9</ele><time>2026-08-17T05:24:44Z</time></trkpt>
			<trkpt lat="55.903635" lon="37.850372"><ele>155.1</ele><time>2026-08-17T05:24:47Z</time></trkpt>
			<trkpt lat="55.903169" lon="37.852029"><ele>156.2</ele><time>2026-08-17T05:25:07Z</time></trkpt>
			<trkpt lat="55.902984" lon="37.852471"><ele>156.8</ele><time>2026-08-17T05:25:13Z</time></trkpt>
			<trkpt lat="55.902831" lon="37.852642"><ele>157.5</ele><time>2026-08-17T05:25:17Z</time></trkpt>
			<trkpt lat="55.901697" lon="37.853403"><ele>165.5</ele><time>2026-08-17T05:25:40Z</time></trkpt>
			<trkpt lat="55.901100" lon="37.853765"><ele>164.5</ele><time>2026-08-17T05:25:49Z</time></trkpt>
			<trkpt lat="55.901027" lon="37.853852"><ele>164.3</ele><time>2026-08-17T05:25:50Z</time></trkpt>
			<trkpt lat="55.900941" lon="37.854036"><ele>164.2</ele><time>2026-08-17T05:25:52Z</time></trkpt>
			<trkpt lat="55.900832" lon="37.854427"><ele>164.0</ele><time>2026-08-17T05:25:55Z</time></trkpt>
			<trkpt lat="55.900706" lon="37.855020"><ele>163.8</ele><time>2026-08-17T05:25:59Z</time></trkpt>
			<trkpt lat="55.900420" lon="37.856995"><ele>162.6</ele><time>2026-08-17T05:26:13Z</time></trkpt>
			<trkpt lat="55.900345" lon="37.857228"><ele>161.6</ele><time>2026-08-17T05:26:15Z</time></trkpt>
			<trkpt lat="55.900258" lon="37.857351"><ele>161.1</ele><time>2026-08-17T05:26:16Z</time></trkpt>
			<trkpt lat="55.900321" lon="37.857659"><ele>161.3</ele><time>2026-08-17T05:26:30Z</time></trkpt>
			<trkpt lat="55.900320" lon="37.857865"><ele>162.0</ele><time>2026-08-17T05:26:39Z</time></trkpt>
			<trkpt lat="55.900421" lon="37.858133"><ele>163.4</ele><time>2026-08-17T05:26:54Z</time></trkpt>
			<trkpt lat="55.900331" lon="37.858347"><ele>163.0</ele><time>2026-08-17T05:27:06Z</time></trkpt>
			<trkpt lat="55.900125" lon="37.858362"><ele>161.5</ele><time>2026-08-17T05:27:23Z</time></trkpt>
			<trkpt lat="55.899659" lon="37.861444"><ele>163.3</ele><time>2026-08-17T05:27:55Z</time></trkpt>
			<trkpt lat="55.897760" lon="37.872759"><ele>162.1</ele><time>2026-08-17T05:29:40Z</time></trkpt>
			<trkpt lat="55.897948" lon="37.873350"><ele>163.6</ele><time>2026-08-17T05:30:09Z</time></trkpt>
			<trkpt lat="55.897974" lon="37.874225"><ele>162.8</ele><time>2026-08-17T05:30:45Z</time></trkpt>
			<trkpt lat="55.897687" lon="37.875006"><ele>161.2</ele><time>2026-08-17T05:31:25Z</time></trkpt>
			<trkpt lat="55.897305" lon="37.875535"><ele>160.9</ele><time>2026-08-17T05:32:01Z</time></trkpt>
			<trkpt lat="55.895562" lon="37.885955"><ele>161.0</ele><time>2026-08-17T05:33:23Z</time></trkpt>
			<trkpt lat="55.894928" lon="37.889997"><ele>160.0</ele><time>2026-08-17T05:33:58Z</time></trkpt>
			<trkpt lat="55.894853" lon="37.890807"><ele>160.5</ele><time>2026-08-17T05:34:04Z</time></trkpt>
			<trkpt lat="55.894324" lon="37.894060"><ele>160.7</ele><time>2026-08-17T05:34:29Z</time></trkpt>
			<trkpt lat="55.893947" lon="37.895850"><ele>160.2</ele><time>2026-08-17T05:34:47Z</time></trkpt>
			<trkpt lat="55.893396" lon="37.897303"><ele>157.3</ele><time>2026-08-17T05:35:04Z</time></trkpt>
			<trkpt lat="55.890164" lon="37.904299"><ele>152.4</ele><time>2026-08-17T05:36:16Z</time></trkpt>
			<trkpt lat="55.889374" lon="37.905732"><ele>154.5</ele><time>2026-08-17T05:36:39Z</time></trkpt>
			<trkpt lat="55.888727" lon="37.906586"><ele>156.7</ele><time>2026-08-17T05:36:54Z</time></trkpt>
			<trkpt lat="55.888070" lon="37.907229"><ele>159.3</ele><time>2026-08-17T05:37:07Z</time></trkpt>
			<trkpt lat="55.887461" lon="37.907616"><ele>159.4</ele><time>2026-08-17T05:37:17Z</time></trkpt>
			<trkpt lat="55.886751" lon="37.907859"><ele>159.3</ele><time>2026-08-17T05:37:27Z</time></trkpt>
			<trkpt lat="55.886052" lon="37.907953"><ele>159.7</ele><time>2026-08-17T05:37:37Z</time></trkpt>
			<trkpt lat="55.885761" lon="37.907912"><ele>159.6</ele><time>2026-08-17T05:37:41Z</time></trkpt>
			<trkpt lat="55.885083" lon="37.907635"><ele>158.7</ele><time>2026-08-17T05:37:50Z</time></trkpt>
			<trkpt lat="55.881664" lon="37.907095"><ele>160.0</ele><time>2026-08-17T05:38:37Z</time></trkpt>
			<trkpt lat="55.881103" lon="37.906743"><ele>159.7</ele><time>2026-08-17T05:38:46Z</time></trkpt>
			<trkpt lat="55.880053" lon="37.905850"><ele>158.2</ele><time>2026-08-17T05:39:09Z</time></trkpt>
			<trkpt lat="55.864053" lon="37.884602"><ele>168.1</ele><time>2026-08-17T05:44:23Z</time></trkpt>
			<trkpt lat="55.862560" lon="37.882743"><ele>167.2</ele><time>2026-08-17T05:44:46Z</time></trkpt>
			<trkpt lat="55.861969" lon="37.882078"><ele>166.5</ele><time>2026-08-17T05:44:54Z</time></trkpt>
			<trkpt lat="55.861395" lon="37.881602"><ele>166.1</ele><time>2026-08-17T05:45:02Z</time></trkpt>
			<trkpt lat="55.860934" lon="37.881366"><ele>164.4</ele><time>2026-08-17T05:45:09Z</time></trkpt>
			<trkpt lat="55.860576" lon="37.881264"><ele>164.0</ele><time>2026-08-17T05:45:15Z</time></trkpt>
			<trkpt lat="55.859556" lon="37.881153"><ele>164.1</ele><time>2026-08-17T05:45:36Z</time></trkpt>
			<trkpt lat="55.856761" lon="37.880986"><ele>166.9</ele><time>2026-08-17T05:46:23Z</time></trkpt>
			<trkpt lat="55.850224" lon="37.880687"><ele>166.9</ele><time>2026-08-17T05:47:58Z</time></trkpt>
			<trkpt lat="55.843952" lon="37.880314"><ele>169.1</ele><time>2026-08-17T05:49:36Z</time></trkpt>
			<trkpt lat="55.837724" lon="37.880052"><ele>162.1</ele><time>2026-08-17T05:50:52Z</time></trkpt>
			<trkpt lat="55.833546" lon="37.879765"><ele>164.1</ele><time>2026-08-17T05:52:04Z</time></trkpt>
			<trkpt lat="55.832720" lon="37.880223"><ele>165.9</ele><time>2026-08-17T05:52:19Z</time></trkpt>
			<trkpt lat="55.827075" lon="37.883724"><ele>163.5</ele><time>2026-08-17T05:53:39Z</time></trkpt>
			<trkpt lat="55.827054" lon="37.884268"><ele>164.3</ele><time>2026-08-17T05:54:03Z</time></trkpt>
			<trkpt lat="55.826979" lon="37.884601"><ele>163.9</ele><time>2026-08-17T05:54:19Z</time></trkpt>
			<trkpt lat="55.826800" lon="37.885069"><ele>162.8</ele><time>2026-08-17T05:54:44Z</time></trkpt>
			<trkpt lat="55.826659" lon="37.885637"><ele>160.7</ele><time>2026-08-17T05:55:12Z</time></trkpt>
			<trkpt lat="55.826632" lon="37.886445"><ele>159.9</ele><time>2026-08-17T05:55:48Z</time></trkpt>
			<trkpt lat="55.826515" lon="37.887012"><ele>159.2</ele><time>2026-08-17T05:56:16Z</time></trkpt>
			<trkpt lat="55.826353" lon="37.887265"><ele>158.4</ele><time>2026-08-17T05:56:25Z</time></trkpt>
			<trkpt lat="55.826175" lon="37.888112"><ele>156.3</ele><time>2026-08-17T05:56:47Z</time></trkpt>
			<trkpt lat="55.826018" lon="37.888561"><ele>155.1</ele><time>2026-08-17T05:56:58Z</time></trkpt>
			<trkpt lat="55.825844" lon="37.889282"><ele>154.4</ele><time>2026-08-17T05:57:15Z</time></trkpt>
			<trkpt lat="55.825829" lon="37.889854"><ele>155.6</ele><time>2026-08-17T05:57:28Z</time></trkpt>
			<trkpt lat="55.825748" lon="37.890428"><ele>156.3</ele><time>2026-08-17T05:57:41Z</time></trkpt>
			<trkpt lat="55.825757" lon="37.890679"><ele>156.5</ele><time>2026-08-17T05:57:46Z</time></trkpt>
			<trkpt lat="55.825713" lon="37.890860"><ele>156.5</ele><time>2026-08-17T05:57:50Z</time></trkpt>
			<trkpt lat="55.824185" lon="37.881328"><ele>161.8</ele><time>2026-08-17T05:59:18Z</time></trkpt>
			<trkpt lat="55.823432" lon="37.876304"><ele>161.3</ele><time>2026-08-17T06:00:08Z</time></trkpt>
			<trkpt lat="55.821724" lon="37.865870"><ele>167.0</ele><time>2026-08-17T06:02:18Z</time></trkpt>
			<trkpt lat="55.821503" lon="37.864821"><ele>168.9</ele><time>2026-08-17T06:02:31Z</time></trkpt>
			<trkpt lat="55.820099" lon="37.858983"><ele>172.0</ele><time>2026-08-17T06:03:40Z</time></trkpt>
			<trkpt lat="55.821200" lon="37.858402"><ele>172.0</ele><time>2026-08-17T06:03:57Z</time></trkpt>
			<trkpt lat="55.821814" lon="37.857896"><ele>173.1</ele><time>2026-08-17T06:04:09Z</time></trkpt>
			<trkpt lat="55.822302" lon="37.857309"><ele>176.5</ele><time>2026-08-17T06:04:58Z</time></trkpt>
			<trkpt lat="55.826839" lon="37.848983"><ele>175.3</ele><time>2026-08-17T06:13:26Z</time></trkpt>
			<trkpt lat="55.828764" lon="37.842907"><ele>165.7</ele><time>2026-08-17T06:14:49Z</time></trkpt>
			<trkpt lat="55.829621" lon="37.840543"><ele>164.5</ele><time>2026-08-17T06:15:12Z</time></trkpt>
			<trkpt lat="55.830437" lon="37.838674"><ele>164.3</ele><time>2026-08-17T06:15:29Z</time></trkpt>
			<trkpt lat="55.831723" lon="37.835956"><ele>161.2</ele><time>2026-08-17T06:15:53Z</time></trkpt>
			<trkpt lat="55.832293" lon="37.835074"><ele>160.7</ele><time>2026-08-17T06:16:02Z</time></trkpt>
			<trkpt lat="55.831340" lon="37.832337"><ele>157.6</ele><time>2026-08-17T06:16:22Z</time></trkpt>
			<trkpt lat="55.830412" lon="37.829848"><ele>155.8</ele><time>2026-08-17T06:16:42Z</time></trkpt>
			<trkpt lat="55.830090" lon="37.829205"><ele>155.1</ele><time>2026-08-17T06:16:49Z</time></trkpt>
			<trkpt lat="55.829198" lon="37.827670"><ele>158.5</ele><time>2026-08-17T06:17:10Z</time></trkpt>
			<trkpt lat="55.829157" lon="37.827536"><ele>158.7</ele><time>2026-08-17T06:17:11Z</time></trkpt>
			<trkpt lat="55.829164" lon="37.827195"><ele>157.9</ele><time>2026-08-17T06:17:14Z</time></trkpt>
			<trkpt lat="55.829491" lon="37.826457"><ele>155.9</ele><time>2026-08-17T06:17:20Z</time></trkpt>
			<trkpt lat="55.829635" lon="37.826070"><ele>156.2</ele><time>2026-08-17T06:17:23Z</time></trkpt>
			<trkpt lat="55.829666" lon="37.825865"><ele>156.4</ele><time>2026-08-17T06:17:24Z</time></trkpt>
			<trkpt lat="55.829640" lon="37.825528"><ele>156.7</ele><time>2026-08-17T06:17:27Z</time></trkpt>
			<trkpt lat="55.829269" lon="37.824828"><ele>156.6</ele><time>2026-08-17T06:17:34Z</time></trkpt>
			<trkpt lat="55.829769" lon="37.823853"><ele>156.8</ele><time>2026-08-17T06:17:49Z</time></trkpt>
			<trkpt lat="55.829863" lon="37.823594"><ele>156.5</ele><time>2026-08-17T06:17:53Z</time></trkpt>
			<trkpt lat="55.829893" lon="37.823219"><ele>156.4</ele><time>2026-08-17T06:17:58Z</time></trkpt>
			<trkpt lat="55.829669" lon="37.813495"><ele>163.1</ele><time>2026-08-17T06:19:40Z</time></trkpt>
			<trkpt lat="55.829594" lon="37.813037"><ele>162.6</ele><time>2026-08-17T06:19:44Z</time></trkpt>
			<trkpt lat="55.829446" lon="37.812520"><ele>161.8</ele><time>2026-08-17T06:19:48Z</time></trkpt>
			<trkpt lat="55.829310" lon="37.812100"><ele>161.3</ele><time>2026-08-17T06:19:51Z</time></trkpt>
			<trkpt lat="55.829116" lon="37.811642"><ele>160.9</ele><time>2026-08-17T06:19:54Z</time></trkpt>
			<trkpt lat="55.825244" lon="37.804830"><ele>158.2</ele><time>2026-08-17T06:21:17Z</time></trkpt>
			<trkpt lat="55.824574" lon="37.803225"><ele>158.1</ele><time>2026-08-17T06:21:30Z</time></trkpt>
			<trkpt lat="55.824460" lon="37.803058"><ele>157.7</ele><time>2026-08-17T06:21:31Z</time></trkpt>
			<trkpt lat="55.824358" lon="37.802984"><ele>157.3</ele><time>2026-08-17T06:21:32Z</time></trkpt>
			<trkpt lat="55.824208" lon="37.802972"><ele>156.6</ele><time>2026-08-17T06:21:34Z</time></trkpt>
			<trkpt lat="55.822991" lon="37.803082"><ele>150.6</ele><time>2026-08-17T06:21:46Z</time></trkpt>
			<trkpt lat="55.822892" lon="37.803072"><ele>150.1</ele><time>2026-08-17T06:21:47Z</time></trkpt>
			<trkpt lat="55.822771" lon="37.802913"><ele>149.6</ele><time>2026-08-17T06:21:49Z</time></trkpt>
			<trkpt lat="55.822718" lon="37.802762"><ele>149.5</ele><time>2026-08-17T06:21:50Z</time></trkpt>
			<trkpt lat="55.822491" lon="37.800718"><ele>151.6</ele><time>2026-08-17T06:22:04Z</time></trkpt>
			<trkpt lat="55.822472" lon="37.800197"><ele>150.3</ele><time>2026-08-17T06:22:08Z</time></trkpt>
			<trkpt lat="55.822107" lon="37.799438"><ele>148.9</ele><time>2026-08-17T06:22:15Z</time></trkpt>
			<trkpt lat="55.821701" lon="37.798850"><ele>151.5</ele><time>2026-08-17T06:22:21Z</time></trkpt>
			<trkpt lat="55.821445" lon="37.798601"><ele>151.7</ele><time>2026-08-17T06:22:25Z</time></trkpt>
			<trkpt lat="55.821063" lon="37.798340"><ele>149.2</ele><time>2026-08-17T06:22:30Z</time></trkpt>
			<trkpt lat="55.820707" lon="37.798172"><ele>147.7</ele><time>2026-08-17T06:22:34Z</time></trkpt>
			<trkpt lat="55.820706" lon="37.797963"><ele>148.2</ele><time>2026-08-17T06:22:36Z</time></trkpt>
			<trkpt lat="55.821647" lon="37.797944"><ele>153.3</ele><time>2026-08-17T06:22:57Z</time></trkpt>
			<trkpt lat="55.821654" lon="37.796574"><ele>151.9</ele><time>2026-08-17T06:23:15Z</time></trkpt>
			<trkpt lat="55.821612" lon="37.796477"><ele>151.9</ele><time>2026-08-17T06:23:17Z</time></trkpt>
			<trkpt lat="55.821600" lon="37.793520"><ele>150.8</ele><time>2026-08-17T06:23:39Z</time></trkpt>
			<trkpt lat="55.821555" lon="37.793318"><ele>150.3</ele><time>2026-08-17T06:23:41Z</time></trkpt>
			<trkpt lat="55.821409" lon="37.793054"><ele>149.2</ele><time>2026-08-17T06:23:44Z</time></trkpt>
			<trkpt lat="55.820825" lon="37.793070"><ele>146.0</ele><time>2026-08-17T06:23:52Z</time></trkpt>
			<trkpt lat="55.820746" lon="37.787790"><ele>146.8</ele><time>2026-08-17T06:24:30Z</time></trkpt>
			<trkpt lat="55.820693" lon="37.787224"><ele>146.3</ele><time>2026-08-17T06:24:34Z</time></trkpt>
			<trkpt lat="55.820442" lon="37.786019"><ele>144.3</ele><time>2026-08-17T06:24:43Z</time></trkpt>
			<trkpt lat="55.820104" lon="37.785083"><ele>144.4</ele><time>2026-08-17T06:24:52Z</time></trkpt>
			<trkpt lat="55.817005" lon="37.769789"><ele>140.2</ele><time>2026-08-17T06:27:05Z</time></trkpt>
			<trkpt lat="55.816932" lon="37.769630"><ele>140.1</ele><time>2026-08-17T06:27:07Z</time></trkpt>
			<trkpt lat="55.817077" lon="37.769480"><ele>140.0</ele><time>2026-08-17T06:27:09Z</time></trkpt>
			<trkpt lat="55.818218" lon="37.767749"><ele>143.0</ele><time>2026-08-17T06:27:30Z</time></trkpt>
			<trkpt lat="55.824310" lon="37.758256"><ele>155.2</ele><time>2026-08-17T06:30:26Z</time></trkpt>
			<trkpt lat="55.823175" lon="37.755963"><ele>154.0</ele><time>2026-08-17T06:30:55Z</time></trkpt>
			<trkpt lat="55.822345" lon="37.754501"><ele>156.2</ele><time>2026-08-17T06:31:15Z</time></trkpt>
			<trkpt lat="55.821152" lon="37.752165"><ele>155.7</ele><time>2026-08-17T06:31:33Z</time></trkpt>
			<trkpt lat="55.820651" lon="37.751066"><ele>153.4</ele><time>2026-08-17T06:31:43Z</time></trkpt>
			<trkpt lat="55.820279" lon="37.750105"><ele>151.2</ele><time>2026-08-17T06:31:55Z</time></trkpt>
			<trkpt lat="55.820383" lon="37.750171"><ele>151.2</ele><time>2026-08-17T06:31:58Z</time></trkpt>
			<trkpt lat="55.820467" lon="37.750176"><ele>151.4</ele><time>2026-08-17T06:31:59Z</time></trkpt>
			<trkpt lat="55.821075" lon="37.750019"><ele>153.2</ele><time>2026-08-17T06:32:10Z</time></trkpt>
			<trkpt lat="55.821186" lon="37.749086"><ele>154.6</ele><time>2026-08-17T06:32:19Z</time></trkpt>
			<trkpt lat="55.821544" lon="37.745130"><ele>153.0</ele><time>2026-08-17T06:32:52Z</time></trkpt>
			<trkpt lat="55.821564" lon="37.744205"><ele>154.5</ele><time>2026-08-17T06:33:00Z</time></trkpt>
			<trkpt lat="55.821449" lon="37.743692"><ele>154.7</ele><time>2026-08-17T06:33:06Z</time></trkpt>
			<trkpt lat="55.820984" lon="37.742563"><ele>152.8</ele><time>2026-08-17T06:33:19Z</time></trkpt>
			<trkpt lat="55.820919" lon="37.742199"><ele>152.8</ele><time>2026-08-17T06:33:23Z</time></trkpt>
			<trkpt lat="55.821369" lon="37.736199"><ele>154.7</ele><time>2026-08-17T06:34:21Z</time></trkpt>
			<trkpt lat="55.821479" lon="37.736233"><ele>154.6</ele><time>2026-08-17T06:34:25Z</time></trkpt>
			<trkpt lat="55.821369" lon="37.736199"><ele>154.5</ele><time>2026-08-17T06:34:30Z</time></trkpt>
			<trkpt lat="55.821816" lon="37.730839"><ele>155.1</ele><time>2026-08-17T06:35:08Z</time></trkpt>
			<trkpt lat="55.822170" lon="37.729403"><ele>153.1</ele><time>2026-08-17T06:35:20Z</time></trkpt>
			<trkpt lat="55.822274" lon="37.729204"><ele>152.7</ele><time>2026-08-17T06:35:23Z</time></trkpt>
			<trkpt lat="55.822383" lon="37.729095"><ele>152.7</ele><time>2026-08-17T06:35:26Z</time></trkpt>
			<trkpt lat="55.822471" lon="37.729059"><ele>152.9</ele><time>2026-08-17T06:35:28Z</time></trkpt>
			<trkpt lat="55.824789" lon="37.729012"><ele>160.3</ele><time>2026-08-17T06:36:19Z</time></trkpt>
			<trkpt lat="55.826140" lon="37.728929"><ele>161.1</ele><time>2026-08-17T06:36:39Z</time></trkpt>
			<trkpt lat="55.827067" lon="37.728812"><ele>162.9</ele><time>2026-08-17T06:36:56Z</time></trkpt>
			<trkpt lat="55.826364" lon="37.713516"><ele>148.4</ele><time>2026-08-17T06:38:46Z</time></trkpt>
			<trkpt lat="55.826423" lon="37.713204"><ele>148.2</ele><time>2026-08-17T06:38:48Z</time></trkpt>
			<trkpt lat="55.827252" lon="37.711289"><ele>147.7</ele><time>2026-08-17T06:39:05Z</time></trkpt>
			<trkpt lat="55.827437" lon="37.710740"><ele>148.9</ele><time>2026-08-17T06:39:11Z</time></trkpt>
			<trkpt lat="55.827446" lon="37.710332"><ele>149.0</ele><time>2026-08-17T06:39:16Z</time></trkpt>
			<trkpt lat="55.827280" lon="37.709879"><ele>148.9</ele><time>2026-08-17T06:39:22Z</time></trkpt>
			<trkpt lat="55.826633" lon="37.709148"><ele>148.9</ele><time>2026-08-17T06:39:36Z</time></trkpt>
			<trkpt lat="55.826539" lon="37.708999"><ele>148.3</ele><time>2026-08-17T06:39:38Z</time></trkpt>
			<trkpt lat="55.826445" lon="37.708674"><ele>147.3</ele><time>2026-08-17T06:39:41Z</time></trkpt>
			<trkpt lat="55.826122" lon="37.705889"><ele>145.0</ele><time>2026-08-17T06:40:00Z</time></trkpt>
			<trkpt lat="55.826086" lon="37.705279"><ele>145.6</ele><time>2026-08-17T06:40:04Z</time></trkpt>
			<trkpt lat="55.826234" lon="37.705274"><ele>145.7</ele><time>2026-08-17T06:40:20Z</time></trkpt>
			<trkpt lat="55.826339" lon="37.704942"><ele>145.9</ele><time>2026-08-17T06:40:35Z</time></trkpt>
			<trkpt lat="55.826584" lon="37.704701"><ele>145.7</ele><time>2026-08-17T06:40:54Z</time></trkpt>
			<trkpt lat="55.826853" lon="37.704159"><ele>145.3</ele><time>2026-08-17T06:41:23Z</time></trkpt>
			<trkpt lat="55.826901" lon="37.703552"><ele>145.8</ele><time>2026-08-17T06:41:47Z</time></trkpt>
			<trkpt lat="55.827177" lon="37.702886"><ele>148.0</ele><time>2026-08-17T06:42:19Z</time></trkpt>
			<trkpt lat="55.828271" lon="37.702990"><ele>146.6</ele><time>2026-08-17T06:43:35Z</time></trkpt>
		</trkseg>
	</trk>
<wpt lat="56.129984" lon="40.419530"><ele>102.000</ele><name>Старт(0.0 км) Владимир ж.д. Вокзал</name><cmt>Старт</cmt><desc>фото-отметка на фоне ж.д. Вокзала во Владимире</desc><sym>Start</sym></wpt><wpt lat="56.196456" lon="40.561279"><ele>91.300</ele><name>КП-1(11.9 км) Нерль, Храм Покрова на Нерли</name><cmt>КП-1</cmt><desc>фото-отметка на фоне Храм Покрова на Нерли</desc><sym>Waypoint</sym></wpt><wpt lat="55.995503" lon="40.023082"><ele>106.689</ele><name>КП-2(68.8 км) Собинка. Скульптура велогонщики (слева)</name><cmt>КП-2</cmt><desc>фото-отметка на фоне Скульптура велогонщики (слева)</desc><sym>Waypoint</sym></wpt><wpt lat="56.156939" lon="39.877341"><ele>167.318</ele><name>КП-3(95.5 км) дер. Орехово, Музей Жуковского</name><cmt>КП-3</cmt><desc>фото-отметка на фоне Музей Жуковского</desc><sym>Waypoint</sym></wpt><wpt lat="56.187093" lon="39.474148"><ele>159.289</ele><name>КП-4(133.4 км) дер. Кудрявцево, Успенская Церковь (полуразрушенная)</name><cmt>КП-4</cmt><desc>фото-отметка на фоне Успенская Церковь (полуразрушенная)</desc><sym>Waypoint</sym></wpt><wpt lat="56.163667" lon="38.880631"><ele>153.301</ele><name>КП-5(186.2 км) Киржач, скульптура Скорбящая мать</name><cmt>КП-5</cmt><desc>фото-отметка на фоне скульптура Скорбящая мать</desc><sym>Waypoint</sym></wpt><wpt lat="55.912828" lon="37.853303"><ele>163.592</ele><name>КП-6(273.2 км) Королев, Памятник ВОВ</name><cmt>КП-6</cmt><desc>фото-отметка на фоне Памятник ВОВ</desc><sym>Waypoint</sym></wpt><wpt lat="55.828271" lon="37.702990"><ele>146.600</ele><name>Финиш(301.4 км) МЦК Белокаменная (внутренняя сторона)</name><cmt>Финиш</cmt><desc>фото-отметка на фоне МЦК Белокаменная (внутренняя сторона)</desc><sym>Finish</sym></wpt></gpx>